Provisional Data: Bowman Creek near Noxen, PA


Please select a monitoring station.
Please select start date.
Please select start date.

Toggle Unit: C/F Toggle Unit: C/F
Sample Time Temperature (C) Temperature (F) Specific Conductivity (mS/cm) pH   Turbidity (NTU+) DO (mg/L)
12/23/2022 12:00:00 AM 5.1 41.18 0.055 6.76 5.11 12.43
12/23/2022 12:15:00 AM 5.1 41.18 0.057 6.82 5.82 12.42
12/23/2022 12:30:00 AM 5.09 41.162 0.059 6.78 6.98 12.43
12/23/2022 12:45:00 AM 5.08 41.144 0.06 6.79 8.09 12.43
12/23/2022 1:00:00 AM 5.08 41.144 0.06 6.84 9.62 12.42
12/23/2022 1:15:00 AM 5.08 41.144 0.06 6.79 10.98 12.42
12/23/2022 1:30:00 AM 5.09 41.162 0.06 6.79 12.15 12.42
12/23/2022 1:45:00 AM 5.07 41.126 0.061 6.81 14.71 12.41
12/23/2022 2:00:00 AM 5.03 41.054 0.062 6.78 37.82 12.42
12/23/2022 2:15:00 AM 5 41 0.063 6.82 19.64 12.43
12/23/2022 2:30:00 AM 4.96 40.928 0.061 6.78 30.52 12.44
12/23/2022 2:45:00 AM 4.92 40.856 0.058 6.76 37.77 12.44
12/23/2022 3:00:00 AM 4.91 40.838 0.055 6.79 38.6 12.44
12/23/2022 3:15:00 AM 4.93 40.874 0.051 6.69 40.71 12.43
12/23/2022 3:30:00 AM 4.95 40.91 0.047 6.74 31.2 12.41
12/23/2022 3:45:00 AM 4.97 40.946 0.043 6.67 29.3 12.39
12/23/2022 4:00:00 AM 4.98 40.964 0.041 6.63 36.46 12.38
12/23/2022 4:15:00 AM 5 41 0.038 6.59 35.91 12.37
12/23/2022 4:30:00 AM 5 41 0.036 6.52 34.67 12.36
12/23/2022 4:45:00 AM 5.01 41.018 0.034 6.53 50.38 12.35
12/23/2022 5:00:00 AM 5.03 41.054 0.032 6.49 40.97 12.34
12/23/2022 5:15:00 AM 5.08 41.144 0.031 6.45 59.13 12.33
12/23/2022 5:30:00 AM 5.12 41.216 0.03 6.38 55.99 12.32
12/23/2022 5:45:00 AM 5.19 41.342 0.03 6.42 52.3 12.3
12/23/2022 6:00:00 AM 5.26 41.468 0.03 6.4 51.5 12.28
12/23/2022 6:15:00 AM 5.34 41.612 0.031 6.36 46.98 12.27
12/23/2022 6:30:00 AM 5.41 41.738 0.031 6.42 43.45 12.25
12/23/2022 6:45:00 AM 5.47 41.846 0.031 6.4 39.73 12.22
12/23/2022 7:00:00 AM 5.51 41.918 0.031 6.34 37.87 12.2
12/23/2022 7:15:00 AM 5.58 42.044 0.032 6.46 35.66 12.18
12/23/2022 7:30:00 AM 5.63 42.134 0.032 6.43 33.45 12.17
12/23/2022 7:45:00 AM 5.69 42.242 0.031 6.43 31.5 12.15
12/23/2022 8:00:00 AM 5.76 42.368 0.031 6.41 38.44 12.13
12/23/2022 8:15:00 AM 5.8 42.44 0.031 6.4 25.28 12.11
12/23/2022 8:30:00 AM 5.86 42.548 0.03 6.43 27.67 12.09
12/23/2022 8:45:00 AM 5.91 42.638 0.03 6.38 19.7 12.08
12/23/2022 9:00:00 AM 5.95 42.71 0.03 6.44 25.94 12.07
12/23/2022 9:15:00 AM 5.97 42.746 0.03 6.46 28.62 12.05
12/23/2022 9:30:00 AM 5.99 42.782 0.03 6.42 25.66 12.04
12/23/2022 9:45:00 AM 6 42.8 0.031 6.42 24.12 12.04
12/23/2022 10:00:00 AM 6 42.8 0.032 6.46 22.38 12.05
12/23/2022 10:15:00 AM 5.98 42.764 0.034 6.44 30.86 12.06
12/23/2022 10:30:00 AM 5.98 42.764 0.035 6.46 27.25 12.06
12/23/2022 10:45:00 AM 5.97 42.746 0.034 6.49 135.51 12.07
12/23/2022 11:00:00 AM 5.96 42.728 0.034 6.49 37.28 12.07
12/23/2022 11:15:00 AM 5.95 42.71 0.034 6.4 44.33 12.07
12/23/2022 11:30:00 AM 5.94 42.692 0.034 6.46 43.79 12.07
12/23/2022 11:45:00 AM 5.95 42.71 0.033 6.41 42.16 12.07
12/23/2022 12:00:00 PM 5.95 42.71 0.032 6.41 47.37 12.08
12/23/2022 12:15:00 PM 5.93 42.674 0.031 6.39 49.4 12.08
12/23/2022 12:30:00 PM 5.9 42.62 0.031 6.36 52.87 12.09
12/23/2022 12:45:00 PM 5.86 42.548 0.03 6.39 46.23 12.1
12/23/2022 1:00:00 PM 5.82 42.476 0.03 6.32 45.04 12.12
12/23/2022 1:15:00 PM 5.79 42.422 0.03 6.35 43.45 12.13
12/23/2022 1:30:00 PM 5.75 42.35 0.03 6.35 41.53 12.15
12/23/2022 1:45:00 PM 5.71 42.278 0.03 6.33 49.36 12.16
12/23/2022 2:00:00 PM 5.68 42.224 0.029 6.33 32.97 12.17
12/23/2022 2:15:00 PM 5.64 42.152 0.029 6.27 33.81 12.18
12/23/2022 2:30:00 PM 5.61 42.098 0.029 6.31 30.18 12.19
12/23/2022 2:45:00 PM 5.58 42.044 0.029 6.26 35.56 12.2
12/23/2022 3:00:00 PM 5.54 41.972 0.029 6.26 50.52 12.22
12/23/2022 3:15:00 PM 5.49 41.882 0.029 6.29 22.99 12.23
12/23/2022 3:30:00 PM 5.45 41.81 0.029 6.21 25.09 12.25
12/23/2022 3:45:00 PM 5.38 41.684 0.028 6.26 19.35 12.27
12/23/2022 4:00:00 PM 5.31 41.558 0.028 6.25 23.21 12.3
12/23/2022 4:15:00 PM 5.25 41.45 0.028 6.24 22 12.31
12/23/2022 4:30:00 PM 5.18 41.324 0.028 6.24 17.69 12.33
12/23/2022 4:45:00 PM 5.11 41.198 0.028 6.2 16.64 12.34
12/23/2022 5:00:00 PM 5.05 41.09 0.028 6.21 15.1 12.35
12/23/2022 5:15:00 PM 4.97 40.946 0.028 6.18 12.63 12.38
12/23/2022 5:30:00 PM 4.89 40.802 0.028 6.2 13.64 12.41
12/23/2022 5:45:00 PM 4.82 40.676 0.029 6.13 16.27 12.44
12/23/2022 6:00:00 PM 4.77 40.586 0.028 6.16 14.55 12.46
12/23/2022 6:15:00 PM 4.71 40.478 0.028 6.18 13.32 12.48
12/23/2022 6:30:00 PM 4.63 40.334 0.028 6.12 15.43 12.5
12/23/2022 6:45:00 PM 4.58 40.244 0.028 6.16 14.86 12.52
12/23/2022 7:00:00 PM 4.52 40.136 0.028 6.14 14.29 12.53
12/23/2022 7:15:00 PM 4.49 40.082 0.028 6.13 13.97 12.55
12/23/2022 7:30:00 PM 4.44 39.992 0.028 6.16 14.1 12.57
12/23/2022 7:45:00 PM 4.38 39.884 0.027 6.13 13.1 12.59
12/23/2022 8:00:00 PM 4.33 39.794 0.027 6.08 12.79 12.61
12/23/2022 8:15:00 PM 4.3 39.74 0.027 6.13 12.72 12.63
12/23/2022 8:30:00 PM 4.26 39.668 0.027 6.13 11.9 12.65
12/23/2022 8:45:00 PM 4.21 39.578 0.027 6.11 11.63 12.66
12/23/2022 9:00:00 PM 4.17 39.506 0.027 6.11 11.49 12.67
12/23/2022 9:15:00 PM 4.13 39.434 0.027 6.09 11.47 12.68
12/23/2022 9:30:00 PM 4.11 39.398 0.027 6.07 11.37 12.69
12/23/2022 9:45:00 PM 4.08 39.344 0.026 6.17 11.29 12.7
12/23/2022 10:00:00 PM 4.05 39.29 0.026 6.16 10.81 12.7
12/23/2022 10:15:00 PM 4.02 39.236 0.026 6.17 10.78 12.71
12/23/2022 10:30:00 PM 3.99 39.182 0.026 6.14 10.57 12.73
12/23/2022 10:45:00 PM 3.95 39.11 0.026 6.14 9.92 12.74
12/23/2022 11:00:00 PM 3.95 39.11 0.026 6.15 9.65 12.75
12/23/2022 11:15:00 PM 3.94 39.092 0.026 6.11 9.89 12.75
12/23/2022 11:30:00 PM 3.94 39.092 0.026 6.16 9.61 12.75
12/23/2022 11:45:00 PM 3.94 39.092 0.026 6.2 9.74 12.76
12/24/2022 12:00:00 AM 3.95 39.11 0.025 6.18 8.95 12.75
12/24/2022 12:15:00 AM 3.96 39.128 0.022 6.17 8.23 12.74
12/24/2022 12:30:00 AM 3.95 39.11 0.023 6.17 8.77 12.75
12/24/2022 12:45:00 AM 3.95 39.11 0.023 6.16 9.96 12.76
12/24/2022 1:00:00 AM 3.96 39.128 0.022 6.23 9.55 12.75
12/24/2022 1:15:00 AM 3.95 39.11 0.022 6.21 7.92 12.76
12/24/2022 1:30:00 AM 3.95 39.11 0.023 6.21 7.68 12.76
12/24/2022 1:45:00 AM 3.95 39.11 0.023 6.29 8.26 12.76
12/24/2022 2:00:00 AM 3.95 39.11 0.022 6.24 7.6 12.76
12/24/2022 2:15:00 AM 3.95 39.11 0.022 6.25 7.54 12.76
12/24/2022 2:30:00 AM 3.95 39.11 0.024 6.24 7.33 12.76
12/24/2022 2:45:00 AM 3.95 39.11 0.023 6.23 8.04 12.76
12/24/2022 3:00:00 AM 3.95 39.11 0.023 6.23 6.48 12.76
12/24/2022 3:15:00 AM 3.96 39.128 0.023 6.22 6.89 12.76
12/24/2022 3:30:00 AM 3.95 39.11 0.022 6.23 8.05 12.77
12/24/2022 3:45:00 AM 3.96 39.128 0.022 6.25 7.17 12.76
12/24/2022 4:00:00 AM 3.97 39.146 0.022 6.28 6.6 12.75
12/24/2022 4:15:00 AM 3.95 39.11 0.024 6.22 6.54 12.77
12/24/2022 4:30:00 AM 3.94 39.092 0.024 6.25 7.26 12.77
12/24/2022 4:45:00 AM 3.95 39.11 0.023 6.2 10.79 12.77
12/24/2022 5:00:00 AM 3.96 39.128 0.023 6.29 6.82 12.76
12/24/2022 5:15:00 AM 3.97 39.146 0.023 6.24 8.44 12.76
12/24/2022 5:30:00 AM 3.97 39.146 0.023 6.22 6.7 12.75
12/24/2022 5:45:00 AM 3.97 39.146 0.023 6.24 6.37 12.75
12/24/2022 6:00:00 AM 3.98 39.164 0.023 6.19 7.4 12.75
12/24/2022 6:15:00 AM 3.98 39.164 0.022 6.23 5.97 12.76
12/24/2022 6:30:00 AM 3.98 39.164 0.022 6.17 5.79 12.75
12/24/2022 6:45:00 AM 3.98 39.164 0.023 6.2 3693.64 12.75
12/24/2022 7:00:00 AM 3.98 39.164 0.022 6.2 7.1 12.75
12/24/2022 7:15:00 AM 3.98 39.164 0.024 6.24 5.64 12.75
12/24/2022 7:30:00 AM 3.97 39.146 0.024 6.18 6.73 12.76
12/24/2022 7:45:00 AM 3.98 39.164 0.024 6.21 5.73 12.76
12/24/2022 8:00:00 AM 3.98 39.164 0.023 6.23 5.76 12.76
12/24/2022 8:15:00 AM 3.98 39.164 0.023 6.22 6.21 12.77
12/24/2022 8:30:00 AM 3.97 39.146 0.023 6.23 5.33 12.78
12/24/2022 8:45:00 AM 3.97 39.146 0.024 6.22 5.69 12.79
12/24/2022 9:00:00 AM 3.96 39.128 0.024 6.15 5.63 12.8
12/24/2022 9:15:00 AM 3.97 39.146 0.024 6.28 5.28 12.81
12/24/2022 9:30:00 AM 3.96 39.128 0.024 6.23 5.55 12.81
12/24/2022 9:45:00 AM 3.95 39.11 0.026 6.25 5.24 12.82
12/24/2022 10:00:00 AM 3.96 39.128 0.025 6.27 5.22 12.82
12/24/2022 10:15:00 AM 3.96 39.128 0.025 6.26 5.25 12.82
12/24/2022 10:30:00 AM 3.96 39.128 0.024 6.25 5.11 12.82
12/24/2022 10:45:00 AM 3.95 39.11 0.026 6.23 5.68 12.83
12/24/2022 11:00:00 AM 3.97 39.146 0.027 6.29 7.96 12.83
12/24/2022 11:15:00 AM 3.97 39.146 0.027 6.3 5.14 12.83
12/24/2022 11:30:00 AM 3.98 39.164 0.027 6.29 5.34 12.84
12/24/2022 11:45:00 AM 4 39.2 0.027 6.34 5.31 12.84
12/24/2022 12:00:00 PM 4.01 39.218 0.027 6.3 5.55 12.85
12/24/2022 12:15:00 PM 4.03 39.254 0.027 6.29 5.39 12.84
12/24/2022 12:30:00 PM 4.03 39.254 0.027 6.33 5.42 12.84
12/24/2022 12:45:00 PM 4.03 39.254 0.028 6.34 5.27 12.85
12/24/2022 1:00:00 PM 4.03 39.254 0.028 6.31 5.25 12.85
12/24/2022 1:15:00 PM 4.04 39.272 0.028 6.34 5.24 12.85
12/24/2022 1:30:00 PM 4.04 39.272 0.028 6.33 5.22 12.85
12/24/2022 1:45:00 PM 4.05 39.29 0.028 6.29 5.13 12.84
12/24/2022 2:00:00 PM 4.05 39.29 0.028 6.32 5.4 12.85
12/24/2022 2:15:00 PM 4.04 39.272 0.028 6.33 5.7 12.84
12/24/2022 2:30:00 PM 4.04 39.272 0.028 6.35 5.22 12.85
12/24/2022 2:45:00 PM 4.05 39.29 0.028 6.33 5.27 12.84
12/24/2022 3:00:00 PM 4.04 39.272 0.028 6.34 5.22 12.85
12/24/2022 3:15:00 PM 4.03 39.254 0.028 6.33 5.22 12.84
12/24/2022 3:30:00 PM 4.02 39.236 0.028 6.32 5.28 12.84
12/24/2022 3:45:00 PM 4.02 39.236 0.028 6.31 5.5 12.83
12/24/2022 4:00:00 PM 4.02 39.236 0.028 6.35 5.4 12.83
12/24/2022 4:15:00 PM 4.02 39.236 0.028 6.34 5.3 12.82
12/24/2022 4:30:00 PM 4.01 39.218 0.028 6.32 5.21 12.82
12/24/2022 4:45:00 PM 4.01 39.218 0.027 6.28 5.28 12.8
12/24/2022 5:00:00 PM 4 39.2 0.028 6.32 5.29 12.8
12/24/2022 5:15:00 PM 4 39.2 0.027 6.34 5.01 12.8
12/24/2022 5:30:00 PM 4 39.2 0.027 6.3 5.05 12.79
12/24/2022 5:45:00 PM 4 39.2 0.027 6.28 5.35 12.79
12/24/2022 6:00:00 PM 4 39.2 0.027 6.31 5.05 12.78
12/24/2022 6:15:00 PM 4 39.2 0.027 6.26 5.02 12.79
12/24/2022 6:30:00 PM 4.01 39.218 0.027 6.29 4.81 12.79
12/24/2022 6:45:00 PM 4.01 39.218 0.027 6.24 5.18 12.79
12/24/2022 7:00:00 PM 4.02 39.236 0.027 6.31 4.75 12.78
12/24/2022 7:15:00 PM 4.02 39.236 0.027 6.33 4.88 12.78
12/24/2022 7:30:00 PM 4.02 39.236 0.027 6.28 4.79 12.79
12/24/2022 7:45:00 PM 4.02 39.236 0.027 6.29 4.76 12.79
12/24/2022 8:00:00 PM 4.03 39.254 0.028 6.31 4.87 12.78
12/24/2022 8:15:00 PM 4.03 39.254 0.028 6.27 4.66 12.78
12/24/2022 8:30:00 PM 4.03 39.254 0.028 6.34 4.76 12.78
12/24/2022 8:45:00 PM 4.02 39.236 0.028 6.3 4.73 12.78
12/24/2022 9:00:00 PM 4.02 39.236 0.028 6.3 4.86 12.78
12/24/2022 9:15:00 PM 4.02 39.236 0.028 6.3 4.7 12.78
12/24/2022 9:30:00 PM 4.02 39.236 0.028 6.27 4.6 12.78
12/24/2022 9:45:00 PM 4.04 39.272 0.028 6.29 4.53 12.78
12/24/2022 10:00:00 PM 4.04 39.272 0.028 6.28 4.54 12.78
12/24/2022 10:15:00 PM 4.05 39.29 0.028 6.29 4.51 12.78
12/24/2022 10:30:00 PM 4.04 39.272 0.028 6.3 4.47 12.79
12/24/2022 10:45:00 PM 4.05 39.29 0.028 6.33 4.41 12.78
12/24/2022 11:00:00 PM 4.05 39.29 0.028 6.35 4.46 12.78
12/24/2022 11:15:00 PM 4.04 39.272 0.028 6.33 4.24 12.79
12/24/2022 11:30:00 PM 4.04 39.272 0.028 6.33 4.42 12.78
12/24/2022 11:45:00 PM 4.03 39.254 0.028 6.31 4.4 12.78
12/25/2022 12:00:00 AM 4.03 39.254 0.028 6.29 4.33 12.78
12/25/2022 12:15:00 AM 4.03 39.254 0.028 6.29 4.17 12.78
12/25/2022 12:30:00 AM 4.04 39.272 0.028 6.36 4.09 12.77
12/25/2022 12:45:00 AM 4.04 39.272 0.028 6.34 4.33 12.78
12/25/2022 1:00:00 AM 4.03 39.254 0.028 6.32 4.18 12.78
12/25/2022 1:15:00 AM 4.04 39.272 0.028 6.3 4.21 12.78
12/25/2022 1:30:00 AM 4.04 39.272 0.028 6.33 4.24 12.77
12/25/2022 1:45:00 AM 4.04 39.272 0.028 6.3 4.16 12.77
12/25/2022 2:00:00 AM 4.04 39.272 0.028 6.3 4.21 12.77
12/25/2022 2:15:00 AM 4.04 39.272 0.028 6.3 4.1 12.77
12/25/2022 2:30:00 AM 4.05 39.29 0.028 6.31 4.05 12.77
12/25/2022 2:45:00 AM 4.06 39.308 0.028 6.34 4.2 12.77
12/25/2022 3:00:00 AM 4.06 39.308 0.028 6.35 4.24 12.77
12/25/2022 3:15:00 AM 4.06 39.308 0.028 6.31 4.27 12.77
12/25/2022 3:30:00 AM 4.07 39.326 0.028 6.36 4.1 12.77
12/25/2022 3:45:00 AM 4.07 39.326 0.029 6.37 4.12 12.77
12/25/2022 4:00:00 AM 4.07 39.326 0.029 6.36 3.95 12.77
12/25/2022 4:15:00 AM 4.07 39.326 0.029 6.35 4.11 12.77
12/25/2022 4:30:00 AM 4.06 39.308 0.029 6.33 4.05 12.77
12/25/2022 4:45:00 AM 4.07 39.326 0.029 6.38 4.19 12.77
12/25/2022 5:00:00 AM 4.07 39.326 0.029 6.36 4.1 12.76
12/25/2022 5:15:00 AM 4.07 39.326 0.029 6.32 4.2 12.77
12/25/2022 5:30:00 AM 4.06 39.308 0.029 6.34 4.08 12.76
12/25/2022 5:45:00 AM 4.07 39.326 0.029 6.37 4.04 12.76
12/25/2022 6:00:00 AM 4.07 39.326 0.029 6.33 4.27 12.76
12/25/2022 6:15:00 AM 4.08 39.344 0.029 6.35 4.01 12.76
12/25/2022 6:30:00 AM 4.08 39.344 0.029 6.37 3.95 12.77
12/25/2022 6:45:00 AM 4.07 39.326 0.029 6.33 4.01 12.76
12/25/2022 7:00:00 AM 4.07 39.326 0.029 6.34 4.2 12.75
12/25/2022 7:15:00 AM 4.06 39.308 0.029 6.37 4.21 12.76
12/25/2022 7:30:00 AM 4.07 39.326 0.029 6.36 4.13 12.77
12/25/2022 7:45:00 AM 4.07 39.326 0.029 6.36 4.18 12.78
12/25/2022 8:00:00 AM 4.07 39.326 0.029 6.32 4.14 12.79
12/25/2022 8:15:00 AM 4.07 39.326 0.029 6.37 3.95 12.8
12/25/2022 8:30:00 AM 4.08 39.344 0.029 6.37 4.02 12.81
12/25/2022 8:45:00 AM 4.09 39.362 0.029 6.38 4.16 12.83
12/25/2022 9:00:00 AM 4.09 39.362 0.029 6.35 4.01 12.84
12/25/2022 9:15:00 AM 4.1 39.38 0.029 6.31 4 12.84
12/25/2022 9:30:00 AM 4.11 39.398 0.029 6.38 3.88 12.84
12/25/2022 9:45:00 AM 4.12 39.416 0.029 6.34 3.99 12.86
12/25/2022 10:00:00 AM 4.12 39.416 0.029 6.35 4.04 12.85
12/25/2022 10:15:00 AM 4.13 39.434 0.029 6.39 3.88 12.86
12/25/2022 10:30:00 AM 4.13 39.434 0.029 6.34 3.9 12.86
12/25/2022 10:45:00 AM 4.14 39.452 0.029 6.37 4.45 12.86
12/25/2022 11:00:00 AM 4.15 39.47 0.029 6.39 4.16 12.86
12/25/2022 11:15:00 AM 4.15 39.47 0.029 6.35 4.1 12.87
12/25/2022 11:30:00 AM 4.16 39.488 0.029 6.4 4.09 12.87
12/25/2022 11:45:00 AM 4.18 39.524 0.029 6.4 4.26 12.86
12/25/2022 12:00:00 PM 4.18 39.524 0.029 6.37 4.59 12.87
12/25/2022 12:15:00 PM 4.17 39.506 0.029 6.38 4.82 12.86
12/25/2022 12:30:00 PM 4.17 39.506 0.029 6.4 4.89 12.87
12/25/2022 12:45:00 PM 4.18 39.524 0.029 6.39 4.74 12.87
12/25/2022 1:00:00 PM 4.2 39.56 0.029 6.41 4.54 12.86
12/25/2022 1:15:00 PM 4.2 39.56 0.029 6.4 4.44 12.86
12/25/2022 1:30:00 PM 4.19 39.542 0.029 6.42 4.45 12.86
12/25/2022 1:45:00 PM 4.2 39.56 0.029 6.42 4.47 12.86
12/25/2022 2:00:00 PM 4.2 39.56 0.029 6.4 4.56 12.86
12/25/2022 2:15:00 PM 4.19 39.542 0.029 6.41 4.45 12.85
12/25/2022 2:30:00 PM 4.17 39.506 0.029 6.39 4.59 12.86
12/25/2022 2:45:00 PM 4.16 39.488 0.029 6.41 4.69 12.86
12/25/2022 3:00:00 PM 4.16 39.488 0.029 6.42 4.72 12.86
12/25/2022 3:15:00 PM 4.16 39.488 0.029 6.39 4.73 12.85
12/25/2022 3:30:00 PM 4.13 39.434 0.029 6.4 4.78 12.85
12/25/2022 3:45:00 PM 4.13 39.434 0.029 6.42 4.82 12.84
12/25/2022 4:00:00 PM 4.12 39.416 0.029 6.39 4.51 12.85
12/25/2022 4:15:00 PM 4.12 39.416 0.029 6.4 4.94 12.85
12/25/2022 4:30:00 PM 4.12 39.416 0.029 6.37 4.56 12.83
12/25/2022 4:45:00 PM 4.11 39.398 0.029 6.41 4.64 12.82
12/25/2022 5:00:00 PM 4.1 39.38 0.029 6.39 4.63 12.8
12/25/2022 5:15:00 PM 4.08 39.344 0.029 6.37 4.74 12.79
12/25/2022 5:30:00 PM 4.09 39.362 0.029 6.4 4.62 12.8
12/25/2022 5:45:00 PM 4.09 39.362 0.029 6.37 4.76 12.79
12/25/2022 6:00:00 PM 4.09 39.362 0.029 6.35 4.58 12.8
12/25/2022 6:15:00 PM 4.09 39.362 0.029 6.38 4.65 12.8
12/25/2022 6:30:00 PM 4.09 39.362 0.029 6.38 4.39 12.8
12/25/2022 6:45:00 PM 4.09 39.362 0.029 6.37 4.62 12.8
12/25/2022 7:00:00 PM 4.09 39.362 0.029 6.38 4.28 12.8
12/25/2022 7:15:00 PM 4.09 39.362 0.029 6.38 4.52 12.81
12/25/2022 7:30:00 PM 4.09 39.362 0.029 6.4 4.42 12.81
12/25/2022 7:45:00 PM 4.09 39.362 0.029 6.34 4.33 12.81
12/25/2022 8:00:00 PM 4.1 39.38 0.029 6.39 4.46 12.81
12/25/2022 8:15:00 PM 4.09 39.362 0.029 6.36 4.24 12.81
12/25/2022 8:30:00 PM 4.09 39.362 0.029 6.34 4.13 12.81
12/25/2022 8:45:00 PM 4.09 39.362 0.029 6.38 4.27 12.82
12/25/2022 9:00:00 PM 4.09 39.362 0.029 6.35 4.25 12.82
12/25/2022 9:15:00 PM 4.1 39.38 0.029 6.35 4.28 12.82
12/25/2022 9:30:00 PM 4.1 39.38 0.029 6.35 4.43 12.82
12/25/2022 9:45:00 PM 4.11 39.398 0.03 6.41 4.2 12.82
12/25/2022 10:00:00 PM 4.12 39.416 0.03 6.39 4.28 12.83
12/25/2022 10:15:00 PM 4.11 39.398 0.03 6.35 4.09 12.82
12/25/2022 10:30:00 PM 4.1 39.38 0.03 6.38 4.21 12.83
12/25/2022 10:45:00 PM 4.09 39.362 0.03 6.37 4.1 12.82
12/25/2022 11:00:00 PM 4.09 39.362 0.03 6.4 4.33 12.83
12/25/2022 11:15:00 PM 4.09 39.362 0.03 6.42 4.14 12.83
12/25/2022 11:30:00 PM 4.1 39.38 0.03 6.38 4.29 12.83
12/25/2022 11:45:00 PM 4.09 39.362 0.03 6.31 4.2 12.84
12/26/2022 12:00:00 AM 4.1 39.38 0.03 6.41 4.22 12.83
12/26/2022 12:15:00 AM 4.1 39.38 0.03 6.38 4.24 12.84
12/26/2022 12:30:00 AM 4.09 39.362 0.03 6.4 4.06 12.83
12/26/2022 12:45:00 AM 4.08 39.344 0.03 6.39 4.19 12.85
12/26/2022 1:00:00 AM 4.08 39.344 0.03 6.35 4.12 12.84
12/26/2022 1:15:00 AM 4.08 39.344 0.03 6.38 4.17 12.84
12/26/2022 1:30:00 AM 4.09 39.362 0.03 6.39 4.07 12.84
12/26/2022 1:45:00 AM 4.09 39.362 0.03 6.36 3.9 12.84
12/26/2022 2:00:00 AM 4.09 39.362 0.03 6.39 4.11 12.84
12/26/2022 2:15:00 AM 4.09 39.362 0.03 6.4 4.12 12.84
12/26/2022 2:30:00 AM 4.09 39.362 0.03 6.36 3.82 12.85
12/26/2022 2:45:00 AM 4.08 39.344 0.03 6.4 3.88 12.86
12/26/2022 3:00:00 AM 4.09 39.362 0.03 6.41 3.99 12.85
12/26/2022 3:15:00 AM 4.09 39.362 0.03 6.4 3.96 12.85
12/26/2022 3:30:00 AM 4.09 39.362 0.03 6.39 3.89 12.85
12/26/2022 3:45:00 AM 4.08 39.344 0.03 6.39 3.73 12.86
12/26/2022 4:00:00 AM 4.08 39.344 0.03 6.38 4.07 12.86
12/26/2022 4:15:00 AM 4.09 39.362 0.03 6.36 3.72 12.86
12/26/2022 4:30:00 AM 4.09 39.362 0.03 6.39 3.85 12.86
12/26/2022 4:45:00 AM 4.08 39.344 0.03 6.39 3.85 12.86
12/26/2022 5:00:00 AM 4.09 39.362 0.03 6.38 3.71 12.86
12/26/2022 5:15:00 AM 4.09 39.362 0.031 6.39 3.58 12.87
12/26/2022 5:30:00 AM 4.08 39.344 0.031 6.4 3.64 12.87
12/26/2022 5:45:00 AM 4.08 39.344 0.03 6.41 3.74 12.87
12/26/2022 6:00:00 AM 4.08 39.344 0.031 6.37 3.7 12.87
12/26/2022 6:15:00 AM 4.08 39.344 0.031 6.42 3.73 12.87
12/26/2022 6:30:00 AM 4.08 39.344 0.031 6.4 3.61 12.87
12/26/2022 6:45:00 AM 4.08 39.344 0.031 6.39 3.59 12.87
12/26/2022 7:00:00 AM 4.08 39.344 0.031 6.38 3.66 12.88
12/26/2022 7:15:00 AM 4.09 39.362 0.031 6.39 3.61 12.88
12/26/2022 7:30:00 AM 4.09 39.362 0.031 6.41 3.62 12.88
12/26/2022 7:45:00 AM 4.09 39.362 0.031 6.38 3.77 12.89
12/26/2022 8:00:00 AM 4.11 39.398 0.031 6.44 3.51 12.9
12/26/2022 8:15:00 AM 4.13 39.434 0.031 6.42 3.73 12.93
12/26/2022 8:30:00 AM 4.14 39.452 0.031 6.41 3.48 12.94
12/26/2022 8:45:00 AM 4.15 39.47 0.031 6.4 3.51 12.97
12/26/2022 9:00:00 AM 4.17 39.506 0.031 6.44 3.65 12.97
12/26/2022 9:15:00 AM 4.17 39.506 0.031 6.4 3.54 12.98
12/26/2022 9:30:00 AM 4.17 39.506 0.031 6.42 3.62 12.98
12/26/2022 9:45:00 AM 4.16 39.488 0.031 6.46 3.57 12.99
12/26/2022 10:00:00 AM 4.16 39.488 0.031 6.42 3.52 12.99
12/26/2022 10:15:00 AM 4.16 39.488 0.031 6.43 3.51 12.99
12/26/2022 10:30:00 AM 4.17 39.506 0.031 6.45 3.55 13
12/26/2022 10:45:00 AM 4.17 39.506 0.031 6.41 3.71 13
12/26/2022 11:00:00 AM 4.18 39.524 0.031 6.4 3.48 13.01
12/26/2022 11:15:00 AM 4.2 39.56 0.031 6.43 3.61 13.01
12/26/2022 11:30:00 AM 4.22 39.596 0.031 6.46 3.69 13.01
12/26/2022 11:45:00 AM 4.24 39.632 0.031 6.45 3.71 13
12/26/2022 12:00:00 PM 4.26 39.668 0.031 6.44 3.6 13
12/26/2022 12:15:00 PM 4.28 39.704 0.031 6.47 3.58 12.99
12/26/2022 12:30:00 PM 4.28 39.704 0.031 6.44 3.66 13
12/26/2022 12:45:00 PM 4.29 39.722 0.031 6.4 3.53 12.99
12/26/2022 1:00:00 PM 4.29 39.722 0.031 6.47 3.69 12.98
12/26/2022 1:15:00 PM 4.3 39.74 0.031 6.45 3.61 12.97
12/26/2022 1:30:00 PM 4.3 39.74 0.031 6.44 3.8 12.96
12/26/2022 1:45:00 PM 4.29 39.722 0.031 6.47 3.75 12.97
12/26/2022 2:00:00 PM 4.26 39.668 0.031 6.48 3.69 12.96
12/26/2022 2:15:00 PM 4.25 39.65 0.031 6.49 3.66 12.96
12/26/2022 2:30:00 PM 4.22 39.596 0.031 6.45 3.77 12.96
12/26/2022 2:45:00 PM 4.22 39.596 0.031 6.49 3.76 12.95
12/26/2022 3:00:00 PM 4.2 39.56 0.031 6.48 3.99 12.95
12/26/2022 3:15:00 PM 4.18 39.524 0.031 6.45 3.78 12.94
12/26/2022 3:30:00 PM 4.15 39.47 0.031 6.46 4.04 12.95
12/26/2022 3:45:00 PM 4.16 39.488 0.031 6.47 3.99 12.95
12/26/2022 4:00:00 PM 4.17 39.506 0.031 6.43 3.91 12.94
12/26/2022 4:15:00 PM 4.17 39.506 0.031 6.43 3.94 12.94
12/26/2022 4:30:00 PM 4.18 39.524 0.031 6.45 3.89 12.92
12/26/2022 4:45:00 PM 4.18 39.524 0.031 6.43 3.91 12.91
12/26/2022 5:00:00 PM 4.19 39.542 0.031 6.42 4.08 12.9
12/26/2022 5:15:00 PM 4.19 39.542 0.031 6.43 3.83 12.88
12/26/2022 5:30:00 PM 4.19 39.542 0.031 6.42 4.01 12.87
12/26/2022 5:45:00 PM 4.18 39.524 0.031 6.4 3.85 12.88
12/26/2022 6:00:00 PM 4.17 39.506 0.031 6.44 3.88 12.88
12/26/2022 6:15:00 PM 4.17 39.506 0.031 6.41 3.77 12.87
12/26/2022 6:30:00 PM 4.16 39.488 0.031 6.43 3.94 12.87
12/26/2022 6:45:00 PM 4.16 39.488 0.031 6.43 4.04 12.86
12/26/2022 7:00:00 PM 4.17 39.506 0.031 6.42 3.91 12.87
12/26/2022 7:15:00 PM 4.17 39.506 0.031 6.46 3.99 12.87
12/26/2022 7:30:00 PM 4.17 39.506 0.031 6.43 3.97 12.87
12/26/2022 7:45:00 PM 4.17 39.506 0.031 6.41 3.93 12.87
12/26/2022 8:00:00 PM 4.17 39.506 0.031 6.44 3.94 12.87
12/26/2022 8:15:00 PM 4.17 39.506 0.031 6.44 3.85 12.88
12/26/2022 8:30:00 PM 4.18 39.524 0.031 6.4 3.85 12.88
12/26/2022 8:45:00 PM 4.19 39.542 0.031 6.38 4.02 12.88
12/26/2022 9:00:00 PM 4.19 39.542 0.031 6.45 3.87 12.88
12/26/2022 9:15:00 PM 4.18 39.524 0.031 6.45 3.99 12.87
12/26/2022 9:30:00 PM 4.18 39.524 0.031 6.4 3.79 12.88
12/26/2022 9:45:00 PM 4.18 39.524 0.031 6.45 3.8 12.87
12/26/2022 10:00:00 PM 4.18 39.524 0.031 6.44 3.84 12.88
12/26/2022 10:15:00 PM 4.19 39.542 0.031 6.4 3.94 12.88
12/26/2022 10:30:00 PM 4.19 39.542 0.031 6.41 3.83 12.88
12/26/2022 10:45:00 PM 4.2 39.56 0.031 6.45 4.14 12.88
12/26/2022 11:00:00 PM 4.2 39.56 0.031 6.39 3.96 12.87
12/26/2022 11:15:00 PM 4.19 39.542 0.031 6.44 3.92 12.87
12/26/2022 11:30:00 PM 4.19 39.542 0.031 6.46 3.82 12.87
12/26/2022 11:45:00 PM 4.2 39.56 0.031 6.45 3.91 12.87
12/27/2022 12:00:00 AM 4.2 39.56 0.031 6.43 3.85 12.87
12/27/2022 12:15:00 AM 4.19 39.542 0.031 6.43 3.99 12.88
12/27/2022 12:30:00 AM 4.19 39.542 0.031 6.46 3.99 12.87
12/27/2022 12:45:00 AM 4.19 39.542 0.031 6.43 3.93 12.87
12/27/2022 1:00:00 AM 4.19 39.542 0.031 6.47 4.28 12.87
12/27/2022 1:15:00 AM 4.19 39.542 0.031 6.44 4.01 12.87
12/27/2022 1:30:00 AM 4.2 39.56 0.031 6.44 3.84 12.87
12/27/2022 1:45:00 AM 4.2 39.56 0.031 6.42 3.95 12.87
12/27/2022 2:00:00 AM 4.19 39.542 0.031 6.43 4.1 12.86
12/27/2022 2:15:00 AM 4.2 39.56 0.031 6.46 4.06 12.87
12/27/2022 2:30:00 AM 4.2 39.56 0.031 6.4 4.05 12.87
12/27/2022 2:45:00 AM 4.2 39.56 0.031 6.43 3.77 12.86
12/27/2022 3:00:00 AM 4.2 39.56 0.031 6.43 4.02 12.87
12/27/2022 3:15:00 AM 4.21 39.578 0.031 6.44 4.17 12.87
12/27/2022 3:30:00 AM 4.21 39.578 0.031 6.46 4.04 12.87
12/27/2022 3:45:00 AM 4.2 39.56 0.031 6.43 3.88 12.87
12/27/2022 4:00:00 AM 4.21 39.578 0.031 6.43 4.1 12.86
12/27/2022 4:15:00 AM 4.21 39.578 0.031 6.46 3.9 12.87
12/27/2022 4:30:00 AM 4.21 39.578 0.031 6.43 4.07 12.86
12/27/2022 4:45:00 AM 4.2 39.56 0.031 6.44 3.98 12.87
12/27/2022 5:00:00 AM 4.21 39.578 0.031 6.42 4.02 12.87
12/27/2022 5:15:00 AM 4.22 39.596 0.031 6.47 4.15 12.87
12/27/2022 5:30:00 AM 4.22 39.596 0.031 6.45 4.27 12.87
12/27/2022 5:45:00 AM 4.22 39.596 0.031 6.41 4.17 12.87
12/27/2022 6:00:00 AM 4.22 39.596 0.031 6.47 4.14 12.87
12/27/2022 6:15:00 AM 4.22 39.596 0.031 6.44 4.03 12.87
12/27/2022 6:30:00 AM 4.22 39.596 0.031 6.45 4.19 12.87
12/27/2022 6:45:00 AM 4.24 39.632 0.031 6.46 4.18 12.87
12/27/2022 7:00:00 AM 4.23 39.614 0.031 6.44 3.93 12.88
12/27/2022 7:15:00 AM 4.24 39.632 0.032 6.43 3.91 12.87
12/27/2022 7:30:00 AM 4.25 39.65 0.032 6.44 3.97 12.87
12/27/2022 7:45:00 AM 4.25 39.65 0.032 6.44 4.44 12.87
12/27/2022 8:00:00 AM 4.26 39.668 0.032 6.43 4.36 12.89
12/27/2022 8:15:00 AM 4.27 39.686 0.032 6.45 4.23 12.89
12/27/2022 8:30:00 AM 4.28 39.704 0.032 6.44 4.27 12.91
12/27/2022 8:45:00 AM 4.29 39.722 0.032 6.46 4.3 12.92
12/27/2022 9:00:00 AM 4.3 39.74 0.032 6.46 4.04 12.92
12/27/2022 9:15:00 AM 4.32 39.776 0.032 6.45 4.15 12.94
12/27/2022 9:30:00 AM 4.34 39.812 0.032 6.46 3.83 12.95
12/27/2022 9:45:00 AM 4.36 39.848 0.032 6.49 4.17 12.95
12/27/2022 10:00:00 AM 4.38 39.884 0.032 6.43 4.33 12.95
12/27/2022 10:15:00 AM 4.39 39.902 0.032 6.5 4.05 12.95
12/27/2022 10:30:00 AM 4.42 39.956 0.032 6.49 3.96 12.95
12/27/2022 10:45:00 AM 4.44 39.992 0.032 6.46 3.98 12.95
12/27/2022 11:00:00 AM 4.48 40.064 0.032 6.51 3.91 12.95
12/27/2022 11:15:00 AM 4.5 40.1 0.032 6.48 3.95 12.94
12/27/2022 11:30:00 AM 4.53 40.154 0.032 6.53 3.9 12.94
12/27/2022 11:45:00 AM 4.54 40.172 0.032 6.51 3.83 12.93
12/27/2022 12:00:00 PM 4.56 40.208 0.032 6.51 4.03 12.93
12/27/2022 12:15:00 PM 4.58 40.244 0.032 6.48 4.03 12.93
12/27/2022 12:30:00 PM 4.61 40.298 0.032 6.5 3.9 12.92
12/27/2022 12:45:00 PM 4.63 40.334 0.032 6.51 4.05 12.92
12/27/2022 1:00:00 PM 4.66 40.388 0.032 6.52 3.94 12.91
12/27/2022 1:15:00 PM 4.7 40.46 0.032 6.52 3.95 12.9
12/27/2022 1:30:00 PM 4.72 40.496 0.032 6.49 4.01 12.89
12/27/2022 1:45:00 PM 4.74 40.532 0.032 6.5 3.94 12.89
12/27/2022 2:00:00 PM 4.76 40.568 0.032 6.53 3.87 12.87
12/27/2022 2:15:00 PM 4.77 40.586 0.032 6.53 3.93 12.87
12/27/2022 2:30:00 PM 4.78 40.604 0.033 6.54 4.01 12.85
12/27/2022 2:45:00 PM 4.79 40.622 0.032 6.54 4.03 12.85
12/27/2022 3:00:00 PM 4.81 40.658 0.032 6.52 3.95 12.83
12/27/2022 3:15:00 PM 4.83 40.694 0.032 6.52 3.84 12.81
12/27/2022 3:30:00 PM 4.85 40.73 0.033 6.54 3.73 12.8
12/27/2022 3:45:00 PM 4.85 40.73 0.032 6.5 3.75 12.79
12/27/2022 4:00:00 PM 4.86 40.748 0.032 6.5 3.82 12.77
12/27/2022 4:15:00 PM 4.87 40.766 0.032 6.54 3.83 12.74
12/27/2022 4:30:00 PM 4.87 40.766 0.032 6.49 3.94 12.73
12/27/2022 4:45:00 PM 4.88 40.784 0.032 6.52 3.83 12.71
12/27/2022 5:00:00 PM 4.88 40.784 0.033 6.51 3.76 12.69
12/27/2022 5:15:00 PM 4.88 40.784 0.033 6.51 3.82 12.69
12/27/2022 5:30:00 PM 4.87 40.766 0.032 6.47 4.05 12.68
12/27/2022 5:45:00 PM 4.87 40.766 0.032 6.52 3.92 12.68
12/27/2022 6:00:00 PM 4.86 40.748 0.032 6.52 3.83 12.68
12/27/2022 6:15:00 PM 4.86 40.748 0.033 6.52 4.13 12.69
12/27/2022 6:30:00 PM 4.87 40.766 0.033 6.52 3.92 12.67
12/27/2022 6:45:00 PM 4.88 40.784 0.033 6.52 3.98 12.68
12/27/2022 7:00:00 PM 4.89 40.802 0.033 6.48 3.81 12.67
12/27/2022 7:15:00 PM 4.9 40.82 0.033 6.53 3.86 12.67
12/27/2022 7:30:00 PM 4.9 40.82 0.033 6.52 3.69 12.67
12/27/2022 7:45:00 PM 4.91 40.838 0.033 6.48 3.77 12.66
12/27/2022 8:00:00 PM 4.92 40.856 0.033 6.48 3.55 12.66
12/27/2022 8:15:00 PM 4.91 40.838 0.033 6.5 3.65 12.66
12/27/2022 8:30:00 PM 4.92 40.856 0.033 6.48 3.84 12.66
12/27/2022 8:45:00 PM 4.92 40.856 0.033 6.5 3.75 12.67
12/27/2022 9:00:00 PM 4.91 40.838 0.033 6.5 3.82 12.66
12/27/2022 9:15:00 PM 4.89 40.802 0.033 6.49 3.92 12.66
12/27/2022 9:30:00 PM 4.88 40.784 0.033 6.48 3.75 12.66
12/27/2022 9:45:00 PM 4.86 40.748 0.033 6.51 3.7 12.67
12/27/2022 10:00:00 PM 4.84 40.712 0.033 6.49 3.65 12.68
12/27/2022 10:15:00 PM 4.84 40.712 0.033 6.49 3.67 12.68
12/27/2022 10:30:00 PM 4.84 40.712 0.033 6.52 3.9 12.68
12/27/2022 10:45:00 PM 4.84 40.712 0.033 6.5 3.85 12.69
12/27/2022 11:00:00 PM 4.84 40.712 0.033 6.52 3.68 12.69
12/27/2022 11:15:00 PM 4.84 40.712 0.033 6.52 3.73 12.68
12/27/2022 11:30:00 PM 4.84 40.712 0.033 6.47 3.74 12.68
12/27/2022 11:45:00 PM 4.85 40.73 0.033 6.47 3.96 12.69
12/28/2022 12:00:00 AM 4.85 40.73 0.033 6.47 3.68 12.69
12/28/2022 12:15:00 AM 4.84 40.712 0.033 6.49 3.72 12.69
12/28/2022 12:30:00 AM 4.84 40.712 0.033 6.47 3.74 12.69
12/28/2022 12:45:00 AM 4.85 40.73 0.033 6.5 3.65 12.69
12/28/2022 1:00:00 AM 4.85 40.73 0.033 6.48 3.73 12.69
12/28/2022 1:15:00 AM 4.85 40.73 0.033 6.48 3.67 12.68
12/28/2022 1:30:00 AM 4.85 40.73 0.033 6.49 3.44 12.68
12/28/2022 1:45:00 AM 4.85 40.73 0.033 6.48 3.77 12.69
12/28/2022 2:00:00 AM 4.85 40.73 0.033 6.51 3.86 12.68
12/28/2022 2:15:00 AM 4.85 40.73 0.033 6.5 3.64 12.69
12/28/2022 2:30:00 AM 4.85 40.73 0.033 6.49 3.63 12.68
12/28/2022 2:45:00 AM 4.86 40.748 0.033 6.48 3.91 12.68
12/28/2022 3:00:00 AM 4.87 40.766 0.033 6.5 3.81 12.68
12/28/2022 3:15:00 AM 4.87 40.766 0.033 6.51 3.61 12.67
12/28/2022 3:30:00 AM 4.87 40.766 0.033 6.47 3.88 12.67
12/28/2022 3:45:00 AM 4.88 40.784 0.033 6.48 3.54 12.67
12/28/2022 4:00:00 AM 4.9 40.82 0.033 6.51 3.61 12.66
12/28/2022 4:15:00 AM 4.9 40.82 0.033 6.46 3.59 12.66
12/28/2022 4:30:00 AM 4.91 40.838 0.033 6.49 3.6 12.65
12/28/2022 4:45:00 AM 4.92 40.856 0.033 6.49 3.65 12.65
12/28/2022 5:00:00 AM 4.92 40.856 0.033 6.49 3.65 12.65
12/28/2022 5:15:00 AM 4.92 40.856 0.033 6.5 3.74 12.65
12/28/2022 5:30:00 AM 4.93 40.874 0.033 6.48 3.6 12.65
12/28/2022 5:45:00 AM 4.93 40.874 0.033 6.48 3.58 12.65
12/28/2022 6:00:00 AM 4.93 40.874 0.033 6.49 3.53 12.65
12/28/2022 6:15:00 AM 4.92 40.856 0.033 6.5 3.41 12.65
12/28/2022 6:30:00 AM 4.93 40.874 0.033 6.48 3.42 12.65
12/28/2022 6:45:00 AM 4.92 40.856 0.033 6.49 3.57 12.65
12/28/2022 7:00:00 AM 4.91 40.838 0.033 6.52 3.59 12.66
12/28/2022 7:15:00 AM 4.91 40.838 0.033 6.49 3.57 12.66
12/28/2022 7:30:00 AM 4.91 40.838 0.033 6.51 3.46 12.66
12/28/2022 7:45:00 AM 4.9 40.82 0.033 6.5 3.46 12.67
12/28/2022 8:00:00 AM 4.9 40.82 0.033 6.5 3.55 12.69
12/28/2022 8:15:00 AM 4.9 40.82 0.033 6.48 3.51 12.71
12/28/2022 8:30:00 AM 4.91 40.838 0.033 6.52 3.46 12.74
12/28/2022 8:45:00 AM 4.9 40.82 0.033 6.5 3.32 12.75
12/28/2022 9:00:00 AM 4.91 40.838 0.033 6.5 3.52 12.76
12/28/2022 9:15:00 AM 4.91 40.838 0.033 6.49 3.35 12.77
12/28/2022 9:30:00 AM 4.93 40.874 0.033 6.5 3.41 12.77
12/28/2022 9:45:00 AM 4.95 40.91 0.033 6.53 3.61 12.78
12/28/2022 10:00:00 AM 4.99 40.982 0.033 6.56 3.33 12.79
12/28/2022 10:15:00 AM 5.03 41.054 0.033 6.56 3.38 12.78
12/28/2022 10:30:00 AM 5.07 41.126 0.033 6.56 3.29 12.79
12/28/2022 10:45:00 AM 5.13 41.234 0.033 6.53 3.48 12.78
12/28/2022 11:00:00 AM 5.21 41.378 0.033 6.54 3.33 12.78
12/28/2022 11:15:00 AM 5.29 41.522 0.033 6.55 3.48 12.77
12/28/2022 11:30:00 AM 5.36 41.648 0.033 6.53 3.35 12.76
12/28/2022 11:45:00 AM 5.42 41.756 0.033 6.56 3.53 12.74
12/28/2022 12:00:00 PM 5.49 41.882 0.033 6.58 3.44 12.72
12/28/2022 12:15:00 PM 5.54 41.972 0.033 6.58 3.35 12.7
12/28/2022 12:30:00 PM 5.56 42.008 0.033 6.58 3.44 12.69
12/28/2022 12:45:00 PM 5.61 42.098 0.033 6.58 3.35 12.68
12/28/2022 1:00:00 PM 5.64 42.152 0.034 6.59 3.31 12.67
12/28/2022 1:15:00 PM 5.69 42.242 0.034 6.57 3.16 12.66
12/28/2022 1:30:00 PM 5.72 42.296 0.034 6.56 3.39 12.64
12/28/2022 1:45:00 PM 5.75 42.35 0.034 6.57 3.38 12.62
12/28/2022 2:00:00 PM 5.77 42.386 0.034 6.6 3.36 12.61
12/28/2022 2:15:00 PM 5.78 42.404 0.034 6.58 3.25 12.6
12/28/2022 2:30:00 PM 5.78 42.404 0.034 6.56 3.27 12.59
12/28/2022 2:45:00 PM 5.81 42.458 0.034 6.61 3.36 12.58
12/28/2022 3:00:00 PM 5.82 42.476 0.034 6.58 3.26 12.58
12/28/2022 3:15:00 PM 5.83 42.494 0.034 6.59 3.36 12.58
12/28/2022 3:30:00 PM 5.84 42.512 0.034 6.61 3.47 12.56
12/28/2022 3:45:00 PM 5.83 42.494 0.034 6.62 3.41 12.55
12/28/2022 4:00:00 PM 5.82 42.476 0.034 6.6 3.37 12.53
12/28/2022 4:15:00 PM 5.82 42.476 0.034 6.58 3.4 12.51
12/28/2022 4:30:00 PM 5.81 42.458 0.034 6.56 3.43 12.49
12/28/2022 4:45:00 PM 5.8 42.44 0.034 6.57 3.51 12.47
12/28/2022 5:00:00 PM 5.79 42.422 0.034 6.57 3.64 12.45
12/28/2022 5:15:00 PM 5.78 42.404 0.034 6.56 3.39 12.44
12/28/2022 5:30:00 PM 5.77 42.386 0.034 6.6 3.41 12.44
12/28/2022 5:45:00 PM 5.75 42.35 0.034 6.56 3.56 12.44
12/28/2022 6:00:00 PM 5.72 42.296 0.034 6.55 3.46 12.44
12/28/2022 6:15:00 PM 5.69 42.242 0.035 6.55 3.45 12.45
12/28/2022 6:30:00 PM 5.67 42.206 0.034 6.55 3.45 12.45
12/28/2022 6:45:00 PM 5.65 42.17 0.034 6.56 3.45 12.45
12/28/2022 7:00:00 PM 5.64 42.152 0.035 6.52 3.51 12.46
12/28/2022 7:15:00 PM 5.62 42.116 0.035 6.54 3.35 12.46
12/28/2022 7:30:00 PM 5.61 42.098 0.035 6.5 3.26 12.47
12/28/2022 7:45:00 PM 5.6 42.08 0.034 6.53 3.65 12.47
12/28/2022 8:00:00 PM 5.58 42.044 0.034 6.56 3.35 12.47
12/28/2022 8:15:00 PM 5.57 42.026 0.035 6.53 3.4 12.48
12/28/2022 8:30:00 PM 5.56 42.008 0.035 6.55 3.56 12.47
12/28/2022 8:45:00 PM 5.53 41.954 0.035 6.55 3.51 12.49
12/28/2022 9:00:00 PM 5.51 41.918 0.035 6.53 3.52 12.49
12/28/2022 9:15:00 PM 5.5 41.9 0.035 6.53 3.54 12.49
12/28/2022 9:30:00 PM 5.47 41.846 0.035 6.54 3.46 12.5
12/28/2022 9:45:00 PM 5.45 41.81 0.035 6.52 3.4 12.49
12/28/2022 10:00:00 PM 5.43 41.774 0.035 6.51 3.4 12.51
12/28/2022 10:15:00 PM 5.41 41.738 0.035 6.53 3.36 12.51
12/28/2022 10:30:00 PM 5.37 41.666 0.035 6.49 3.36 12.52
12/28/2022 10:45:00 PM 5.35 41.63 0.035 6.54 3.4 12.53
12/28/2022 11:00:00 PM 5.33 41.594 0.035 6.52 3.43 12.54
12/28/2022 11:15:00 PM 5.3 41.54 0.035 6.49 3.66 12.55
12/28/2022 11:30:00 PM 5.28 41.504 0.035 6.51 3.35 12.55
12/28/2022 11:45:00 PM 5.27 41.486 0.035 6.51 3.29 12.55
12/29/2022 12:00:00 AM 5.24 41.432 0.035 6.46 3.56 12.57
12/29/2022 12:15:00 AM 5.22 41.396 0.035 6.53 3.47 12.57
12/29/2022 12:30:00 AM 5.21 41.378 0.035 6.53 3.51 12.58
12/29/2022 12:45:00 AM 5.18 41.324 0.035 6.5 3.42 12.58
12/29/2022 1:00:00 AM 5.17 41.306 0.035 6.53 3.35 12.59
12/29/2022 1:15:00 AM 5.15 41.27 0.035 6.49 3.43 12.59
12/29/2022 1:30:00 AM 5.14 41.252 0.035 6.46 3.45 12.59
12/29/2022 1:45:00 AM 5.13 41.234 0.035 6.48 3.38 12.59
12/29/2022 2:00:00 AM 5.1 41.18 0.034 6.46 3.4 12.6
12/29/2022 2:15:00 AM 5.1 41.18 0.035 6.52 3.24 12.6
12/29/2022 2:30:00 AM 5.08 41.144 0.035 6.51 3.36 12.6
12/29/2022 2:45:00 AM 5.06 41.108 0.035 6.47 3.39 12.6
12/29/2022 3:00:00 AM 5.05 41.09 0.035 6.52 3.38 12.61
12/29/2022 3:15:00 AM 5.04 41.072 0.035 6.5 3.22 12.61
12/29/2022 3:30:00 AM 5.03 41.054 0.035 6.46 3.28 12.61
12/29/2022 3:45:00 AM 5.02 41.036 0.035 6.51 3.31 12.61
12/29/2022 4:00:00 AM 5 41 0.035 6.48 3.3 12.62
12/29/2022 4:15:00 AM 5 41 0.035 6.47 3.4 12.62
12/29/2022 4:30:00 AM 4.99 40.982 0.035 6.48 3.38 12.63
12/29/2022 4:45:00 AM 4.98 40.964 0.035 6.49 3.26 12.63
12/29/2022 5:00:00 AM 4.96 40.928 0.035 6.51 3.31 12.63
12/29/2022 5:15:00 AM 4.95 40.91 0.035 6.44 3.37 12.64
12/29/2022 5:30:00 AM 4.93 40.874 0.035 6.5 3.38 12.64
12/29/2022 5:45:00 AM 4.92 40.856 0.035 6.5 3.44 12.65
12/29/2022 6:00:00 AM 4.91 40.838 0.035 6.47 3.4 12.65
12/29/2022 6:15:00 AM 4.9 40.82 0.035 6.46 3.43 12.65
12/29/2022 6:30:00 AM 4.88 40.784 0.035 6.51 3.19 12.66
12/29/2022 6:45:00 AM 4.86 40.748 0.035 6.45 3.32 12.67
12/29/2022 7:00:00 AM 4.85 40.73 0.035 6.51 3.29 12.67
12/29/2022 7:15:00 AM 4.84 40.712 0.035 6.52 3.3 12.69
12/29/2022 7:30:00 AM 4.82 40.676 0.035 6.48 3.36 12.69
12/29/2022 7:45:00 AM 4.81 40.658 0.035 6.51 3.36 12.71
12/29/2022 8:00:00 AM 4.79 40.622 0.035 6.52 3.41 12.74
12/29/2022 8:15:00 AM 4.79 40.622 0.035 6.52 3.42 12.74
12/29/2022 8:30:00 AM 4.78 40.604 0.035 6.5 3.14 12.78
12/29/2022 8:45:00 AM 4.78 40.604 0.035 6.52 3.41 12.8
12/29/2022 9:00:00 AM 4.79 40.622 0.035 6.49 3.35 12.81
12/29/2022 9:15:00 AM 4.8 40.64 0.035 6.52 3.49 12.83
12/29/2022 9:30:00 AM 4.82 40.676 0.035 6.52 3.22 12.84
12/29/2022 9:45:00 AM 4.84 40.712 0.035 6.52 3.37 12.83
12/29/2022 10:00:00 AM 4.88 40.784 0.035 6.56 3.26 12.84
12/29/2022 10:15:00 AM 4.92 40.856 0.035 6.56 3.11 12.83
12/29/2022 10:30:00 AM 4.99 40.982 0.035 6.56 3.28 12.81
12/29/2022 10:45:00 AM 5.06 41.108 0.035 6.58 3.48 12.8
12/29/2022 11:00:00 AM 5.13 41.234 0.035 6.58 3.34 12.8
12/29/2022 11:15:00 AM 5.21 41.378 0.035 6.59 3.13 12.79
12/29/2022 11:30:00 AM 5.29 41.522 0.035 6.58 3.38 12.77
12/29/2022 11:45:00 AM 5.38 41.684 0.035 6.62 3.18 12.75
12/29/2022 12:00:00 PM 5.47 41.846 0.035 6.6 3.24 12.73
12/29/2022 12:15:00 PM 5.55 41.99 0.035 6.61 3.28 12.72
12/29/2022 12:30:00 PM 5.63 42.134 0.035 6.61 3.29 12.7
12/29/2022 12:45:00 PM 5.69 42.242 0.035 6.63 3.12 12.69
12/29/2022 1:00:00 PM 5.74 42.332 0.035 6.62 3.14 12.68
12/29/2022 1:15:00 PM 5.78 42.404 0.035 6.6 3.22 12.67
12/29/2022 1:30:00 PM 5.81 42.458 0.035 6.65 3.24 12.65
12/29/2022 1:45:00 PM 5.83 42.494 0.035 6.61 3.14 12.63
12/29/2022 2:00:00 PM 5.85 42.53 0.035 6.63 3.34 12.63
12/29/2022 2:15:00 PM 5.86 42.548 0.035 6.65 3.27 12.61
12/29/2022 2:30:00 PM 5.87 42.566 0.035 6.6 3.37 12.6
12/29/2022 2:45:00 PM 5.88 42.584 0.035 6.6 3.19 12.58
12/29/2022 3:00:00 PM 5.9 42.62 0.035 6.63 3.49 12.57
12/29/2022 3:15:00 PM 5.9 42.62 0.035 6.62 3.34 12.55
12/29/2022 3:30:00 PM 5.91 42.638 0.035 6.62 3.47 12.53
12/29/2022 3:45:00 PM 5.92 42.656 0.035 6.66 3.51 12.52
12/29/2022 4:00:00 PM 5.92 42.656 0.036 6.64 3.38 12.49
12/29/2022 4:15:00 PM 5.94 42.692 0.036 6.66 3.58 12.47
12/29/2022 4:30:00 PM 5.94 42.692 0.036 6.63 3.56 12.45
12/29/2022 4:45:00 PM 5.94 42.692 0.036 6.62 3.44 12.42
12/29/2022 5:00:00 PM 5.94 42.692 0.036 6.57 3.57 12.41
12/29/2022 5:15:00 PM 5.94 42.692 0.036 6.63 3.51 12.38
12/29/2022 5:30:00 PM 5.94 42.692 0.036 6.64 3.51 12.38
12/29/2022 5:45:00 PM 5.94 42.692 0.036 6.61 3.37 12.37
12/29/2022 6:00:00 PM 5.92 42.656 0.036 6.61 3.58 12.37
12/29/2022 6:15:00 PM 5.91 42.638 0.036 6.58 3.46 12.38
12/29/2022 6:30:00 PM 5.9 42.62 0.036 6.57 3.45 12.37
12/29/2022 6:45:00 PM 5.88 42.584 0.036 6.57 3.43 12.38
12/29/2022 7:00:00 PM 5.87 42.566 0.036 6.62 3.47 12.39
12/29/2022 7:15:00 PM 5.86 42.548 0.036 6.6 3.42 12.39
12/29/2022 7:30:00 PM 5.84 42.512 0.036 6.59 3.53 12.39
12/29/2022 7:45:00 PM 5.83 42.494 0.036 6.57 3.61 12.4
12/29/2022 8:00:00 PM 5.82 42.476 0.036 6.6 3.46 12.41
12/29/2022 8:15:00 PM 5.82 42.476 0.036 6.59 3.44 12.4
12/29/2022 8:30:00 PM 5.81 42.458 0.036 6.61 3.55 12.41
12/29/2022 8:45:00 PM 5.81 42.458 0.036 6.59 3.49 12.42
12/29/2022 9:00:00 PM 5.81 42.458 0.036 6.59 3.54 12.42
12/29/2022 9:15:00 PM 5.82 42.476 0.036 6.57 3.44 12.42
12/29/2022 9:30:00 PM 5.83 42.494 0.036 6.56 3.46 12.42
12/29/2022 9:45:00 PM 5.84 42.512 0.036 6.53 3.52 12.42
12/29/2022 10:00:00 PM 5.85 42.53 0.036 6.6 3.37 12.43
12/29/2022 10:15:00 PM 5.87 42.566 0.036 6.57 3.45 12.42
12/29/2022 10:30:00 PM 5.88 42.584 0.036 6.54 3.48 12.42
12/29/2022 10:45:00 PM 5.89 42.602 0.036 6.59 3.42 12.41
12/29/2022 11:00:00 PM 5.9 42.62 0.036 6.59 3.39 12.41
12/29/2022 11:15:00 PM 5.91 42.638 0.036 6.56 3.5 12.41
12/29/2022 11:30:00 PM 5.92 42.656 0.036 6.57 3.34 12.4
12/29/2022 11:45:00 PM 5.93 42.674 0.036 6.6 3.36 12.4
12/30/2022 12:00:00 AM 5.95 42.71 0.036 6.58 3.29 12.39
12/30/2022 12:15:00 AM 5.96 42.728 0.036 6.58 3.45 12.39
12/30/2022 12:30:00 AM 5.97 42.746 0.036 6.57 3.43 12.39
12/30/2022 12:45:00 AM 5.98 42.764 0.036 6.56 3.31 12.38
12/30/2022 1:00:00 AM 5.99 42.782 0.036 6.58 3.41 12.38
12/30/2022 1:15:00 AM 6 42.8 0.036 6.58 3.35 12.37
12/30/2022 1:30:00 AM 5.98 42.764 0.036 6.55 3.39 12.39
12/30/2022 1:45:00 AM 5.99 42.782 0.036 6.53 3.34 12.38
12/30/2022 2:00:00 AM 6.01 42.818 0.036 6.58 3.22 12.38
12/30/2022 2:15:00 AM 6 42.8 0.036 6.58 3.22 12.38
12/30/2022 2:30:00 AM 5.99 42.782 0.036 6.58 3.08 12.37
12/30/2022 2:45:00 AM 5.98 42.764 0.036 6.56 3.1 12.38
12/30/2022 3:00:00 AM 5.98 42.764 0.036 6.6 3.3 12.38
12/30/2022 3:15:00 AM 5.99 42.782 0.036 6.58 3.32 12.37
12/30/2022 3:30:00 AM 6 42.8 0.036 6.56 3.23 12.37
12/30/2022 3:45:00 AM 6.01 42.818 0.036 6.55 3.27 12.38
12/30/2022 4:00:00 AM 6.02 42.836 0.036 6.57 3.18 12.37
12/30/2022 4:15:00 AM 6.02 42.836 0.036 6.57 3.21 12.37
12/30/2022 4:30:00 AM 6.03 42.854 0.036 6.55 3.26 12.36
12/30/2022 4:45:00 AM 6.04 42.872 0.036 6.58 3.27 12.36
12/30/2022 5:00:00 AM 6.05 42.89 0.036 6.58 3.12 12.36
12/30/2022 5:15:00 AM 6.05 42.89 0.036 6.55 3.05 12.36
12/30/2022 5:30:00 AM 6.06 42.908 0.036 6.59 3.13 12.35
12/30/2022 5:45:00 AM 6.07 42.926 0.036 6.59 3.21 12.36
12/30/2022 6:00:00 AM 6.07 42.926 0.036 6.56 3.06 12.35
12/30/2022 6:15:00 AM 6.06 42.908 0.036 6.53 3.25 12.35
12/30/2022 6:30:00 AM 6.06 42.908 0.036 6.59 3.32 12.35
12/30/2022 6:45:00 AM 6.05 42.89 0.036 6.53 3.38 12.34
12/30/2022 7:00:00 AM 6.05 42.89 0.036 6.57 3.34 12.35
12/30/2022 7:15:00 AM 6.06 42.908 0.036 6.55 3.33 12.35
12/30/2022 7:30:00 AM 6.07 42.926 0.036 6.6 3.4 12.35
12/30/2022 7:45:00 AM 6.07 42.926 0.036 6.54 3.2 12.36
12/30/2022 8:00:00 AM 6.09 42.962 0.036 6.58 3.32 12.37
12/30/2022 8:15:00 AM 6.1 42.98 0.036 6.57 3.32 12.39
12/30/2022 8:30:00 AM 6.12 43.016 0.036 6.56 3.17 12.41
12/30/2022 8:45:00 AM 6.14 43.052 0.036 6.59 3.25 12.43
12/30/2022 9:00:00 AM 6.17 43.106 0.036 6.59 3.29 12.45
12/30/2022 9:15:00 AM 6.21 43.178 0.036 6.57 3.21 12.47
12/30/2022 9:30:00 AM 6.25 43.25 0.036 6.59 3.25 12.48
12/30/2022 9:45:00 AM 6.29 43.322 0.036 6.58 3 12.5
12/30/2022 10:00:00 AM 6.34 43.412 0.036 6.58 3.14 12.49
12/30/2022 10:15:00 AM 6.38 43.484 0.036 6.64 3.11 12.49
12/30/2022 10:30:00 AM 6.43 43.574 0.036 6.59 3.14 12.48
12/30/2022 10:45:00 AM 6.49 43.682 0.036 6.65 3.17 12.47
12/30/2022 11:00:00 AM 6.53 43.754 0.036 6.66 3.27 12.45
12/30/2022 11:15:00 AM 6.58 43.844 0.036 6.64 3.36 12.44
12/30/2022 11:30:00 AM 6.63 43.934 0.036 6.68 3.38 12.43
12/30/2022 11:45:00 AM 6.68 44.024 0.036 6.66 3.14 12.43
12/30/2022 12:00:00 PM 6.73 44.114 0.036 6.65 3.78 12.42
12/30/2022 12:15:00 PM 6.78 44.204 0.036 6.65 3.29 12.41
12/30/2022 12:30:00 PM 6.82 44.276 0.036 6.67 3.26 12.4
12/30/2022 12:45:00 PM 6.9 44.42 0.036 6.64 3.27 12.39
12/30/2022 1:00:00 PM 6.98 44.564 0.036 6.64 3.13 12.35
12/30/2022 1:15:00 PM 7.03 44.654 0.036 6.65 3.25 12.34
12/30/2022 1:30:00 PM 7.07 44.726 0.036 6.69 3.32 12.32
12/30/2022 1:45:00 PM 7.1 44.78 0.037 6.69 3.36 12.3
12/30/2022 2:00:00 PM 7.12 44.816 0.037 6.69 3.34 12.29
12/30/2022 2:15:00 PM 7.16 44.888 0.037 6.68 3.65 12.29
12/30/2022 2:30:00 PM 7.14 44.852 0.038 6.74 3.81 12.29
12/30/2022 2:45:00 PM 7.09 44.762 0.038 6.74 3.81 12.27
12/30/2022 3:00:00 PM 7.03 44.654 0.039 6.76 4.15 12.28
12/30/2022 3:15:00 PM 6.97 44.546 0.039 6.74 4.6 12.28
12/30/2022 3:30:00 PM 6.95 44.51 0.04 6.74 4.52 12.28
12/30/2022 3:45:00 PM 6.93 44.474 0.04 6.71 4.74 12.28
12/30/2022 4:00:00 PM 6.9 44.42 0.04 6.75 5.16 12.26
12/30/2022 4:15:00 PM 6.88 44.384 0.04 6.73 4.99 12.24
12/30/2022 4:30:00 PM 6.87 44.366 0.04 6.7 5.31 12.23
12/30/2022 4:45:00 PM 6.86 44.348 0.04 6.71 5.46 12.19
12/30/2022 5:00:00 PM 6.85 44.33 0.04 6.7 5.23 12.17
12/30/2022 5:15:00 PM 6.83 44.294 0.039 6.69 5.51 12.16
12/30/2022 5:30:00 PM 6.82 44.276 0.039 6.67 5.36 12.16
12/30/2022 5:45:00 PM 6.82 44.276 0.039 6.65 5.08 12.15
12/30/2022 6:00:00 PM 6.82 44.276 0.038 6.65 5.14 12.15
12/30/2022 6:15:00 PM 6.82 44.276 0.038 6.68 5.21 12.15
12/30/2022 6:30:00 PM 6.81 44.258 0.038 6.63 4.97 12.14
12/30/2022 6:45:00 PM 6.79 44.222 0.038 6.61 4.83 12.15
12/30/2022 7:00:00 PM 6.77 44.186 0.037 6.66 4.69 12.16
12/30/2022 7:15:00 PM 6.76 44.168 0.037 6.66 4.82 12.16
12/30/2022 7:30:00 PM 6.73 44.114 0.037 6.63 4.65 12.16
12/30/2022 7:45:00 PM 6.71 44.078 0.037 6.62 4.97 12.17
12/30/2022 8:00:00 PM 6.68 44.024 0.036 6.64 4.72 12.18
12/30/2022 8:15:00 PM 6.65 43.97 0.036 6.61 4.64 12.18
12/30/2022 8:30:00 PM 6.62 43.916 0.036 6.63 4.59 12.19
12/30/2022 8:45:00 PM 6.59 43.862 0.036 6.6 4.85 12.19
12/30/2022 9:00:00 PM 6.57 43.826 0.036 6.6 4.42 12.19
12/30/2022 9:15:00 PM 6.54 43.772 0.036 6.59 4.53 12.2
12/30/2022 9:30:00 PM 6.51 43.718 0.035 6.55 4.45 12.2
12/30/2022 9:45:00 PM 6.49 43.682 0.035 6.54 4.3 12.21
12/30/2022 10:00:00 PM 6.47 43.646 0.035 6.59 4.29 12.22
12/30/2022 10:15:00 PM 6.44 43.592 0.035 6.56 4.17 12.23
12/30/2022 10:30:00 PM 6.42 43.556 0.035 6.59 4.36 12.24
12/30/2022 10:45:00 PM 6.41 43.538 0.035 6.6 4.48 12.24
12/30/2022 11:00:00 PM 6.39 43.502 0.035 6.58 4.24 12.24
12/30/2022 11:15:00 PM 6.37 43.466 0.035 6.56 4.27 12.25
12/30/2022 11:30:00 PM 6.36 43.448 0.035 6.56 4.28 12.26
12/30/2022 11:45:00 PM 6.34 43.412 0.035 6.54 4.05 12.26
12/31/2022 12:00:00 AM 6.33 43.394 0.035 6.53 4.12 12.26
12/31/2022 12:15:00 AM 6.32 43.376 0.035 6.48 4.11 12.26
12/31/2022 12:30:00 AM 6.31 43.358 0.035 6.53 3.91 12.27
12/31/2022 12:45:00 AM 6.29 43.322 0.035 6.54 4.02 12.27
12/31/2022 1:00:00 AM 6.28 43.304 0.035 6.54 4.17 12.27
12/31/2022 1:15:00 AM 6.26 43.268 0.035 6.52 3.86 12.28
12/31/2022 1:30:00 AM 6.26 43.268 0.035 6.53 4.05 12.28
12/31/2022 1:45:00 AM 6.25 43.25 0.035 6.53 3.95 12.28
12/31/2022 2:00:00 AM 6.24 43.232 0.035 6.54 3.85 12.29
12/31/2022 2:15:00 AM 6.24 43.232 0.035 6.51 3.89 12.28
12/31/2022 2:30:00 AM 6.24 43.232 0.035 6.56 3.85 12.28
12/31/2022 2:45:00 AM 6.23 43.214 0.035 6.56 3.87 12.28
12/31/2022 3:00:00 AM 6.23 43.214 0.035 6.52 3.89 12.28
12/31/2022 3:15:00 AM 6.23 43.214 0.035 6.52 3.78 12.27
12/31/2022 3:30:00 AM 6.23 43.214 0.035 6.54 3.89 12.27
12/31/2022 3:45:00 AM 6.23 43.214 0.035 6.54 3.76 12.27
12/31/2022 4:00:00 AM 6.22 43.196 0.035 6.52 3.94 12.28
12/31/2022 4:15:00 AM 6.22 43.196 0.035 6.56 3.62 12.27
12/31/2022 4:30:00 AM 6.23 43.214 0.035 6.54 3.72 12.28
12/31/2022 4:45:00 AM 6.24 43.232 0.034 6.55 3.66 12.27
12/31/2022 5:00:00 AM 6.24 43.232 0.034 6.55 3.57 12.27
12/31/2022 5:15:00 AM 6.26 43.268 0.034 6.54 3.65 12.27
12/31/2022 5:30:00 AM 6.27 43.286 0.034 6.54 3.78 12.27
12/31/2022 5:45:00 AM 6.28 43.304 0.034 6.54 3.65 12.25
12/31/2022 6:00:00 AM 6.29 43.322 0.034 6.54 3.52 12.26
12/31/2022 6:15:00 AM 6.3 43.34 0.035 6.56 3.68 12.24
12/31/2022 6:30:00 AM 6.31 43.358 0.034 6.54 3.59 12.25
12/31/2022 6:45:00 AM 6.32 43.376 0.034 6.53 3.63 12.24
12/31/2022 7:00:00 AM 6.33 43.394 0.035 6.5 3.71 12.24
12/31/2022 7:15:00 AM 6.34 43.412 0.034 6.57 3.57 12.23
12/31/2022 7:30:00 AM 6.34 43.412 0.035 6.55 3.5 12.23
12/31/2022 7:45:00 AM 6.35 43.43 0.034 6.5 3.66 12.23
12/31/2022 8:00:00 AM 6.36 43.448 0.034 6.57 3.49 12.23
12/31/2022 8:15:00 AM 6.37 43.466 0.034 6.56 3.6 12.24
12/31/2022 8:30:00 AM 6.38 43.484 0.034 6.54 3.53 12.25
12/31/2022 8:45:00 AM 6.4 43.52 0.034 6.53 3.5 12.25
12/31/2022 9:00:00 AM 6.42 43.556 0.034 6.59 3.45 12.26
12/31/2022 9:15:00 AM 6.43 43.574 0.034 6.56 3.51 12.26
12/31/2022 9:30:00 AM 6.46 43.628 0.034 6.56 3.64 12.27
12/31/2022 9:45:00 AM 6.48 43.664 0.034 6.61 3.69 12.27
12/31/2022 10:00:00 AM 6.5 43.7 0.034 6.56 3.4 12.26
12/31/2022 10:15:00 AM 6.53 43.754 0.034 6.55 3.42 12.26
12/31/2022 10:30:00 AM 6.55 43.79 0.034 6.6 3.41 12.26
12/31/2022 10:45:00 AM 6.57 43.826 0.034 6.57 3.46 12.26
12/31/2022 11:00:00 AM 6.6 43.88 0.034 6.62 3.54 12.27
12/31/2022 11:15:00 AM 6.62 43.916 0.034 6.59 3.56 12.26
12/31/2022 11:30:00 AM 6.65 43.97 0.034 6.62 3.51 12.26
12/31/2022 11:45:00 AM 6.67 44.006 0.034 6.61 3.68 12.25
12/31/2022 12:00:00 PM 6.69 44.042 0.034 6.61 3.9 12.25
12/31/2022 12:15:00 PM 6.72 44.096 0.034 6.63 3.33 12.25
12/31/2022 12:30:00 PM 6.74 44.132 0.034 6.61 3.41 12.24
12/31/2022 12:45:00 PM 6.76 44.168 0.034 6.65 3.51 12.23
12/31/2022 1:00:00 PM 6.78 44.204 0.034 6.63 3.51 12.21
12/31/2022 1:15:00 PM 6.79 44.222 0.034 6.62 3.46 12.21
12/31/2022 1:30:00 PM 6.81 44.258 0.034 6.58 3.64 12.2
12/31/2022 1:45:00 PM 6.83 44.294 0.034 6.64 3.62 12.19
12/31/2022 2:00:00 PM 6.84 44.312 0.034 6.6 3.71 12.19
12/31/2022 2:15:00 PM 6.85 44.33 0.034 6.62 3.92 12.18
12/31/2022 2:30:00 PM 6.87 44.366 0.034 6.64 3.82 12.16
12/31/2022 2:45:00 PM 6.88 44.384 0.034 6.59 3.75 12.14
12/31/2022 3:00:00 PM 6.89 44.402 0.034 6.63 3.82 12.13
12/31/2022 3:15:00 PM 6.9 44.42 0.034 6.64 3.73 12.13
12/31/2022 3:30:00 PM 6.9 44.42 0.034 6.62 3.65 12.1
12/31/2022 3:45:00 PM 6.9 44.42 0.034 6.59 3.87 12.09
12/31/2022 4:00:00 PM 6.9 44.42 0.034 6.63 3.9 12.07
12/31/2022 4:15:00 PM 6.9 44.42 0.034 6.62 3.98 12.06
12/31/2022 4:30:00 PM 6.9 44.42 0.034 6.6 3.96 12.04
12/31/2022 4:45:00 PM 6.91 44.438 0.034 6.58 3.87 12.04
12/31/2022 5:00:00 PM 6.91 44.438 0.034 6.62 4.01 12.03
12/31/2022 5:15:00 PM 6.91 44.438 0.034 6.58 4.03 12.01
12/31/2022 5:30:00 PM 6.91 44.438 0.034 6.58 3.98 12.02
12/31/2022 5:45:00 PM 6.91 44.438 0.034 6.56 4.07 12.01
12/31/2022 6:00:00 PM 6.9 44.42 0.034 6.59 4.17 12.01
12/31/2022 6:15:00 PM 6.91 44.438 0.034 6.61 4.09 12.01
12/31/2022 6:30:00 PM 6.9 44.42 0.034 6.56 4.4 12.01
12/31/2022 6:45:00 PM 6.9 44.42 0.034 6.59 4.2 12.01
12/31/2022 7:00:00 PM 6.91 44.438 0.033 6.59 4.25 12
12/31/2022 7:15:00 PM 6.9 44.42 0.033 6.59 4.38 12.01
12/31/2022 7:30:00 PM 6.9 44.42 0.033 6.61 4.42 12.01
12/31/2022 7:45:00 PM 6.9 44.42 0.033 6.58 4.32 12
12/31/2022 8:00:00 PM 6.9 44.42 0.033 6.57 4.4 12
12/31/2022 8:15:00 PM 6.9 44.42 0.033 6.58 4.55 12
12/31/2022 8:30:00 PM 6.9 44.42 0.033 6.56 4.52 12.01
12/31/2022 8:45:00 PM 6.89 44.402 0.033 6.55 4.5 12.01
12/31/2022 9:00:00 PM 6.89 44.402 0.033 6.55 4.64 12.01
12/31/2022 9:15:00 PM 6.89 44.402 0.033 6.56 4.94 12.01
12/31/2022 9:30:00 PM 6.88 44.384 0.033 6.55 4.72 12.01
12/31/2022 9:45:00 PM 6.88 44.384 0.033 6.55 4.58 12.01
12/31/2022 10:00:00 PM 6.88 44.384 0.033 6.57 4.42 12.01
12/31/2022 10:15:00 PM 6.88 44.384 0.033 6.56 4.58 12.01
12/31/2022 10:30:00 PM 6.88 44.384 0.033 6.55 4.69 12.01
12/31/2022 10:45:00 PM 6.87 44.366 0.033 6.56 4.78 12.01
12/31/2022 11:00:00 PM 6.87 44.366 0.033 6.54 4.92 12.01
12/31/2022 11:15:00 PM 6.87 44.366 0.032 6.57 4.85 12.01
12/31/2022 11:30:00 PM 6.87 44.366 0.032 6.56 4.64 12.02
12/31/2022 11:45:00 PM 6.86 44.348 0.032 6.57 4.74 12.01
1/1/2023 12:00:00 AM 6.86 44.348 0.032 6.56 4.69 12.01
1/1/2023 12:15:00 AM 6.85 44.33 0.032 6.52 4.74 12.02
1/1/2023 12:30:00 AM 6.85 44.33 0.032 6.55 4.83 12.02
1/1/2023 12:45:00 AM 6.83 44.294 0.032 6.56 4.94 12.01
1/1/2023 1:00:00 AM 6.82 44.276 0.032 6.53 4.76 12.02
1/1/2023 1:15:00 AM 6.8 44.24 0.032 6.55 5.04 12.03
1/1/2023 1:30:00 AM 6.78 44.204 0.032 6.52 5.23 12.03
1/1/2023 1:45:00 AM 6.77 44.186 0.032 6.51 5.01 12.03
1/1/2023 2:00:00 AM 6.76 44.168 0.032 6.54 4.84 12.03
1/1/2023 2:15:00 AM 6.76 44.168 0.032 6.51 4.87 12.04
1/1/2023 2:30:00 AM 6.75 44.15 0.031 6.52 5.24 12.04
1/1/2023 2:45:00 AM 6.74 44.132 0.031 6.48 4.98 12.04
1/1/2023 3:00:00 AM 6.74 44.132 0.031 6.53 4.91 12.05
1/1/2023 3:15:00 AM 6.74 44.132 0.031 6.53 5.01 12.05
1/1/2023 3:30:00 AM 6.74 44.132 0.031 6.5 5.12 12.05
1/1/2023 3:45:00 AM 6.73 44.114 0.031 6.52 5.06 12.06
1/1/2023 4:00:00 AM 6.72 44.096 0.031 6.53 5.04 12.06
1/1/2023 4:15:00 AM 6.71 44.078 0.031 6.48 5.18 12.06
1/1/2023 4:30:00 AM 6.7 44.06 0.031 6.44 5.26 12.06
1/1/2023 4:45:00 AM 6.69 44.042 0.031 6.5 5.1 12.06
1/1/2023 5:00:00 AM 6.68 44.024 0.031 6.47 5.06 12.06
1/1/2023 5:15:00 AM 6.67 44.006 0.031 6.53 5.42 12.06
1/1/2023 5:30:00 AM 6.66 43.988 0.03 6.46 4.86 12.08
1/1/2023 5:45:00 AM 6.65 43.97 0.03 6.46 4.97 12.07
1/1/2023 6:00:00 AM 6.64 43.952 0.03 6.49 4.85 12.08
1/1/2023 6:15:00 AM 6.64 43.952 0.03 6.49 4.82 12.08
1/1/2023 6:30:00 AM 6.63 43.934 0.03 6.45 4.96 12.09
1/1/2023 6:45:00 AM 6.64 43.952 0.03 6.45 4.94 12.1
1/1/2023 7:00:00 AM 6.64 43.952 0.03 6.51 4.78 12.1
1/1/2023 7:15:00 AM 6.64 43.952 0.03 6.47 5.02 12.1
1/1/2023 7:30:00 AM 6.65 43.97 0.03 6.4 4.93 12.11
1/1/2023 7:45:00 AM 6.65 43.97 0.03 6.42 4.84 12.12
1/1/2023 8:00:00 AM 6.65 43.97 0.03 6.5 4.95 12.13
1/1/2023 8:15:00 AM 6.64 43.952 0.03 6.49 5.07 12.14
1/1/2023 8:30:00 AM 6.64 43.952 0.03 6.49 4.95 12.16
1/1/2023 8:45:00 AM 6.65 43.97 0.03 6.47 4.76 12.19
1/1/2023 9:00:00 AM 6.68 44.024 0.03 6.48 4.9 12.22
1/1/2023 9:15:00 AM 6.72 44.096 0.03 6.52 4.5 12.24
1/1/2023 9:30:00 AM 6.76 44.168 0.03 6.5 4.53 12.26
1/1/2023 9:45:00 AM 6.8 44.24 0.03 6.48 4.7 12.26
1/1/2023 10:00:00 AM 6.84 44.312 0.03 6.56 4.41 12.26
1/1/2023 10:15:00 AM 6.86 44.348 0.03 6.53 4.68 12.24
1/1/2023 10:30:00 AM 6.87 44.366 0.03 6.55 4.62 12.24
1/1/2023 10:45:00 AM 6.92 44.456 0.03 6.51 4.65 12.25
1/1/2023 11:00:00 AM 6.96 44.528 0.029 6.51 4.55 12.25
1/1/2023 11:15:00 AM 7 44.6 0.03 6.53 4.5 12.23
1/1/2023 11:30:00 AM 7.05 44.69 0.03 6.56 4.25 12.2
1/1/2023 11:45:00 AM 7.05 44.69 0.03 6.55 4.52 12.19
1/1/2023 12:00:00 PM 7.08 44.744 0.03 6.55 4.51 12.18
1/1/2023 12:15:00 PM 7.14 44.852 0.03 6.55 4.46 12.17
1/1/2023 12:30:00 PM 7.15 44.87 0.03 6.54 4.42 12.16
1/1/2023 12:45:00 PM 7.19 44.942 0.03 6.55 4.31 12.17
1/1/2023 1:00:00 PM 7.28 45.104 0.03 6.54 4.3 12.16
1/1/2023 1:15:00 PM 7.31 45.158 0.03 6.56 4.39 12.16
1/1/2023 1:30:00 PM 7.31 45.158 0.03 6.56 4.44 12.15
1/1/2023 1:45:00 PM 7.32 45.176 0.03 6.57 4.37 12.12
1/1/2023 2:00:00 PM 7.33 45.194 0.03 6.58 4.28 12.11
1/1/2023 2:15:00 PM 7.37 45.266 0.03 6.6 4.48 12.1
1/1/2023 2:30:00 PM 7.39 45.302 0.03 6.59 4.5 12.08
1/1/2023 2:45:00 PM 7.4 45.32 0.03 6.56 4.66 12.07
1/1/2023 3:00:00 PM 7.42 45.356 0.03 6.57 4.76 12.06
1/1/2023 3:15:00 PM 7.44 45.392 0.03 6.57 4.7 12.04
1/1/2023 3:30:00 PM 7.46 45.428 0.03 6.6 4.61 12.05
1/1/2023 3:45:00 PM 7.47 45.446 0.03 6.55 4.6 12.03
1/1/2023 4:00:00 PM 7.47 45.446 0.03 6.53 4.54 12
1/1/2023 4:15:00 PM 7.45 45.41 0.03 6.55 4.52 12
1/1/2023 4:30:00 PM 7.44 45.392 0.03 6.54 4.3 11.97
1/1/2023 4:45:00 PM 7.42 45.356 0.031 6.54 4.76 11.96
1/1/2023 5:00:00 PM 7.41 45.338 0.031 6.53 4.5 11.96
1/1/2023 5:15:00 PM 7.4 45.32 0.031 6.54 4.57 11.94
1/1/2023 5:30:00 PM 7.4 45.32 0.031 6.54 4.5 11.93
1/1/2023 5:45:00 PM 7.38 45.284 0.031 6.52 4.75 11.94
1/1/2023 6:00:00 PM 7.36 45.248 0.031 6.54 4.61 11.94
1/1/2023 6:15:00 PM 7.34 45.212 0.031 6.54 4.78 11.95
1/1/2023 6:30:00 PM 7.32 45.176 0.031 6.54 4.62 11.95
1/1/2023 6:45:00 PM 7.31 45.158 0.03 6.52 4.61 11.94
1/1/2023 7:00:00 PM 7.29 45.122 0.031 6.51 4.58 11.95
1/1/2023 7:15:00 PM 7.28 45.104 0.031 6.49 4.51 11.96
1/1/2023 7:30:00 PM 7.27 45.086 0.031 6.49 4.51 11.96
1/1/2023 7:45:00 PM 7.26 45.068 0.031 6.46 4.39 11.97
1/1/2023 8:00:00 PM 7.25 45.05 0.03 6.52 4.34 11.97
1/1/2023 8:15:00 PM 7.24 45.032 0.03 6.48 4.36 11.98
1/1/2023 8:30:00 PM 7.23 45.014 0.03 6.46 4.41 11.98
1/1/2023 8:45:00 PM 7.22 44.996 0.03 6.46 4.23 11.98
1/1/2023 9:00:00 PM 7.22 44.996 0.03 6.46 4.26 11.98
1/1/2023 9:15:00 PM 7.21 44.978 0.03 6.47 4.19 11.99
1/1/2023 9:30:00 PM 7.2 44.96 0.03 6.45 4.37 11.99
1/1/2023 9:45:00 PM 7.19 44.942 0.03 6.46 4.19 11.99
1/1/2023 10:00:00 PM 7.17 44.906 0.03 6.51 4.24 11.99
1/1/2023 10:15:00 PM 7.16 44.888 0.03 6.5 4.35 11.99
1/1/2023 10:30:00 PM 7.14 44.852 0.03 6.46 4.28 12
1/1/2023 10:45:00 PM 7.13 44.834 0.03 6.49 4.29 12
1/1/2023 11:00:00 PM 7.13 44.834 0.03 6.48 4.39 12
1/1/2023 11:15:00 PM 7.12 44.816 0.03 6.5 4.53 12.01
1/1/2023 11:30:00 PM 7.11 44.798 0.03 6.46 4.31 12.01
1/1/2023 11:45:00 PM 7.1 44.78 0.03 6.5 4.28 12.01
1/2/2023 12:00:00 AM 7.1 44.78 0.03 6.49 4.33 12.01
1/2/2023 12:15:00 AM 7.1 44.78 0.03 6.46 4.11 12.01
1/2/2023 12:30:00 AM 7.09 44.762 0.03 6.49 4.31 12.02
1/2/2023 12:45:00 AM 7.09 44.762 0.03 6.47 4.04 12.02
1/2/2023 1:00:00 AM 7.08 44.744 0.03 6.47 4.01 12.02
1/2/2023 1:15:00 AM 7.07 44.726 0.03 6.46 4.11 12.02
1/2/2023 1:30:00 AM 7.06 44.708 0.03 6.44 3.93 12.02
1/2/2023 1:45:00 AM 7.04 44.672 0.03 6.43 4.11 12.02
1/2/2023 2:00:00 AM 7.03 44.654 0.03 6.45 4.25 12.03
1/2/2023 2:15:00 AM 7.01 44.618 0.03 6.46 4 12.04
1/2/2023 2:30:00 AM 7 44.6 0.03 6.45 4.03 12.05
1/2/2023 2:45:00 AM 6.98 44.564 0.03 6.45 3.98 12.05
1/2/2023 3:00:00 AM 6.97 44.546 0.03 6.43 3.98 12.06
1/2/2023 3:15:00 AM 6.95 44.51 0.03 6.43 4.1 12.07
1/2/2023 3:30:00 AM 6.94 44.492 0.03 6.43 4.15 12.06
1/2/2023 3:45:00 AM 6.92 44.456 0.03 6.41 3.84 12.08
1/2/2023 4:00:00 AM 6.9 44.42 0.03 6.42 3.84 12.08
1/2/2023 4:15:00 AM 6.88 44.384 0.03 6.45 3.82 12.08
1/2/2023 4:30:00 AM 6.88 44.384 0.03 6.42 3.77 12.09
1/2/2023 4:45:00 AM 6.87 44.366 0.03 6.44 3.82 12.09
1/2/2023 5:00:00 AM 6.86 44.348 0.03 6.45 3.89 12.09
1/2/2023 5:15:00 AM 6.86 44.348 0.03 6.46 3.84 12.09
1/2/2023 5:30:00 AM 6.86 44.348 0.03 6.43 3.77 12.1
1/2/2023 5:45:00 AM 6.86 44.348 0.03 6.45 4.03 12.11
1/2/2023 6:00:00 AM 6.87 44.366 0.03 6.43 3.65 12.1
1/2/2023 6:15:00 AM 6.88 44.384 0.03 6.45 3.81 12.11
1/2/2023 6:30:00 AM 6.88 44.384 0.03 6.43 3.95 12.1
1/2/2023 6:45:00 AM 6.88 44.384 0.03 6.45 3.89 12.1
1/2/2023 7:00:00 AM 6.88 44.384 0.03 6.45 3.9 12.11
1/2/2023 7:15:00 AM 6.87 44.366 0.03 6.45 3.7 12.11
1/2/2023 7:30:00 AM 6.86 44.348 0.03 6.44 3.78 12.11
1/2/2023 7:45:00 AM 6.86 44.348 0.03 6.44 3.75 12.12
1/2/2023 8:00:00 AM 6.86 44.348 0.03 6.45 3.78 12.13
1/2/2023 8:15:00 AM 6.87 44.366 0.03 6.47 3.87 12.15
1/2/2023 8:30:00 AM 6.88 44.384 0.03 6.46 3.66 12.17
1/2/2023 8:45:00 AM 6.88 44.384 0.03 6.45 3.69 12.2
1/2/2023 9:00:00 AM 6.9 44.42 0.03 6.46 3.74 12.22
1/2/2023 9:15:00 AM 6.92 44.456 0.029 6.5 3.8 12.23
1/2/2023 9:30:00 AM 6.95 44.51 0.029 6.48 4.07 12.24
1/2/2023 9:45:00 AM 6.98 44.564 0.029 6.49 3.78 12.24
1/2/2023 10:00:00 AM 7 44.6 0.029 6.49 3.69 12.23
1/2/2023 10:15:00 AM 7.04 44.672 0.029 6.51 3.82 12.23
1/2/2023 10:30:00 AM 7.08 44.744 0.029 6.5 3.76 12.22
1/2/2023 10:45:00 AM 7.12 44.816 0.029 6.52 3.77 12.22
1/2/2023 11:00:00 AM 7.17 44.906 0.029 6.53 3.77 12.21
1/2/2023 11:15:00 AM 7.25 45.05 0.029 6.53 3.77 12.21
1/2/2023 11:30:00 AM 7.31 45.158 0.029 6.53 3.67 12.19
1/2/2023 11:45:00 AM 7.33 45.194 0.029 6.56 3.59 12.18
1/2/2023 12:00:00 PM 7.35 45.23 0.029 6.57 3.67 12.18
1/2/2023 12:15:00 PM 7.4 45.32 0.029 6.56 3.77 12.17
1/2/2023 12:30:00 PM 7.42 45.356 0.029 6.55 3.52 12.15
1/2/2023 12:45:00 PM 7.45 45.41 0.029 6.55 3.63 12.16
1/2/2023 1:00:00 PM 7.5 45.5 0.029 6.56 3.52 12.14
1/2/2023 1:15:00 PM 7.57 45.626 0.029 6.59 3.74 12.11
1/2/2023 1:30:00 PM 7.61 45.698 0.029 6.56 3.56 12.09
1/2/2023 1:45:00 PM 7.64 45.752 0.03 6.58 3.64 12.07
1/2/2023 2:00:00 PM 7.67 45.806 0.03 6.57 3.78 12.08
1/2/2023 2:15:00 PM 7.71 45.878 0.03 6.58 3.72 12.05
1/2/2023 2:30:00 PM 7.75 45.95 0.03 6.57 3.79 12.03
1/2/2023 2:45:00 PM 7.79 46.022 0.03 6.57 4.08 12.02
1/2/2023 3:00:00 PM 7.83 46.094 0.03 6.57 4.04 12.02
1/2/2023 3:15:00 PM 7.86 46.148 0.03 6.57 4.36 11.98
1/2/2023 3:30:00 PM 7.88 46.184 0.03 6.57 3.85 11.97
1/2/2023 3:45:00 PM 7.9 46.22 0.03 6.57 3.99 11.96
1/2/2023 4:00:00 PM 7.91 46.238 0.03 6.58 4.17 11.92
1/2/2023 4:15:00 PM 7.92 46.256 0.03 6.57 4.21 11.89
1/2/2023 4:30:00 PM 7.93 46.274 0.03 6.57 4.23 11.87
1/2/2023 4:45:00 PM 7.93 46.274 0.03 6.56 4.36 11.86
1/2/2023 5:00:00 PM 7.93 46.274 0.03 6.55 4.51 11.84
1/2/2023 5:15:00 PM 7.92 46.256 0.03 6.54 4.38 11.83
1/2/2023 5:30:00 PM 7.92 46.256 0.03 6.54 4.52 11.83
1/2/2023 5:45:00 PM 7.91 46.238 0.03 6.53 4.45 11.83
1/2/2023 6:00:00 PM 7.91 46.238 0.03 6.53 4.69 11.83
1/2/2023 6:15:00 PM 7.89 46.202 0.03 6.53 4.41 11.83
1/2/2023 6:30:00 PM 7.89 46.202 0.03 6.53 4.55 11.83
1/2/2023 6:45:00 PM 7.88 46.184 0.03 6.52 4.71 11.83
1/2/2023 7:00:00 PM 7.87 46.166 0.03 6.52 4.48 11.84
1/2/2023 7:15:00 PM 7.86 46.148 0.03 6.5 4.36 11.85
1/2/2023 7:30:00 PM 7.85 46.13 0.03 6.52 4.56 11.84
1/2/2023 7:45:00 PM 7.84 46.112 0.03 6.51 4.66 11.85
1/2/2023 8:00:00 PM 7.84 46.112 0.03 6.49 4.26 11.85
1/2/2023 8:15:00 PM 7.83 46.094 0.03 6.5 4.28 11.85
1/2/2023 8:30:00 PM 7.82 46.076 0.03 6.51 4.14 11.85
1/2/2023 8:45:00 PM 7.81 46.058 0.03 6.49 4.25 11.85
1/2/2023 9:00:00 PM 7.8 46.04 0.03 6.47 4.11 11.86
1/2/2023 9:15:00 PM 7.8 46.04 0.03 6.49 4.01 11.85
1/2/2023 9:30:00 PM 7.79 46.022 0.03 6.48 3.98 11.86
1/2/2023 9:45:00 PM 7.78 46.004 0.03 6.46 3.88 11.86
1/2/2023 10:00:00 PM 7.78 46.004 0.03 6.47 3.77 11.86
1/2/2023 10:15:00 PM 7.77 45.986 0.03 6.49 3.76 11.86
1/2/2023 10:30:00 PM 7.77 45.986 0.03 6.48 3.94 11.86
1/2/2023 10:45:00 PM 7.77 45.986 0.03 6.48 3.92 11.86
1/2/2023 11:00:00 PM 7.77 45.986 0.03 6.48 3.82 11.86
1/2/2023 11:15:00 PM 7.76 45.968 0.03 6.46 3.68 11.87
1/2/2023 11:30:00 PM 7.76 45.968 0.03 6.45 3.85 11.86
1/2/2023 11:45:00 PM 7.76 45.968 0.03 6.46 3.84 11.86
1/3/2023 12:00:00 AM 7.76 45.968 0.03 6.46 3.85 11.86
1/3/2023 12:15:00 AM 7.76 45.968 0.03 6.46 3.76 11.86
1/3/2023 12:30:00 AM 7.76 45.968 0.03 6.45 3.78 11.85
1/3/2023 12:45:00 AM 7.76 45.968 0.03 6.46 3.89 11.85
1/3/2023 1:00:00 AM 7.76 45.968 0.03 6.48 3.85 11.85
1/3/2023 1:15:00 AM 7.76 45.968 0.03 6.45 3.87 11.85
1/3/2023 1:30:00 AM 7.77 45.986 0.03 6.45 3.98 11.85
1/3/2023 1:45:00 AM 7.77 45.986 0.03 6.47 3.84 11.84
1/3/2023 2:00:00 AM 7.77 45.986 0.03 6.47 3.82 11.84
1/3/2023 2:15:00 AM 7.77 45.986 0.03 6.45 3.83 11.84
1/3/2023 2:30:00 AM 7.78 46.004 0.03 6.44 3.73 11.84
1/3/2023 2:45:00 AM 7.78 46.004 0.03 6.44 3.78 11.85
1/3/2023 3:00:00 AM 7.78 46.004 0.03 6.44 3.64 11.85
1/3/2023 3:15:00 AM 7.78 46.004 0.03 6.44 3.63 11.84
1/3/2023 3:30:00 AM 7.79 46.022 0.03 6.45 3.94 11.84
1/3/2023 3:45:00 AM 7.79 46.022 0.03 6.46 3.6 11.84
1/3/2023 4:00:00 AM 7.79 46.022 0.03 6.45 3.85 11.84
1/3/2023 4:15:00 AM 7.79 46.022 0.03 6.45 3.82 11.84
1/3/2023 4:30:00 AM 7.8 46.04 0.03 6.42 3.7 11.83
1/3/2023 4:45:00 AM 7.8 46.04 0.03 6.46 3.66 11.83
1/3/2023 5:00:00 AM 7.8 46.04 0.03 6.43 3.66 11.82
1/3/2023 5:15:00 AM 7.8 46.04 0.03 6.42 3.62 11.82
1/3/2023 5:30:00 AM 7.8 46.04 0.03 6.44 3.67 11.82
1/3/2023 5:45:00 AM 7.81 46.058 0.03 6.44 3.62 11.82
1/3/2023 6:00:00 AM 7.81 46.058 0.03 6.48 3.67 11.82
1/3/2023 6:15:00 AM 7.81 46.058 0.03 6.45 3.55 11.81
1/3/2023 6:30:00 AM 7.81 46.058 0.03 6.44 3.57 11.81
1/3/2023 6:45:00 AM 7.8 46.04 0.03 6.45 3.68 11.81
1/3/2023 7:00:00 AM 7.81 46.058 0.03 6.45 3.73 11.81
1/3/2023 7:15:00 AM 7.8 46.04 0.03 6.45 3.67 11.81
1/3/2023 7:30:00 AM 7.81 46.058 0.03 6.45 3.82 11.8
1/3/2023 7:45:00 AM 7.81 46.058 0.03 6.46 3.52 11.81
1/3/2023 8:00:00 AM 7.82 46.076 0.03 6.42 3.74 11.81
1/3/2023 8:15:00 AM 7.82 46.076 0.03 6.45 3.59 11.82
1/3/2023 8:30:00 AM 7.83 46.094 0.03 6.47 3.64 11.82
1/3/2023 8:45:00 AM 7.84 46.112 0.03 6.45 3.58 11.82
1/3/2023 9:00:00 AM 7.84 46.112 0.03 6.45 3.53 11.82
1/3/2023 9:15:00 AM 7.85 46.13 0.03 6.45 3.59 11.83
1/3/2023 9:30:00 AM 7.86 46.148 0.03 6.47 3.63 11.83
1/3/2023 9:45:00 AM 7.87 46.166 0.03 6.46 3.76 11.83
1/3/2023 10:00:00 AM 7.88 46.184 0.03 6.46 3.7 11.83
1/3/2023 10:15:00 AM 7.89 46.202 0.03 6.46 3.82 11.84
1/3/2023 10:30:00 AM 7.9 46.22 0.03 6.46 4.4 11.84
1/3/2023 10:45:00 AM 7.91 46.238 0.03 6.48 5.33 11.85
1/3/2023 11:00:00 AM 7.92 46.256 0.031 6.49 5.75 11.87
1/3/2023 11:15:00 AM 7.91 46.238 0.032 6.49 8.52 11.87
1/3/2023 11:30:00 AM 7.9 46.22 0.033 6.51 13.41 11.86
1/3/2023 11:45:00 AM 7.9 46.22 0.034 6.53 14.04 11.88
1/3/2023 12:00:00 PM 7.91 46.238 0.035 6.54 12.91 11.89
1/3/2023 12:15:00 PM 7.92 46.256 0.035 6.56 11.69 11.87
1/3/2023 12:30:00 PM 7.92 46.256 0.035 6.56 11.71 11.86
1/3/2023 12:45:00 PM 7.92 46.256 0.036 6.57 12.7 11.87
1/3/2023 1:00:00 PM 7.92 46.256 0.036 6.58 8.81 11.86
1/3/2023 1:15:00 PM 7.93 46.274 0.036 6.59 14.18 11.84
1/3/2023 1:30:00 PM 7.94 46.292 0.036 6.59 12.74 11.84
1/3/2023 1:45:00 PM 7.97 46.346 0.036 6.6 16.63 11.84
1/3/2023 2:00:00 PM 8 46.4 0.036 6.6 11.89 11.83
1/3/2023 2:15:00 PM 8.02 46.436 0.035 6.6 14.85 11.82
1/3/2023 2:30:00 PM 8.05 46.49 0.035 6.6 14.18 11.8
1/3/2023 2:45:00 PM 8.08 46.544 0.034 6.59 14.37 11.78
1/3/2023 3:00:00 PM 8.1 46.58 0.033 6.57 14.09 11.78
1/3/2023 3:15:00 PM 8.13 46.634 0.033 6.57 14.43 11.76
1/3/2023 3:30:00 PM 8.15 46.67 0.032 6.52 14.32 11.75
1/3/2023 3:45:00 PM 8.16 46.688 0.032 6.53 12.86 11.73
1/3/2023 4:00:00 PM 8.19 46.742 0.031 6.53 14.07 11.72
1/3/2023 4:15:00 PM 8.23 46.814 0.031 6.51 13.08 11.7
1/3/2023 4:30:00 PM 8.28 46.904 0.031 6.51 13.69 11.68
1/3/2023 4:45:00 PM 8.31 46.958 0.031 6.51 14.17 11.67
1/3/2023 5:00:00 PM 8.35 47.03 0.031 6.5 14.01 11.66
1/3/2023 5:15:00 PM 8.37 47.066 0.031 6.47 13.76 11.65
1/3/2023 5:30:00 PM 8.37 47.066 0.03 6.49 15.08 11.65
1/3/2023 5:45:00 PM 8.37 47.066 0.03 6.49 14.96 11.64
1/3/2023 6:00:00 PM 8.38 47.084 0.03 6.48 14.81 11.64
1/3/2023 6:15:00 PM 8.39 47.102 0.03 6.46 13.47 11.64
1/3/2023 6:30:00 PM 8.39 47.102 0.03 6.46 12.38 11.63
1/3/2023 6:45:00 PM 8.39 47.102 0.03 6.45 12.23 11.64
1/3/2023 7:00:00 PM 8.39 47.102 0.03 6.5 11.93 11.64
1/3/2023 7:15:00 PM 8.4 47.12 0.03 6.47 11.48 11.64
1/3/2023 7:30:00 PM 8.42 47.156 0.03 6.46 11.27 11.64
1/3/2023 7:45:00 PM 8.43 47.174 0.03 6.47 10.3 11.64
1/3/2023 8:00:00 PM 8.43 47.174 0.03 6.46 10.47 11.63
1/3/2023 8:15:00 PM 8.43 47.174 0.03 6.45 10.69 11.63
1/3/2023 8:30:00 PM 8.43 47.174 0.03 6.44 10.14 11.63
1/3/2023 8:45:00 PM 8.44 47.192 0.03 6.43 10.13 11.63
1/3/2023 9:00:00 PM 8.45 47.21 0.029 6.41 9.86 11.62
1/3/2023 9:15:00 PM 8.46 47.228 0.029 6.41 8.87 11.62
1/3/2023 9:30:00 PM 8.47 47.246 0.029 6.47 8.92 11.61
1/3/2023 9:45:00 PM 8.48 47.264 0.029 6.42 9.51 11.61
1/3/2023 10:00:00 PM 8.5 47.3 0.029 6.44 9.27 11.6
1/3/2023 10:15:00 PM 8.51 47.318 0.029 6.42 8.67 11.61
1/3/2023 10:30:00 PM 8.52 47.336 0.029 6.42 8.7 11.59
1/3/2023 10:45:00 PM 8.53 47.354 0.029 6.4 8.9 11.6
1/3/2023 11:00:00 PM 8.53 47.354 0.029 6.39 8.5 11.59
1/3/2023 11:15:00 PM 8.53 47.354 0.029 6.39 8.6 11.58
1/3/2023 11:30:00 PM 8.54 47.372 0.029 6.37 8.6 11.58
1/3/2023 11:45:00 PM 8.54 47.372 0.029 6.36 8.61 11.58
1/4/2023 12:00:00 AM 8.55 47.39 0.029 6.43 8.63 11.58
1/4/2023 12:15:00 AM 8.55 47.39 0.029 6.38 8.48 11.57
1/4/2023 12:30:00 AM 8.56 47.408 0.029 6.37 8.53 11.58
1/4/2023 12:45:00 AM 8.57 47.426 0.029 6.37 8.2 11.57
1/4/2023 1:00:00 AM 8.58 47.444 0.029 6.35 8.02 11.57
1/4/2023 1:15:00 AM 8.6 47.48 0.029 6.41 8.02 11.56
1/4/2023 1:30:00 AM 8.6 47.48 0.029 6.4 8.14 11.56
1/4/2023 1:45:00 AM 8.61 47.498 0.029 6.39 8.23 11.57
1/4/2023 2:00:00 AM 8.62 47.516 0.029 6.36 8.03 11.56
1/4/2023 2:15:00 AM 8.63 47.534 0.028 6.37 7.79 11.57
1/4/2023 2:30:00 AM 8.63 47.534 0.029 6.35 7.92 11.56
1/4/2023 2:45:00 AM 8.63 47.534 0.028 6.38 7.57 11.56
1/4/2023 3:00:00 AM 8.63 47.534 0.028 6.37 7.34 11.56
1/4/2023 3:15:00 AM 8.63 47.534 0.028 6.33 7.37 11.56
1/4/2023 3:30:00 AM 8.61 47.498 0.028 6.33 7.22 11.56
1/4/2023 3:45:00 AM 8.61 47.498 0.028 6.36 7.32 11.57
1/4/2023 4:00:00 AM 8.6 47.48 0.028 6.32 7.21 11.56
1/4/2023 4:15:00 AM 8.6 47.48 0.028 6.32 7.39 11.56
1/4/2023 4:30:00 AM 8.59 47.462 0.028 6.32 7.27 11.57
1/4/2023 4:45:00 AM 8.58 47.444 0.028 6.34 7.68 11.57
1/4/2023 5:00:00 AM 8.58 47.444 0.028 6.32 7.81 11.57
1/4/2023 5:15:00 AM 8.57 47.426 0.028 6.29 7.03 11.58
1/4/2023 5:30:00 AM 8.57 47.426 0.028 6.32 7.46 11.57
1/4/2023 5:45:00 AM 8.57 47.426 0.028 6.3 7.1 11.57
1/4/2023 6:00:00 AM 8.57 47.426 0.028 6.36 7.07 11.57
1/4/2023 6:15:00 AM 8.57 47.426 0.028 6.32 6.69 11.58
1/4/2023 6:30:00 AM 8.57 47.426 0.028 6.32 6.56 11.58
1/4/2023 6:45:00 AM 8.58 47.444 0.028 6.36 6.63 11.57
1/4/2023 7:00:00 AM 8.59 47.462 0.028 6.31 6.78 11.58
1/4/2023 7:15:00 AM 8.59 47.462 0.028 6.33 6.51 11.58
1/4/2023 7:30:00 AM 8.6 47.48 0.028 6.36 6.63 11.58
1/4/2023 7:45:00 AM 8.6 47.48 0.027 6.32 6.64 11.59
1/4/2023 8:00:00 AM 8.6 47.48 0.028 6.27 6.66 11.59
1/4/2023 8:15:00 AM 8.61 47.498 0.028 6.31 6.56 11.6
1/4/2023 8:30:00 AM 8.61 47.498 0.027 6.33 6.66 11.63
1/4/2023 8:45:00 AM 8.62 47.516 0.027 6.31 6.82 11.64
1/4/2023 9:00:00 AM 8.64 47.552 0.027 6.33 6.37 11.65
1/4/2023 9:15:00 AM 8.67 47.606 0.027 6.34 6.3 11.65
1/4/2023 9:30:00 AM 8.69 47.642 0.027 6.34 6.34 11.67
1/4/2023 9:45:00 AM 8.71 47.678 0.027 6.35 6.08 11.66
1/4/2023 10:00:00 AM 8.73 47.714 0.027 6.36 5.84 11.66
1/4/2023 10:15:00 AM 8.76 47.768 0.027 6.33 6.09 11.65
1/4/2023 10:30:00 AM 8.79 47.822 0.027 6.38 6.09 11.65
1/4/2023 10:45:00 AM 8.82 47.876 0.027 6.35 5.91 11.65
1/4/2023 11:00:00 AM 8.84 47.912 0.027 6.36 5.96 11.64
1/4/2023 11:15:00 AM 8.88 47.984 0.027 6.36 5.79 11.65
1/4/2023 11:30:00 AM 8.91 48.038 0.027 6.36 5.6 11.65
1/4/2023 11:45:00 AM 8.95 48.11 0.027 6.36 5.61 11.65
1/4/2023 12:00:00 PM 8.99 48.182 0.027 6.37 5.55 11.65
1/4/2023 12:15:00 PM 9.04 48.272 0.027 6.38 5.93 11.64
1/4/2023 12:30:00 PM 9.07 48.326 0.027 6.38 5.84 11.63
1/4/2023 12:45:00 PM 9.11 48.398 0.027 6.38 5.91 11.61
1/4/2023 1:00:00 PM 9.14 48.452 0.027 6.4 6.6 11.59
1/4/2023 1:15:00 PM 9.17 48.506 0.027 6.4 6.47 11.58
1/4/2023 1:30:00 PM 9.21 48.578 0.027 6.38 6.24 11.57
1/4/2023 1:45:00 PM 9.24 48.632 0.027 6.46 6.17 11.57
1/4/2023 2:00:00 PM 9.27 48.686 0.027 6.4 6.11 11.55
1/4/2023 2:15:00 PM 9.29 48.722 0.027 6.41 5.89 11.54
1/4/2023 2:30:00 PM 9.32 48.776 0.027 6.41 5.85 11.52
1/4/2023 2:45:00 PM 9.34 48.812 0.027 6.42 5.7 11.52
1/4/2023 3:00:00 PM 9.35 48.83 0.027 6.4 5.83 11.5
1/4/2023 3:15:00 PM 9.37 48.866 0.027 6.41 5.85 11.48
1/4/2023 3:30:00 PM 9.38 48.884 0.027 6.39 6.25 11.44
1/4/2023 3:45:00 PM 9.39 48.902 0.028 6.39 5.96 11.42
1/4/2023 4:00:00 PM 9.39 48.902 0.028 6.43 5.88 11.4
1/4/2023 4:15:00 PM 9.4 48.92 0.028 6.39 6.37 11.39
1/4/2023 4:30:00 PM 9.4 48.92 0.028 6.37 5.93 11.37
1/4/2023 4:45:00 PM 9.41 48.938 0.028 6.36 6.15 11.36
1/4/2023 5:00:00 PM 9.42 48.956 0.028 6.35 6.27 11.35
1/4/2023 5:15:00 PM 9.42 48.956 0.028 6.38 6.1 11.33
1/4/2023 5:30:00 PM 9.42 48.956 0.028 6.35 5.96 11.31
1/4/2023 5:45:00 PM 9.43 48.974 0.028 6.33 6.19 11.33
1/4/2023 6:00:00 PM 9.43 48.974 0.028 6.34 6.37 11.32
1/4/2023 6:15:00 PM 9.43 48.974 0.028 6.27 5.6 11.31
1/4/2023 6:30:00 PM 9.43 48.974 0.028 6.33 5.46 11.31
1/4/2023 6:45:00 PM 9.43 48.974 0.028 6.35 5.64 11.31
1/4/2023 7:00:00 PM 9.44 48.992 0.028 6.33 5.38 11.31
1/4/2023 7:15:00 PM 9.43 48.974 0.028 6.36 5.31 11.32
1/4/2023 7:30:00 PM 9.43 48.974 0.028 6.33 5.25 11.32
1/4/2023 7:45:00 PM 9.43 48.974 0.028 6.27 5.07 11.31
1/4/2023 8:00:00 PM 9.43 48.974 0.028 6.35 5.18 11.32
1/4/2023 8:15:00 PM 9.43 48.974 0.028 6.39 5.14 11.31
1/4/2023 8:30:00 PM 9.44 48.992 0.028 6.31 5.12 11.31
1/4/2023 8:45:00 PM 9.44 48.992 0.028 6.33 5.02 11.3
1/4/2023 9:00:00 PM 9.45 49.01 0.028 6.38 4.93 11.3
1/4/2023 9:15:00 PM 9.45 49.01 0.028 6.35 4.98 11.31
1/4/2023 9:30:00 PM 9.46 49.028 0.028 6.34 5.45 11.31
1/4/2023 9:45:00 PM 9.47 49.046 0.028 6.33 5.51 11.31
1/4/2023 10:00:00 PM 9.47 49.046 0.028 6.32 5.09 11.3
1/4/2023 10:15:00 PM 9.47 49.046 0.028 6.33 5.19 11.3
1/4/2023 10:30:00 PM 9.47 49.046 0.028 6.32 5.14 11.3
1/4/2023 10:45:00 PM 9.48 49.064 0.028 6.31 5.22 11.3
1/4/2023 11:00:00 PM 9.49 49.082 0.028 6.32 5.25 11.3
1/4/2023 11:15:00 PM 9.5 49.1 0.028 6.33 4.94 11.3
1/4/2023 11:30:00 PM 9.5 49.1 0.028 6.35 4.89 11.29
1/4/2023 11:45:00 PM 9.51 49.118 0.028 6.35 4.7 11.31
1/5/2023 12:00:00 AM 9.51 49.118 0.028 6.34 4.94 11.3
1/5/2023 12:15:00 AM 9.51 49.118 0.028 6.36 4.92 11.3
1/5/2023 12:30:00 AM 9.5 49.1 0.028 6.35 4.9 11.31
1/5/2023 12:45:00 AM 9.49 49.082 0.028 6.33 4.92 11.31
1/5/2023 1:00:00 AM 9.47 49.046 0.028 6.36 5.12 11.3
1/5/2023 1:15:00 AM 9.46 49.028 0.028 6.33 4.85 11.3
1/5/2023 1:30:00 AM 9.44 48.992 0.028 6.36 4.94 11.3
1/5/2023 1:45:00 AM 9.43 48.974 0.028 6.41 4.75 11.32
1/5/2023 2:00:00 AM 9.41 48.938 0.028 6.36 5.06 11.31
1/5/2023 2:15:00 AM 9.39 48.902 0.028 6.34 4.8 11.32
1/5/2023 2:30:00 AM 9.37 48.866 0.028 6.4 4.57 11.32
1/5/2023 2:45:00 AM 9.35 48.83 0.028 6.34 4.55 11.33
1/5/2023 3:00:00 AM 9.33 48.794 0.028 6.37 4.56 11.33
1/5/2023 3:15:00 AM 9.3 48.74 0.028 6.39 4.84 11.35
1/5/2023 3:30:00 AM 9.28 48.704 0.028 6.4 4.6 11.36
1/5/2023 3:45:00 AM 9.25 48.65 0.028 6.35 4.51 11.37
1/5/2023 4:00:00 AM 9.23 48.614 0.028 6.34 4.73 11.37
1/5/2023 4:15:00 AM 9.2 48.56 0.028 6.36 4.38 11.39
1/5/2023 4:30:00 AM 9.18 48.524 0.028 6.34 4.64 11.4
1/5/2023 4:45:00 AM 9.16 48.488 0.028 6.38 4.62 11.41
1/5/2023 5:00:00 AM 9.13 48.434 0.028 6.34 4.47 11.42
1/5/2023 5:15:00 AM 9.1 48.38 0.028 6.33 4.31 11.43
1/5/2023 5:30:00 AM 9.07 48.326 0.028 6.39 4.39 11.44
1/5/2023 5:45:00 AM 9.04 48.272 0.028 6.39 4.54 11.45
1/5/2023 6:00:00 AM 9 48.2 0.028 6.36 4.55 11.46
1/5/2023 6:15:00 AM 8.97 48.146 0.028 6.35 4.41 11.46
1/5/2023 6:30:00 AM 8.94 48.092 0.028 6.34 4.5 11.47
1/5/2023 6:45:00 AM 8.91 48.038 0.028 6.34 4.24 11.47
1/5/2023 7:00:00 AM 8.87 47.966 0.028 6.34 4.32 11.48
1/5/2023 7:15:00 AM 8.84 47.912 0.028 6.34 4.44 11.49
1/5/2023 7:30:00 AM 8.8 47.84 0.028 6.36 4.15 11.49
1/5/2023 7:45:00 AM 8.77 47.786 0.028 6.33 4.16 11.5
1/5/2023 8:00:00 AM 8.74 47.732 0.028 6.33 4.09 11.52
1/5/2023 8:15:00 AM 8.72 47.696 0.028 6.32 4.15 11.54
1/5/2023 8:30:00 AM 8.69 47.642 0.028 6.35 3.98 11.57
1/5/2023 8:45:00 AM 8.68 47.624 0.028 6.32 4.19 11.62
1/5/2023 9:00:00 AM 8.68 47.624 0.028 6.35 4.26 11.66
1/5/2023 9:15:00 AM 8.69 47.642 0.028 6.36 4.16 11.69
1/5/2023 9:30:00 AM 8.7 47.66 0.028 6.38 4.19 11.7
1/5/2023 9:45:00 AM 8.71 47.678 0.028 6.39 4.25 11.7
1/5/2023 10:00:00 AM 8.72 47.696 0.028 6.38 4.1 11.68
1/5/2023 10:15:00 AM 8.73 47.714 0.028 6.39 4.1 11.69
1/5/2023 10:30:00 AM 8.76 47.768 0.028 6.44 4.06 11.7
1/5/2023 10:45:00 AM 8.8 47.84 0.028 6.44 3.91 11.7
1/5/2023 11:00:00 AM 8.85 47.93 0.028 6.46 4.07 11.7
1/5/2023 11:15:00 AM 8.9 48.02 0.028 6.43 4.06 11.7
1/5/2023 11:30:00 AM 8.91 48.038 0.028 6.45 3.91 11.7
1/5/2023 11:45:00 AM 8.94 48.092 0.028 6.46 3.76 11.7
1/5/2023 12:00:00 PM 8.96 48.128 0.028 6.46 3.77 11.69
1/5/2023 12:15:00 PM 9.02 48.236 0.029 6.46 3.85 11.69
1/5/2023 12:30:00 PM 9.06 48.308 0.028 6.47 3.89 11.7
1/5/2023 12:45:00 PM 9.09 48.362 0.028 6.47 3.85 11.69
1/5/2023 1:00:00 PM 9.12 48.416 0.028 6.49 3.86 11.68
1/5/2023 1:15:00 PM 9.13 48.434 0.029 6.5 3.87 11.67
1/5/2023 1:30:00 PM 9.14 48.452 0.029 6.49 3.85 11.66
1/5/2023 1:45:00 PM 9.16 48.488 0.029 6.51 3.98 11.64
1/5/2023 2:00:00 PM 9.18 48.524 0.029 6.48 3.82 11.62
1/5/2023 2:15:00 PM 9.2 48.56 0.029 6.5 3.82 11.61
1/5/2023 2:30:00 PM 9.2 48.56 0.029 6.49 3.73 11.59
1/5/2023 2:45:00 PM 9.2 48.56 0.029 6.48 3.83 11.56
1/5/2023 3:00:00 PM 9.2 48.56 0.029 6.5 3.73 11.56
1/5/2023 3:15:00 PM 9.2 48.56 0.029 6.49 3.81 11.54
1/5/2023 3:30:00 PM 9.2 48.56 0.029 6.49 3.9 11.53
1/5/2023 3:45:00 PM 9.22 48.596 0.029 6.51 3.71 11.53
1/5/2023 4:00:00 PM 9.23 48.614 0.029 6.49 3.67 11.52
1/5/2023 4:15:00 PM 9.23 48.614 0.029 6.48 3.77 11.49
1/5/2023 4:30:00 PM 9.23 48.614 0.029 6.47 3.7 11.47
1/5/2023 4:45:00 PM 9.22 48.596 0.029 6.48 3.85 11.45
1/5/2023 5:00:00 PM 9.2 48.56 0.029 6.46 3.79 11.43
1/5/2023 5:15:00 PM 9.17 48.506 0.029 6.49 3.9 11.43
1/5/2023 5:30:00 PM 9.14 48.452 0.029 6.46 4.03 11.43
1/5/2023 5:45:00 PM 9.11 48.398 0.029 6.45 3.67 11.42
1/5/2023 6:00:00 PM 9.07 48.326 0.029 6.43 3.81 11.44
1/5/2023 6:15:00 PM 9.04 48.272 0.029 6.43 3.93 11.43
1/5/2023 6:30:00 PM 9.01 48.218 0.029 6.48 3.78 11.44
1/5/2023 6:45:00 PM 8.97 48.146 0.029 6.43 3.97 11.45
1/5/2023 7:00:00 PM 8.92 48.056 0.029 6.41 4.02 11.46
1/5/2023 7:15:00 PM 8.89 48.002 0.029 6.42 3.86 11.47
1/5/2023 7:30:00 PM 8.85 47.93 0.029 6.42 3.73 11.48
1/5/2023 7:45:00 PM 8.82 47.876 0.03 6.41 3.64 11.48
1/5/2023 8:00:00 PM 8.79 47.822 0.029 6.4 3.77 11.49
1/5/2023 8:15:00 PM 8.76 47.768 0.03 6.39 3.88 11.5
1/5/2023 8:30:00 PM 8.74 47.732 0.029 6.44 3.73 11.51
1/5/2023 8:45:00 PM 8.73 47.714 0.029 6.39 3.8 11.51
1/5/2023 9:00:00 PM 8.7 47.66 0.029 6.37 3.76 11.52
1/5/2023 9:15:00 PM 8.68 47.624 0.029 6.39 3.81 11.53
1/5/2023 9:30:00 PM 8.67 47.606 0.029 6.43 3.78 11.54
1/5/2023 9:45:00 PM 8.66 47.588 0.029 6.41 3.92 11.54
1/5/2023 10:00:00 PM 8.64 47.552 0.03 6.41 3.65 11.55
1/5/2023 10:15:00 PM 8.63 47.534 0.029 6.39 3.66 11.54
1/5/2023 10:30:00 PM 8.62 47.516 0.029 6.41 3.7 11.55
1/5/2023 10:45:00 PM 8.6 47.48 0.03 6.39 3.7 11.55
1/5/2023 11:00:00 PM 8.59 47.462 0.03 6.37 3.76 11.57
1/5/2023 11:15:00 PM 8.58 47.444 0.03 6.38 3.74 11.57
1/5/2023 11:30:00 PM 8.57 47.426 0.029 6.4 3.84 11.57
1/5/2023 11:45:00 PM 8.56 47.408 0.03 6.39 3.88 11.56
1/6/2023 12:00:00 AM 8.55 47.39 0.03 6.39 3.56 11.57
1/6/2023 12:15:00 AM 8.55 47.39 0.03 6.39 3.56 11.57
1/6/2023 12:30:00 AM 8.54 47.372 0.03 6.4 3.7 11.57
1/6/2023 12:45:00 AM 8.53 47.354 0.03 6.39 3.6 11.57
1/6/2023 1:00:00 AM 8.53 47.354 0.03 6.39 3.59 11.57
1/6/2023 1:15:00 AM 8.52 47.336 0.03 6.39 3.64 11.57
1/6/2023 1:30:00 AM 8.52 47.336 0.03 6.43 3.62 11.58
1/6/2023 1:45:00 AM 8.5 47.3 0.03 6.39 3.57 11.58
1/6/2023 2:00:00 AM 8.48 47.264 0.03 6.39 3.66 11.58
1/6/2023 2:15:00 AM 8.47 47.246 0.03 6.4 3.73 11.58
1/6/2023 2:30:00 AM 8.44 47.192 0.03 6.4 3.76 11.59
1/6/2023 2:45:00 AM 8.43 47.174 0.03 6.41 3.57 11.59
1/6/2023 3:00:00 AM 8.41 47.138 0.03 6.38 3.52 11.59
1/6/2023 3:15:00 AM 8.39 47.102 0.03 6.4 3.86 11.6
1/6/2023 3:30:00 AM 8.37 47.066 0.03 6.41 3.54 11.6
1/6/2023 3:45:00 AM 8.36 47.048 0.03 6.41 3.61 11.61
1/6/2023 4:00:00 AM 8.34 47.012 0.03 6.41 3.37 11.61
1/6/2023 4:15:00 AM 8.32 46.976 0.03 6.4 3.84 11.61
1/6/2023 4:30:00 AM 8.31 46.958 0.03 6.43 3.48 11.62
1/6/2023 4:45:00 AM 8.29 46.922 0.03 6.38 3.63 11.62
1/6/2023 5:00:00 AM 8.28 46.904 0.03 6.41 3.74 11.61
1/6/2023 5:15:00 AM 8.26 46.868 0.03 6.41 3.57 11.63
1/6/2023 5:30:00 AM 8.25 46.85 0.03 6.43 3.57 11.63
1/6/2023 5:45:00 AM 8.23 46.814 0.03 6.41 3.43 11.63
1/6/2023 6:00:00 AM 8.21 46.778 0.03 6.38 3.51 11.64
1/6/2023 6:15:00 AM 8.2 46.76 0.03 6.4 3.59 11.64
1/6/2023 6:30:00 AM 8.19 46.742 0.03 6.43 3.49 11.64
1/6/2023 6:45:00 AM 8.18 46.724 0.03 6.4 3.55 11.64
1/6/2023 7:00:00 AM 8.17 46.706 0.03 6.37 3.46 11.65
1/6/2023 7:15:00 AM 8.16 46.688 0.03 6.39 3.58 11.65
1/6/2023 7:30:00 AM 8.15 46.67 0.03 6.39 3.62 11.67
1/6/2023 7:45:00 AM 8.14 46.652 0.03 6.39 3.58 11.68
1/6/2023 8:00:00 AM 8.14 46.652 0.03 6.4 3.57 11.69
1/6/2023 8:15:00 AM 8.14 46.652 0.03 6.41 3.51 11.71
1/6/2023 8:30:00 AM 8.13 46.634 0.03 6.42 3.64 11.73
1/6/2023 8:45:00 AM 8.14 46.652 0.03 6.42 3.47 11.76
1/6/2023 9:00:00 AM 8.15 46.67 0.03 6.41 3.48 11.78
1/6/2023 9:15:00 AM 8.16 46.688 0.03 6.45 3.45 11.8
1/6/2023 9:30:00 AM 8.18 46.724 0.03 6.45 3.59 11.82
1/6/2023 9:45:00 AM 8.2 46.76 0.03 6.46 3.57 11.83
1/6/2023 10:00:00 AM 8.22 46.796 0.03 6.47 3.53 11.85
1/6/2023 10:15:00 AM 8.24 46.832 0.03 6.49 3.58 11.84
1/6/2023 10:30:00 AM 8.25 46.85 0.03 6.47 3.36 11.82
1/6/2023 10:45:00 AM 8.27 46.886 0.03 6.53 3.39 11.82
1/6/2023 11:00:00 AM 8.29 46.922 0.03 6.5 3.28 11.83
1/6/2023 11:15:00 AM 8.31 46.958 0.03 6.52 3.3 11.83
1/6/2023 11:30:00 AM 8.33 46.994 0.03 6.51 3.41 11.85
1/6/2023 11:45:00 AM 8.34 47.012 0.03 6.53 3.46 11.85
1/6/2023 12:00:00 PM 8.37 47.066 0.03 6.56 3.5 11.85
1/6/2023 12:15:00 PM 8.38 47.084 0.03 6.54 3.49 11.85
1/6/2023 12:30:00 PM 8.4 47.12 0.03 6.55 3.43 11.85
1/6/2023 12:45:00 PM 8.41 47.138 0.03 6.55 3.47 11.83
1/6/2023 1:00:00 PM 8.43 47.174 0.03 6.54 3.58 11.83
1/6/2023 1:15:00 PM 8.46 47.228 0.03 6.59 3.44 11.85
1/6/2023 1:30:00 PM 8.47 47.246 0.03 6.56 3.6 11.84
1/6/2023 1:45:00 PM 8.48 47.264 0.03 6.56 3.39 11.83
1/6/2023 2:00:00 PM 8.5 47.3 0.03 6.56 3.32 11.83
1/6/2023 2:15:00 PM 8.5 47.3 0.03 6.53 3.43 11.83
1/6/2023 2:30:00 PM 8.52 47.336 0.03 6.61 3.28 11.83
1/6/2023 2:45:00 PM 8.51 47.318 0.03 6.58 3.48 11.79
1/6/2023 3:00:00 PM 8.5 47.3 0.03 6.57 3.47 11.79
1/6/2023 3:15:00 PM 8.5 47.3 0.03 6.6 3.35 11.8
1/6/2023 3:30:00 PM 8.49 47.282 0.03 6.57 3.35 11.79
1/6/2023 3:45:00 PM 8.48 47.264 0.03 6.56 3.38 11.79
1/6/2023 4:00:00 PM 8.47 47.246 0.03 6.55 3.4 11.79
1/6/2023 4:15:00 PM 8.45 47.21 0.03 6.53 3.39 11.77
1/6/2023 4:30:00 PM 8.43 47.174 0.03 6.53 3.41 11.75
1/6/2023 4:45:00 PM 8.41 47.138 0.03 6.52 3.38 11.73
1/6/2023 5:00:00 PM 8.38 47.084 0.03 6.54 3.77 11.7
1/6/2023 5:15:00 PM 8.36 47.048 0.031 6.49 3.52 11.68
1/6/2023 5:30:00 PM 8.34 47.012 0.031 6.49 3.43 11.68
1/6/2023 5:45:00 PM 8.32 46.976 0.03 6.5 3.62 11.67
1/6/2023 6:00:00 PM 8.29 46.922 0.031 6.5 3.41 11.68
1/6/2023 6:15:00 PM 8.28 46.904 0.031 6.49 3.41 11.68
1/6/2023 6:30:00 PM 8.26 46.868 0.031 6.48 3.56 11.68
1/6/2023 6:45:00 PM 8.24 46.832 0.031 6.43 3.48 11.69
1/6/2023 7:00:00 PM 8.22 46.796 0.031 6.46 3.54 11.69
1/6/2023 7:15:00 PM 8.2 46.76 0.031 6.45 3.46 11.69
1/6/2023 7:30:00 PM 8.18 46.724 0.031 6.44 3.55 11.7
1/6/2023 7:45:00 PM 8.17 46.706 0.031 6.47 3.39 11.71
1/6/2023 8:00:00 PM 8.15 46.67 0.031 6.49 3.51 11.71
1/6/2023 8:15:00 PM 8.14 46.652 0.031 6.44 3.51 11.72
1/6/2023 8:30:00 PM 8.11 46.598 0.031 6.44 3.46 11.73
1/6/2023 8:45:00 PM 8.09 46.562 0.031 6.43 3.48 11.73
1/6/2023 9:00:00 PM 8.07 46.526 0.031 6.47 3.52 11.75
1/6/2023 9:15:00 PM 8.05 46.49 0.031 6.44 3.56 11.75
1/6/2023 9:30:00 PM 8.03 46.454 0.031 6.43 3.64 11.76
1/6/2023 9:45:00 PM 8.01 46.418 0.031 6.42 3.56 11.77
1/6/2023 10:00:00 PM 7.99 46.382 0.031 6.44 3.31 11.77
1/6/2023 10:15:00 PM 7.98 46.364 0.031 6.42 3.52 11.78
1/6/2023 10:30:00 PM 7.96 46.328 0.031 6.43 3.31 11.79
1/6/2023 10:45:00 PM 7.95 46.31 0.031 6.48 3.28 11.79
1/6/2023 11:00:00 PM 7.93 46.274 0.031 6.44 3.32 11.79
1/6/2023 11:15:00 PM 7.92 46.256 0.031 6.44 3.41 11.79
1/6/2023 11:30:00 PM 7.91 46.238 0.031 6.44 3.33 11.8
1/6/2023 11:45:00 PM 7.89 46.202 0.031 6.43 3.32 11.81
1/7/2023 12:00:00 AM 7.88 46.184 0.031 6.42 3.44 11.8
1/7/2023 12:15:00 AM 7.86 46.148 0.031 6.48 3.31 11.81
1/7/2023 12:30:00 AM 7.85 46.13 0.031 6.45 3.34 11.81
1/7/2023 12:45:00 AM 7.83 46.094 0.031 6.45 3.3 11.82
1/7/2023 1:00:00 AM 7.82 46.076 0.031 6.45 3.42 11.82
1/7/2023 1:15:00 AM 7.81 46.058 0.031 6.44 3.39 11.82
1/7/2023 1:30:00 AM 7.8 46.04 0.031 6.44 3.17 11.81
1/7/2023 1:45:00 AM 7.79 46.022 0.031 6.44 3.21 11.82
1/7/2023 2:00:00 AM 7.78 46.004 0.031 6.43 3.16 11.82
1/7/2023 2:15:00 AM 7.77 45.986 0.031 6.46 3.27 11.82
1/7/2023 2:30:00 AM 7.76 45.968 0.031 6.43 3.2 11.83
1/7/2023 2:45:00 AM 7.74 45.932 0.031 6.45 3.3 11.83
1/7/2023 3:00:00 AM 7.74 45.932 0.031 6.47 3.26 11.83
1/7/2023 3:15:00 AM 7.73 45.914 0.031 6.46 3.42 11.83
1/7/2023 3:30:00 AM 7.72 45.896 0.031 6.47 3.33 11.83
1/7/2023 3:45:00 AM 7.7 45.86 0.031 6.39 3.24 11.84
1/7/2023 4:00:00 AM 7.69 45.842 0.031 6.44 3.25 11.84
1/7/2023 4:15:00 AM 7.69 45.842 0.031 6.41 3.21 11.84
1/7/2023 4:30:00 AM 7.68 45.824 0.031 6.47 3.18 11.84
1/7/2023 4:45:00 AM 7.67 45.806 0.031 6.49 3.27 11.85
1/7/2023 5:00:00 AM 7.66 45.788 0.031 6.47 3.3 11.85
1/7/2023 5:15:00 AM 7.65 45.77 0.031 6.49 3.35 11.85
1/7/2023 5:30:00 AM 7.64 45.752 0.031 6.5 3.26 11.85
1/7/2023 5:45:00 AM 7.63 45.734 0.031 6.47 3.33 11.86
1/7/2023 6:00:00 AM 7.63 45.734 0.031 6.47 3.33 11.86
1/7/2023 6:15:00 AM 7.62 45.716 0.031 6.49 3.37 11.86
1/7/2023 6:30:00 AM 7.62 45.716 0.031 6.48 3.13 11.86
1/7/2023 6:45:00 AM 7.61 45.698 0.031 6.48 3.29 11.87
1/7/2023 7:00:00 AM 7.6 45.68 0.031 6.48 3.18 11.87
1/7/2023 7:15:00 AM 7.6 45.68 0.031 6.47 3.21 11.87
1/7/2023 7:30:00 AM 7.59 45.662 0.031 6.5 3.21 11.88
1/7/2023 7:45:00 AM 7.59 45.662 0.031 6.5 3.09 11.88
1/7/2023 8:00:00 AM 7.58 45.644 0.031 6.51 3.16 11.89
1/7/2023 8:15:00 AM 7.57 45.626 0.031 6.49 3.23 11.9
1/7/2023 8:30:00 AM 7.57 45.626 0.031 6.52 3.27 11.92
1/7/2023 8:45:00 AM 7.57 45.626 0.031 6.5 3.15 11.95
1/7/2023 9:00:00 AM 7.58 45.644 0.031 6.52 3.29 11.98
1/7/2023 9:15:00 AM 7.58 45.644 0.031 6.52 3.22 12.01
1/7/2023 9:30:00 AM 7.6 45.68 0.031 6.53 3.23 12.02
1/7/2023 9:45:00 AM 7.61 45.698 0.031 6.51 3.26 12.06
1/7/2023 10:00:00 AM 7.64 45.752 0.031 6.54 3.12 12.08
1/7/2023 10:15:00 AM 7.68 45.824 0.031 6.56 3.17 12.1
1/7/2023 10:30:00 AM 7.72 45.896 0.031 6.52 3.17 12.12
1/7/2023 10:45:00 AM 7.75 45.95 0.031 6.6 3.37 12.12
1/7/2023 11:00:00 AM 7.79 46.022 0.031 6.57 3.31 12.12
1/7/2023 11:15:00 AM 7.81 46.058 0.031 6.57 3.19 12.11
1/7/2023 11:30:00 AM 7.84 46.112 0.031 6.56 3.14 12.11
1/7/2023 11:45:00 AM 7.87 46.166 0.031 6.63 3.19 12.09
1/7/2023 12:00:00 PM 7.88 46.184 0.031 6.59 3.21 12.09
1/7/2023 12:15:00 PM 7.89 46.202 0.031 6.6 3.12 12.08
1/7/2023 12:30:00 PM 7.9 46.22 0.031 6.57 3.17 12.07
1/7/2023 12:45:00 PM 7.9 46.22 0.031 6.57 3.22 12.07
1/7/2023 1:00:00 PM 7.89 46.202 0.031 6.53 3.15 12.05
1/7/2023 1:15:00 PM 7.91 46.238 0.031 6.55 3.28 12.07
1/7/2023 1:30:00 PM 7.92 46.256 0.031 6.64 3.02 12.06
1/7/2023 1:45:00 PM 7.93 46.274 0.031 6.56 3.25 12.06
1/7/2023 2:00:00 PM 7.95 46.31 0.031 6.54 3.22 12.07
1/7/2023 2:15:00 PM 7.95 46.31 0.031 6.57 3.16 12.03
1/7/2023 2:30:00 PM 7.93 46.274 0.031 6.55 3.22 12
1/7/2023 2:45:00 PM 7.94 46.292 0.031 6.62 3.11 12.02
1/7/2023 3:00:00 PM 7.95 46.31 0.031 6.57 3.15 12.03
1/7/2023 3:15:00 PM 7.96 46.328 0.031 6.63 3.28 12.02
1/7/2023 3:30:00 PM 7.95 46.31 0.031 6.62 3.25 12
1/7/2023 3:45:00 PM 7.94 46.292 0.031 6.57 3.13 11.96
1/7/2023 4:00:00 PM 7.93 46.274 0.031 6.54 3.2 11.94
1/7/2023 4:15:00 PM 7.92 46.256 0.031 6.59 3.1 11.91
1/7/2023 4:30:00 PM 7.91 46.238 0.031 6.55 3.32 11.89
1/7/2023 4:45:00 PM 7.9 46.22 0.032 6.52 3.2 11.88
1/7/2023 5:00:00 PM 7.89 46.202 0.032 6.53 3.23 11.86
1/7/2023 5:15:00 PM 7.88 46.184 0.032 6.49 3.16 11.85
1/7/2023 5:30:00 PM 7.86 46.148 0.032 6.52 3.28 11.84
1/7/2023 5:45:00 PM 7.85 46.13 0.032 6.48 3.26 11.84
1/7/2023 6:00:00 PM 7.84 46.112 0.032 6.5 3.27 11.83
1/7/2023 6:15:00 PM 7.83 46.094 0.032 6.48 3.2 11.84
1/7/2023 6:30:00 PM 7.82 46.076 0.032 6.49 3.04 11.84
1/7/2023 6:45:00 PM 7.8 46.04 0.032 6.48 3.17 11.84
1/7/2023 7:00:00 PM 7.79 46.022 0.032 6.48 3.17 11.85
1/7/2023 7:15:00 PM 7.78 46.004 0.032 6.49 3.23 11.86
1/7/2023 7:30:00 PM 7.77 45.986 0.032 6.54 3.14 11.86
1/7/2023 7:45:00 PM 7.76 45.968 0.032 6.5 3.28 11.87
1/7/2023 8:00:00 PM 7.74 45.932 0.032 6.48 3.32 11.87
1/7/2023 8:15:00 PM 7.72 45.896 0.032 6.48 3.15 11.88
1/7/2023 8:30:00 PM 7.71 45.878 0.032 6.46 3.2 11.88
1/7/2023 8:45:00 PM 7.69 45.842 0.032 6.45 3.47 11.89
1/7/2023 9:00:00 PM 7.67 45.806 0.032 6.46 3.45 11.89
1/7/2023 9:15:00 PM 7.66 45.788 0.032 6.49 3.29 11.89
1/7/2023 9:30:00 PM 7.65 45.77 0.032 6.48 3.27 11.9
1/7/2023 9:45:00 PM 7.64 45.752 0.032 6.46 3.14 11.89
1/7/2023 10:00:00 PM 7.63 45.734 0.032 6.46 3.31 11.91
1/7/2023 10:15:00 PM 7.62 45.716 0.032 6.45 3.04 11.9
1/7/2023 10:30:00 PM 7.61 45.698 0.032 6.49 3.1 11.91
1/7/2023 10:45:00 PM 7.59 45.662 0.032 6.43 3.29 11.91
1/7/2023 11:00:00 PM 7.59 45.662 0.032 6.52 3.1 11.91
1/7/2023 11:15:00 PM 7.56 45.608 0.032 6.46 3.33 11.92
1/7/2023 11:30:00 PM 7.55 45.59 0.032 6.48 3.15 11.94
1/7/2023 11:45:00 PM 7.53 45.554 0.032 6.46 3.15 11.93
1/8/2023 12:00:00 AM 7.51 45.518 0.032 6.46 3.11 11.94
1/8/2023 12:15:00 AM 7.5 45.5 0.032 6.46 3.25 11.95
1/8/2023 12:30:00 AM 7.48 45.464 0.032 6.46 3.12 11.94
1/8/2023 12:45:00 AM 7.47 45.446 0.032 6.45 3.22 11.95
1/8/2023 1:00:00 AM 7.46 45.428 0.032 6.41 3.23 11.98
1/8/2023 1:15:00 AM 7.45 45.41 0.032 6.46 3.04 11.97
1/8/2023 1:30:00 AM 7.43 45.374 0.032 6.45 3.18 11.98
1/8/2023 1:45:00 AM 7.42 45.356 0.032 6.47 3.11 11.97
1/8/2023 2:00:00 AM 7.4 45.32 0.032 6.46 3.27 11.98
1/8/2023 2:15:00 AM 7.37 45.266 0.032 6.49 3.24 11.99
1/8/2023 2:30:00 AM 7.36 45.248 0.032 6.47 3.06 11.99
1/8/2023 2:45:00 AM 7.35 45.23 0.032 6.47 3.23 11.99
1/8/2023 3:00:00 AM 7.33 45.194 0.032 6.51 3.05 12
1/8/2023 3:15:00 AM 7.32 45.176 0.032 6.48 3.28 12
1/8/2023 3:30:00 AM 7.3 45.14 0.032 6.48 3.29 12.01
1/8/2023 3:45:00 AM 7.29 45.122 0.032 6.46 3.29 12.01
1/8/2023 4:00:00 AM 7.28 45.104 0.032 6.5 3.12 12.02
1/8/2023 4:15:00 AM 7.26 45.068 0.032 6.49 3.18 12.03
1/8/2023 4:30:00 AM 7.24 45.032 0.032 6.49 3.24 12.03
1/8/2023 4:45:00 AM 7.22 44.996 0.032 6.49 3.25 12.04
1/8/2023 5:00:00 AM 7.2 44.96 0.032 6.53 3.26 12.03
1/8/2023 5:15:00 AM 7.18 44.924 0.032 6.49 3.21 12.04
1/8/2023 5:30:00 AM 7.16 44.888 0.032 6.47 3.15 12.04
1/8/2023 5:45:00 AM 7.14 44.852 0.032 6.46 3.23 12.05
1/8/2023 6:00:00 AM 7.12 44.816 0.032 6.47 3.05 12.05
1/8/2023 6:15:00 AM 7.09 44.762 0.032 6.49 3.11 12.06
1/8/2023 6:30:00 AM 7.06 44.708 0.032 6.46 3.29 12.06
1/8/2023 6:45:00 AM 7.03 44.654 0.032 6.45 3.25 12.08
1/8/2023 7:00:00 AM 7 44.6 0.032 6.47 3.05 12.08
1/8/2023 7:15:00 AM 6.98 44.564 0.032 6.46 3.12 12.09
1/8/2023 7:30:00 AM 6.96 44.528 0.032 6.52 3.02 12.11
1/8/2023 7:45:00 AM 6.93 44.474 0.032 6.47 3.32 12.12
1/8/2023 8:00:00 AM 6.91 44.438 0.032 6.48 3.09 12.16
1/8/2023 8:15:00 AM 6.89 44.402 0.032 6.49 3.2 12.2
1/8/2023 8:30:00 AM 6.87 44.366 0.032 6.54 3.09 12.24
1/8/2023 8:45:00 AM 6.84 44.312 0.032 6.5 3.17 12.27
1/8/2023 9:00:00 AM 6.83 44.294 0.032 6.5 3.01 12.3
1/8/2023 9:15:00 AM 6.83 44.294 0.032 6.5 3.08 12.34
1/8/2023 9:30:00 AM 6.83 44.294 0.032 6.49 3 12.36
1/8/2023 9:45:00 AM 6.84 44.312 0.032 6.47 3.11 12.38
1/8/2023 10:00:00 AM 6.83 44.294 0.032 6.51 3.17 12.38
1/8/2023 10:15:00 AM 6.85 44.33 0.032 6.55 3.06 12.38
1/8/2023 10:30:00 AM 6.85 44.33 0.032 6.55 3.08 12.37
1/8/2023 10:45:00 AM 6.88 44.384 0.032 6.55 3.05 12.37
1/8/2023 11:00:00 AM 6.92 44.456 0.032 6.55 3.06 12.37
1/8/2023 11:15:00 AM 6.96 44.528 0.032 6.51 3.01 12.36
1/8/2023 11:30:00 AM 7.01 44.618 0.032 6.64 3.02 12.35
1/8/2023 11:45:00 AM 7.06 44.708 0.032 6.61 2.92 12.35
1/8/2023 12:00:00 PM 7.11 44.798 0.032 6.64 2.98 12.34
1/8/2023 12:15:00 PM 7.14 44.852 0.032 6.6 3.08 12.33
1/8/2023 12:30:00 PM 7.17 44.906 0.032 6.61 2.93 12.33
1/8/2023 12:45:00 PM 7.2 44.96 0.032 6.61 3.01 12.33
1/8/2023 1:00:00 PM 7.21 44.978 0.032 6.62 2.91 12.32
1/8/2023 1:15:00 PM 7.16 44.888 0.032 6.62 2.86 12.3
1/8/2023 1:30:00 PM 7.16 44.888 0.032 6.62 3.03 12.3
1/8/2023 1:45:00 PM 7.16 44.888 0.032 6.61 3 12.29
1/8/2023 2:00:00 PM 7.14 44.852 0.032 6.57 3.02 12.29
1/8/2023 2:15:00 PM 7.12 44.816 0.032 6.59 3.04 12.29
1/8/2023 2:30:00 PM 7.1 44.78 0.032 6.56 3.09 12.29
1/8/2023 2:45:00 PM 7.1 44.78 0.032 6.64 3.01 12.28
1/8/2023 3:00:00 PM 7.07 44.726 0.032 6.58 2.92 12.25
1/8/2023 3:15:00 PM 7.07 44.726 0.032 6.6 3.01 12.24
1/8/2023 3:30:00 PM 7.07 44.726 0.033 6.54 3.28 12.23
1/8/2023 3:45:00 PM 7.08 44.744 0.032 6.65 3.22 12.21
1/8/2023 4:00:00 PM 7.07 44.726 0.032 6.58 3.24 12.19
1/8/2023 4:15:00 PM 7.07 44.726 0.033 6.57 3.21 12.17
1/8/2023 4:30:00 PM 7.06 44.708 0.033 6.53 3.26 12.16
1/8/2023 4:45:00 PM 7.05 44.69 0.033 6.56 3.13 12.13
1/8/2023 5:00:00 PM 7.03 44.654 0.033 6.52 3.07 12.1
1/8/2023 5:15:00 PM 7.01 44.618 0.033 6.55 3.28 12.08
1/8/2023 5:30:00 PM 6.99 44.582 0.033 6.55 3.28 12.06
1/8/2023 5:45:00 PM 6.96 44.528 0.033 6.53 3.16 12.06
1/8/2023 6:00:00 PM 6.94 44.492 0.033 6.53 3.05 12.05
1/8/2023 6:15:00 PM 6.92 44.456 0.033 6.48 3.06 12.06
1/8/2023 6:30:00 PM 6.9 44.42 0.033 6.52 3.04 12.06
1/8/2023 6:45:00 PM 6.87 44.366 0.033 6.51 3.13 12.07
1/8/2023 7:00:00 PM 6.84 44.312 0.033 6.51 3.03 12.07
1/8/2023 7:15:00 PM 6.82 44.276 0.033 6.51 2.86 12.08
1/8/2023 7:30:00 PM 6.79 44.222 0.033 6.49 3.11 12.08
1/8/2023 7:45:00 PM 6.77 44.186 0.033 6.5 3.2 12.09
1/8/2023 8:00:00 PM 6.74 44.132 0.033 6.53 3.17 12.09
1/8/2023 8:15:00 PM 6.71 44.078 0.033 6.51 3.2 12.09
1/8/2023 8:30:00 PM 6.68 44.024 0.033 6.5 3.11 12.1
1/8/2023 8:45:00 PM 6.65 43.97 0.033 6.49 3.07 12.11
1/8/2023 9:00:00 PM 6.62 43.916 0.033 6.48 3.14 12.11
1/8/2023 9:15:00 PM 6.6 43.88 0.033 6.47 3.03 12.12
1/8/2023 9:30:00 PM 6.57 43.826 0.033 6.51 3.08 12.12
1/8/2023 9:45:00 PM 6.54 43.772 0.033 6.5 3.1 12.13
1/8/2023 10:00:00 PM 6.51 43.718 0.033 6.54 3.17 12.13
1/8/2023 10:15:00 PM 6.49 43.682 0.033 6.46 3.17 12.13
1/8/2023 10:30:00 PM 6.45 43.61 0.033 6.48 3.09 12.15
1/8/2023 10:45:00 PM 6.42 43.556 0.033 6.41 3.13 12.15
1/8/2023 11:00:00 PM 6.41 43.538 0.033 6.41 3.01 12.16
1/8/2023 11:15:00 PM 6.4 43.52 0.033 6.44 3.08 12.17
1/8/2023 11:30:00 PM 6.4 43.52 0.033 6.48 3.11 12.18
1/8/2023 11:45:00 PM 6.39 43.502 0.033 6.42 2.98 12.17
1/9/2023 12:00:00 AM 6.39 43.502 0.033 6.43 3.17 12.17
1/9/2023 12:15:00 AM 6.39 43.502 0.033 6.53 3.21 12.18
1/9/2023 12:30:00 AM 6.39 43.502 0.033 6.51 3 12.17
1/9/2023 12:45:00 AM 6.4 43.52 0.033 6.45 3.2 12.17
1/9/2023 1:00:00 AM 6.39 43.502 0.033 6.46 3.02 12.16
1/9/2023 1:15:00 AM 6.39 43.502 0.033 6.49 3.03 12.18
1/9/2023 1:30:00 AM 6.4 43.52 0.033 6.56 3.05 12.17
1/9/2023 1:45:00 AM 6.39 43.502 0.033 6.53 3.27 12.17
1/9/2023 2:00:00 AM 6.39 43.502 0.033 6.52 3.21 12.16
1/9/2023 2:15:00 AM 6.39 43.502 0.033 6.49 3.19 12.16
1/9/2023 2:30:00 AM 6.39 43.502 0.033 6.47 3.01 12.16
1/9/2023 2:45:00 AM 6.39 43.502 0.033 6.47 3.03 12.16
1/9/2023 3:00:00 AM 6.39 43.502 0.033 6.48 3.14 12.17
1/9/2023 3:15:00 AM 6.39 43.502 0.033 6.51 3.03 12.16
1/9/2023 3:30:00 AM 6.39 43.502 0.033 6.51 3.1 12.16
1/9/2023 3:45:00 AM 6.39 43.502 0.033 6.57 3.01 12.16
1/9/2023 4:00:00 AM 6.38 43.484 0.033 6.57 2.89 12.16
1/9/2023 4:15:00 AM 6.39 43.502 0.033 6.51 2.89 12.15
1/9/2023 4:30:00 AM 6.39 43.502 0.033 6.52 3.06 12.14
1/9/2023 4:45:00 AM 6.39 43.502 0.033 6.53 3.01 12.15
1/9/2023 5:00:00 AM 6.39 43.502 0.033 6.51 3.1 12.15
1/9/2023 5:15:00 AM 6.39 43.502 0.033 6.5 3.07 12.15
1/9/2023 5:30:00 AM 6.37 43.466 0.033 6.47 3.01 12.14
1/9/2023 5:45:00 AM 6.36 43.448 0.033 6.56 2.94 12.15
1/9/2023 6:00:00 AM 6.33 43.394 0.033 6.48 2.91 12.15
1/9/2023 6:15:00 AM 6.32 43.376 0.034 6.51 2.91 12.15
1/9/2023 6:30:00 AM 6.3 43.34 0.033 6.51 3.09 12.16
1/9/2023 6:45:00 AM 6.27 43.286 0.033 6.51 2.91 12.16
1/9/2023 7:00:00 AM 6.25 43.25 0.033 6.51 2.92 12.17
1/9/2023 7:15:00 AM 6.23 43.214 0.033 6.5 3.03 12.17
1/9/2023 7:30:00 AM 6.21 43.178 0.034 6.49 2.91 12.18
1/9/2023 7:45:00 AM 6.19 43.142 0.033 6.49 2.96 12.21
1/9/2023 8:00:00 AM 6.18 43.124 0.033 6.45 2.9 12.23
1/9/2023 8:15:00 AM 6.18 43.124 0.033 6.54 3.07 12.25
1/9/2023 8:30:00 AM 6.19 43.142 0.033 6.5 2.98 12.28
1/9/2023 8:45:00 AM 6.2 43.16 0.033 6.5 3.04 12.32
1/9/2023 9:00:00 AM 6.22 43.196 0.033 6.55 3.05 12.36
1/9/2023 9:15:00 AM 6.24 43.232 0.033 6.56 2.92 12.39
1/9/2023 9:30:00 AM 6.27 43.286 0.033 6.57 3.02 12.41
1/9/2023 9:45:00 AM 6.3 43.34 0.033 6.61 3 12.42
1/9/2023 10:00:00 AM 6.33 43.394 0.033 6.59 3.04 12.44
1/9/2023 10:15:00 AM 6.36 43.448 0.033 6.61 3.08 12.43
1/9/2023 10:30:00 AM 6.38 43.484 0.033 6.57 3.02 12.42
1/9/2023 10:45:00 AM 6.41 43.538 0.033 6.61 2.99 12.43
1/9/2023 11:00:00 AM 6.44 43.592 0.033 6.67 2.91 12.42
1/9/2023 11:15:00 AM 6.47 43.646 0.033 6.67 3.01 12.42
1/9/2023 11:30:00 AM 6.51 43.718 0.033 6.63 2.89 12.43
1/9/2023 11:45:00 AM 6.58 43.844 0.033 6.62 2.99 12.42
1/9/2023 12:00:00 PM 6.69 44.042 0.033 6.6 2.83 12.41
1/9/2023 12:15:00 PM 6.76 44.168 0.033 6.66 2.86 12.4
1/9/2023 12:30:00 PM 6.79 44.222 0.033 6.63 2.86 12.38
1/9/2023 12:45:00 PM 6.88 44.384 0.033 6.66 2.86 12.35
1/9/2023 1:00:00 PM 6.96 44.528 0.033 6.62 2.92 12.32
1/9/2023 1:15:00 PM 7.01 44.618 0.033 6.66 2.86 12.29
1/9/2023 1:30:00 PM 7.03 44.654 0.033 6.67 2.93 12.27
1/9/2023 1:45:00 PM 7.03 44.654 0.033 6.67 2.92 12.27
1/9/2023 2:00:00 PM 7.02 44.636 0.033 6.68 2.89 12.26
1/9/2023 2:15:00 PM 7.01 44.618 0.033 6.67 3.01 12.25
1/9/2023 2:30:00 PM 7 44.6 0.033 6.68 2.87 12.24
1/9/2023 2:45:00 PM 6.99 44.582 0.033 6.62 3.12 12.24
1/9/2023 3:00:00 PM 6.98 44.564 0.033 6.66 2.79 12.23
1/9/2023 3:15:00 PM 6.96 44.528 0.033 6.66 3.04 12.22
1/9/2023 3:30:00 PM 6.95 44.51 0.033 6.65 2.97 12.22
1/9/2023 3:45:00 PM 6.94 44.492 0.033 6.65 2.85 12.2
1/9/2023 4:00:00 PM 6.93 44.474 0.034 6.66 3.03 12.18
1/9/2023 4:15:00 PM 6.92 44.456 0.034 6.66 2.97 12.16
1/9/2023 4:30:00 PM 6.91 44.438 0.034 6.63 3.1 12.13
1/9/2023 4:45:00 PM 6.89 44.402 0.034 6.61 3.01 12.11
1/9/2023 5:00:00 PM 6.87 44.366 0.034 6.6 3.09 12.08
1/9/2023 5:15:00 PM 6.85 44.33 0.034 6.58 2.94 12.05
1/9/2023 5:30:00 PM 6.83 44.294 0.034 6.55 2.84 12.04
1/9/2023 5:45:00 PM 6.8 44.24 0.034 6.59 3.05 12.04
1/9/2023 6:00:00 PM 6.78 44.204 0.034 6.58 3.04 12.03
1/9/2023 6:15:00 PM 6.75 44.15 0.034 6.57 2.99 12.03
1/9/2023 6:30:00 PM 6.72 44.096 0.034 6.51 3.08 12.03
1/9/2023 6:45:00 PM 6.69 44.042 0.034 6.57 3.16 12.03
1/9/2023 7:00:00 PM 6.67 44.006 0.034 6.61 3.09 12.04
1/9/2023 7:15:00 PM 6.64 43.952 0.034 6.57 3.01 12.04
1/9/2023 7:30:00 PM 6.62 43.916 0.034 6.54 2.98 12.05
1/9/2023 7:45:00 PM 6.59 43.862 0.034 6.59 3.01 12.05
1/9/2023 8:00:00 PM 6.56 43.808 0.034 6.54 3.18 12.06
1/9/2023 8:15:00 PM 6.53 43.754 0.034 6.55 2.92 12.06
1/9/2023 8:30:00 PM 6.5 43.7 0.034 6.54 3.07 12.07
1/9/2023 8:45:00 PM 6.47 43.646 0.035 6.47 3.04 12.08
1/9/2023 9:00:00 PM 6.44 43.592 0.035 6.56 2.96 12.1
1/9/2023 9:15:00 PM 6.42 43.556 0.035 6.55 2.91 12.11
1/9/2023 9:30:00 PM 6.4 43.52 0.035 6.49 2.94 12.12
1/9/2023 9:45:00 PM 6.39 43.502 0.034 6.52 3.07 12.14
1/9/2023 10:00:00 PM 6.36 43.448 0.035 6.53 3.01 12.15
1/9/2023 10:15:00 PM 6.35 43.43 0.034 6.52 3.06 12.15
1/9/2023 10:30:00 PM 6.33 43.394 0.035 6.51 2.92 12.15
1/9/2023 10:45:00 PM 6.31 43.358 0.035 6.53 3.13 12.16
1/9/2023 11:00:00 PM 6.31 43.358 0.035 6.52 3.18 12.17
1/9/2023 11:15:00 PM 6.31 43.358 0.034 6.57 3.12 12.18
1/9/2023 11:30:00 PM 6.29 43.322 0.034 6.52 3.22 12.18
1/9/2023 11:45:00 PM 6.29 43.322 0.034 6.51 3.1 12.18
1/10/2023 12:00:00 AM 6.28 43.304 0.034 6.52 2.93 12.19
1/10/2023 12:15:00 AM 6.27 43.286 0.034 6.5 2.97 12.18
1/10/2023 12:30:00 AM 6.26 43.268 0.034 6.5 3.02 12.19
1/10/2023 12:45:00 AM 6.26 43.268 0.034 6.54 2.91 12.19
1/10/2023 1:00:00 AM 6.25 43.25 0.034 6.5 3.01 12.19
1/10/2023 1:15:00 AM 6.25 43.25 0.034 6.54 2.97 12.2
1/10/2023 1:30:00 AM 6.25 43.25 0.034 6.52 3.05 12.2
1/10/2023 1:45:00 AM 6.25 43.25 0.034 6.54 3.03 12.2
1/10/2023 2:00:00 AM 6.25 43.25 0.034 6.5 2.98 12.21
1/10/2023 2:15:00 AM 6.25 43.25 0.034 6.56 2.99 12.19
1/10/2023 2:30:00 AM 6.25 43.25 0.034 6.55 2.98 12.2
1/10/2023 2:45:00 AM 6.25 43.25 0.034 6.55 2.9 12.2
1/10/2023 3:00:00 AM 6.25 43.25 0.034 6.55 2.84 12.2
1/10/2023 3:15:00 AM 6.26 43.268 0.034 6.55 2.92 12.2
1/10/2023 3:30:00 AM 6.26 43.268 0.034 6.49 3 12.19
1/10/2023 3:45:00 AM 6.27 43.286 0.034 6.55 2.91 12.2
1/10/2023 4:00:00 AM 6.28 43.304 0.034 6.58 2.94 12.2
1/10/2023 4:15:00 AM 6.29 43.322 0.034 6.52 2.98 12.2
1/10/2023 4:30:00 AM 6.3 43.34 0.034 6.56 2.91 12.2
1/10/2023 4:45:00 AM 6.31 43.358 0.034 6.52 3.02 12.19
1/10/2023 5:00:00 AM 6.32 43.376 0.034 6.57 3.01 12.18
1/10/2023 5:15:00 AM 6.34 43.412 0.034 6.58 3.07 12.17
1/10/2023 5:30:00 AM 6.35 43.43 0.034 6.56 3.03 12.17
1/10/2023 5:45:00 AM 6.36 43.448 0.034 6.58 3.03 12.17
1/10/2023 6:00:00 AM 6.37 43.466 0.034 6.58 3.05 12.16
1/10/2023 6:15:00 AM 6.39 43.502 0.034 6.54 2.87 12.16
1/10/2023 6:30:00 AM 6.4 43.52 0.034 6.59 2.94 12.15
1/10/2023 6:45:00 AM 6.41 43.538 0.034 6.6 3.01 12.16
1/10/2023 7:00:00 AM 6.42 43.556 0.034 6.59 2.9 12.15
1/10/2023 7:15:00 AM 6.44 43.592 0.034 6.56 3.01 12.15
1/10/2023 7:30:00 AM 6.45 43.61 0.034 6.6 2.86 12.14
1/10/2023 7:45:00 AM 6.46 43.628 0.034 6.58 2.94 12.14
1/10/2023 8:00:00 AM 6.47 43.646 0.034 6.61 2.85 12.16
1/10/2023 8:15:00 AM 6.48 43.664 0.034 6.6 2.93 12.18
1/10/2023 8:30:00 AM 6.5 43.7 0.034 6.6 2.89 12.21
1/10/2023 8:45:00 AM 6.52 43.736 0.034 6.65 2.89 12.24
1/10/2023 9:00:00 AM 6.53 43.754 0.034 6.6 2.9 12.26
1/10/2023 9:15:00 AM 6.56 43.808 0.034 6.63 2.92 12.28
1/10/2023 9:30:00 AM 6.58 43.844 0.034 6.67 2.93 12.31
1/10/2023 9:45:00 AM 6.6 43.88 0.034 6.61 2.91 12.32
1/10/2023 10:00:00 AM 6.61 43.898 0.034 6.65 2.85 12.32
1/10/2023 10:15:00 AM 6.63 43.934 0.034 6.61 2.44 12.32
1/10/2023 10:30:00 AM 6.65 43.97 0.034 6.65 3.15 12.33
1/10/2023 10:45:00 AM 6.67 44.006 0.034 6.65 2.84 12.33
1/10/2023 11:00:00 AM 6.69 44.042 0.034 6.66 2.91 12.34
1/10/2023 11:15:00 AM 6.71 44.078 0.034 6.67 2.96 12.34
1/10/2023 11:30:00 AM 6.73 44.114 0.034 6.68 2.88 12.33
1/10/2023 11:45:00 AM 6.74 44.132 0.034 6.67 2.93 12.32
1/10/2023 12:00:00 PM 6.76 44.168 0.034 6.67 2.98 12.33
1/10/2023 12:15:00 PM 6.79 44.222 0.034 6.68 2.8 12.34
1/10/2023 12:30:00 PM 6.8 44.24 0.034 6.68 3 12.33
1/10/2023 12:45:00 PM 6.82 44.276 0.034 6.63 2.79 12.33
1/10/2023 1:00:00 PM 6.84 44.312 0.034 6.69 2.88 12.32
1/10/2023 1:15:00 PM 6.86 44.348 0.034 6.64 2.88 12.31
1/10/2023 1:30:00 PM 6.87 44.366 0.034 6.69 2.91 12.29
1/10/2023 1:45:00 PM 6.89 44.402 0.034 6.72 2.82 12.28
1/10/2023 2:00:00 PM 6.9 44.42 0.034 6.68 2.78 12.27
1/10/2023 2:15:00 PM 6.9 44.42 0.034 6.68 3.08 12.26
1/10/2023 2:30:00 PM 6.92 44.456 0.034 6.68 2.89 12.26
1/10/2023 2:45:00 PM 6.93 44.474 0.034 6.69 2.87 12.25
1/10/2023 3:00:00 PM 6.94 44.492 0.034 6.69 3 12.24
1/10/2023 3:15:00 PM 6.95 44.51 0.034 6.69 2.9 12.23
1/10/2023 3:30:00 PM 6.96 44.528 0.034 6.71 3.12 12.19
1/10/2023 3:45:00 PM 6.95 44.51 0.034 6.66 3.02 12.15
1/10/2023 4:00:00 PM 6.96 44.528 0.034 6.67 2.94 12.12
1/10/2023 4:15:00 PM 6.95 44.51 0.034 6.63 3.03 12.1
1/10/2023 4:30:00 PM 6.95 44.51 0.035 6.64 2.97 12.08
1/10/2023 4:45:00 PM 6.94 44.492 0.034 6.61 3.14 12.07
1/10/2023 5:00:00 PM 6.94 44.492 0.035 6.64 3.11 12.05
1/10/2023 5:15:00 PM 6.94 44.492 0.035 6.63 3.1 12.04
1/10/2023 5:30:00 PM 6.94 44.492 0.035 6.63 3.03 12.03
1/10/2023 5:45:00 PM 6.93 44.474 0.035 6.63 2.9 12.02
1/10/2023 6:00:00 PM 6.93 44.474 0.035 6.62 2.94 12.02
1/10/2023 6:15:00 PM 6.92 44.456 0.035 6.61 3.13 12.03
1/10/2023 6:30:00 PM 6.92 44.456 0.035 6.63 2.94 12.02
1/10/2023 6:45:00 PM 6.91 44.438 0.035 6.65 2.97 12.03
1/10/2023 7:00:00 PM 6.91 44.438 0.035 6.59 3.02 12.02
1/10/2023 7:15:00 PM 6.91 44.438 0.035 6.64 2.93 12.03
1/10/2023 7:30:00 PM 6.9 44.42 0.035 6.6 2.86 12.03
1/10/2023 7:45:00 PM 6.9 44.42 0.035 6.63 2.94 12.04
1/10/2023 8:00:00 PM 6.89 44.402 0.035 6.62 2.87 12.04
1/10/2023 8:15:00 PM 6.89 44.402 0.035 6.62 2.92 12.04
1/10/2023 8:30:00 PM 6.89 44.402 0.035 6.61 2.95 12.04
1/10/2023 8:45:00 PM 6.88 44.384 0.035 6.61 3 12.04
1/10/2023 9:00:00 PM 6.87 44.366 0.035 6.61 2.97 12.05
1/10/2023 9:15:00 PM 6.87 44.366 0.035 6.61 2.99 12.05
1/10/2023 9:30:00 PM 6.86 44.348 0.035 6.61 2.98 12.05
1/10/2023 9:45:00 PM 6.86 44.348 0.035 6.6 2.89 12.04
1/10/2023 10:00:00 PM 6.86 44.348 0.035 6.63 2.98 12.05
1/10/2023 10:15:00 PM 6.85 44.33 0.035 6.61 2.83 12.05
1/10/2023 10:30:00 PM 6.84 44.312 0.035 6.6 2.94 12.06
1/10/2023 10:45:00 PM 6.84 44.312 0.035 6.62 2.78 12.06
1/10/2023 11:00:00 PM 6.84 44.312 0.035 6.63 2.83 12.06
1/10/2023 11:15:00 PM 6.83 44.294 0.035 6.58 2.82 12.06
1/10/2023 11:30:00 PM 6.83 44.294 0.035 6.6 2.85 12.07
1/10/2023 11:45:00 PM 6.82 44.276 0.035 6.6 2.88 12.07
1/11/2023 12:00:00 AM 6.81 44.258 0.035 6.6 2.92 12.07
1/11/2023 12:15:00 AM 6.81 44.258 0.036 6.6 2.89 12.08
1/11/2023 12:30:00 AM 6.81 44.258 0.035 6.59 2.94 12.08
1/11/2023 12:45:00 AM 6.8 44.24 0.036 6.6 2.88 12.08
1/11/2023 1:00:00 AM 6.79 44.222 0.036 6.61 2.84 12.08
1/11/2023 1:15:00 AM 6.79 44.222 0.035 6.62 2.97 12.08
1/11/2023 1:30:00 AM 6.78 44.204 0.036 6.58 2.77 12.08
1/11/2023 1:45:00 AM 6.78 44.204 0.036 6.6 3.01 12.09
1/11/2023 2:00:00 AM 6.77 44.186 0.035 6.55 2.95 12.09
1/11/2023 2:15:00 AM 6.76 44.168 0.036 6.59 2.92 12.08
1/11/2023 2:30:00 AM 6.76 44.168 0.036 6.59 2.95 12.09
1/11/2023 2:45:00 AM 6.75 44.15 0.036 6.59 2.87 12.1
1/11/2023 3:00:00 AM 6.75 44.15 0.035 6.62 3.06 12.09
1/11/2023 3:15:00 AM 6.74 44.132 0.035 6.57 2.94 12.1
1/11/2023 3:30:00 AM 6.74 44.132 0.035 6.59 2.89 12.11
1/11/2023 3:45:00 AM 6.73 44.114 0.035 6.58 2.89 12.11
1/11/2023 4:00:00 AM 6.72 44.096 0.035 6.59 3.03 12.11
1/11/2023 4:15:00 AM 6.72 44.096 0.035 6.59 2.95 12.1
1/11/2023 4:30:00 AM 6.71 44.078 0.035 6.59 3.04 12.11
1/11/2023 4:45:00 AM 6.71 44.078 0.035 6.62 2.95 12.11
1/11/2023 5:00:00 AM 6.7 44.06 0.035 6.6 3.04 12.11
1/11/2023 5:15:00 AM 6.69 44.042 0.035 6.56 2.85 12.11
1/11/2023 5:30:00 AM 6.69 44.042 0.035 6.55 2.95 12.12
1/11/2023 5:45:00 AM 6.68 44.024 0.035 6.59 2.92 12.11
1/11/2023 6:00:00 AM 6.66 43.988 0.035 6.54 3.06 12.11
1/11/2023 6:15:00 AM 6.63 43.934 0.035 6.59 3.02 12.12
1/11/2023 6:30:00 AM 6.6 43.88 0.035 6.58 2.97 12.12
1/11/2023 6:45:00 AM 6.58 43.844 0.035 6.58 2.98 12.12
1/11/2023 7:00:00 AM 6.56 43.808 0.035 6.58 2.9 12.13
1/11/2023 7:15:00 AM 6.55 43.79 0.035 6.59 2.87 12.14
1/11/2023 7:30:00 AM 6.53 43.754 0.035 6.58 2.88 12.14
1/11/2023 7:45:00 AM 6.53 43.754 0.035 6.58 3.11 12.17
1/11/2023 8:00:00 AM 6.51 43.718 0.035 6.59 2.97 12.21
1/11/2023 8:15:00 AM 6.5 43.7 0.035 6.6 2.91 12.26
1/11/2023 8:30:00 AM 6.49 43.682 0.035 6.61 2.88 12.3
1/11/2023 8:45:00 AM 6.49 43.682 0.035 6.59 2.85 12.34
1/11/2023 9:00:00 AM 6.48 43.664 0.035 6.61 2.85 12.38
1/11/2023 9:15:00 AM 6.48 43.664 0.035 6.6 2.87 12.42
1/11/2023 9:30:00 AM 6.5 43.7 0.035 6.6 2.82 12.43
1/11/2023 9:45:00 AM 6.52 43.736 0.035 6.63 2.85 12.46
1/11/2023 10:00:00 AM 6.54 43.772 0.035 6.62 2.8 12.46
1/11/2023 10:15:00 AM 6.58 43.844 0.035 6.66 2.87 12.47
1/11/2023 10:30:00 AM 6.62 43.916 0.035 6.65 2.81 12.48
1/11/2023 10:45:00 AM 6.67 44.006 0.035 6.7 2.89 12.49
1/11/2023 11:00:00 AM 6.73 44.114 0.035 6.72 2.86 12.48
1/11/2023 11:15:00 AM 6.77 44.186 0.035 6.68 2.9 12.47
1/11/2023 11:30:00 AM 6.83 44.294 0.035 6.68 2.87 12.47
1/11/2023 11:45:00 AM 6.89 44.402 0.035 6.71 2.88 12.47
1/11/2023 12:00:00 PM 6.94 44.492 0.035 6.7 2.85 12.44
1/11/2023 12:15:00 PM 6.98 44.564 0.035 6.68 2.88 12.43
1/11/2023 12:30:00 PM 7.03 44.654 0.035 6.72 2.85 12.41
1/11/2023 12:45:00 PM 7.08 44.744 0.035 6.72 2.77 12.39
1/11/2023 1:00:00 PM 7.11 44.798 0.035 6.76 2.91 12.38
1/11/2023 1:15:00 PM 7.12 44.816 0.035 6.72 2.88 12.37
1/11/2023 1:30:00 PM 7.16 44.888 0.035 6.73 2.9 12.36
1/11/2023 1:45:00 PM 7.18 44.924 0.035 6.71 2.95 12.36
1/11/2023 2:00:00 PM 7.2 44.96 0.035 6.74 2.87 12.34
1/11/2023 2:15:00 PM 7.22 44.996 0.035 6.78 2.89 12.34
1/11/2023 2:30:00 PM 7.24 45.032 0.035 6.72 2.8 12.33
1/11/2023 2:45:00 PM 7.25 45.05 0.035 6.74 2.9 12.31
1/11/2023 3:00:00 PM 7.26 45.068 0.035 6.73 2.82 12.3
1/11/2023 3:15:00 PM 7.26 45.068 0.035 6.73 2.93 12.29
1/11/2023 3:30:00 PM 7.27 45.086 0.035 6.72 2.8 12.28
1/11/2023 3:45:00 PM 7.28 45.104 0.035 6.55 2.84 12.27
1/11/2023 4:00:00 PM 7.27 45.086 0.035 6.7 2.96 12.24
1/11/2023 4:15:00 PM 7.27 45.086 0.035 6.68 2.87 12.21
1/11/2023 4:30:00 PM 7.26 45.068 0.035 6.7 3.05 12.18
1/11/2023 4:45:00 PM 7.24 45.032 0.035 6.69 2.86 12.12
1/11/2023 5:00:00 PM 7.23 45.014 0.035 6.64 2.88 12.07
1/11/2023 5:15:00 PM 7.21 44.978 0.035 6.67 2.85 12.05
1/11/2023 5:30:00 PM 7.19 44.942 0.035 6.67 3.03 12.02
1/11/2023 5:45:00 PM 7.17 44.906 0.035 6.68 3.03 12
1/11/2023 6:00:00 PM 7.15 44.87 0.035 6.64 2.97 11.99
1/11/2023 6:15:00 PM 7.13 44.834 0.036 6.65 2.9 11.98
1/11/2023 6:30:00 PM 7.12 44.816 0.036 6.68 2.77 11.98
1/11/2023 6:45:00 PM 7.11 44.798 0.036 6.63 2.94 11.98
1/11/2023 7:00:00 PM 7.1 44.78 0.036 6.6 2.88 11.98
1/11/2023 7:15:00 PM 7.08 44.744 0.036 6.64 2.91 11.98
1/11/2023 7:30:00 PM 7.07 44.726 0.036 6.62 2.89 11.98
1/11/2023 7:45:00 PM 7.06 44.708 0.036 6.63 2.95 11.99
1/11/2023 8:00:00 PM 7.04 44.672 0.036 6.62 2.89 11.99
1/11/2023 8:15:00 PM 7.03 44.654 0.036 6.65 2.89 12
1/11/2023 8:30:00 PM 7.02 44.636 0.036 6.65 2.95 11.99
1/11/2023 8:45:00 PM 7 44.6 0.036 6.62 2.87 12
1/11/2023 9:00:00 PM 6.99 44.582 0.036 6.62 2.91 12.01
1/11/2023 9:15:00 PM 6.98 44.564 0.036 6.6 3.01 12.01
1/11/2023 9:30:00 PM 6.97 44.546 0.036 6.61 2.94 12.02
1/11/2023 9:45:00 PM 6.98 44.564 0.036 6.65 3.1 12.02
1/11/2023 10:00:00 PM 6.97 44.546 0.036 6.65 2.78 12.02
1/11/2023 10:15:00 PM 6.97 44.546 0.036 6.61 2.92 12.02
1/11/2023 10:30:00 PM 6.97 44.546 0.036 6.6 2.92 12.02
1/11/2023 10:45:00 PM 6.97 44.546 0.036 6.64 2.87 12.03
1/11/2023 11:00:00 PM 6.96 44.528 0.036 6.59 2.91 12.03
1/11/2023 11:15:00 PM 6.95 44.51 0.036 6.61 2.94 12.03
1/11/2023 11:30:00 PM 6.94 44.492 0.036 6.62 2.79 12.04
1/11/2023 11:45:00 PM 6.93 44.474 0.036 6.62 2.99 12.04
1/12/2023 12:00:00 AM 6.92 44.456 0.036 6.6 2.87 12.04
1/12/2023 12:15:00 AM 6.91 44.438 0.036 6.62 2.87 12.05
1/12/2023 12:30:00 AM 6.89 44.402 0.036 6.59 2.88 12.05
1/12/2023 12:45:00 AM 6.88 44.384 0.036 6.61 2.98 12.05
1/12/2023 1:00:00 AM 6.88 44.384 0.036 6.6 2.85 12.05
1/12/2023 1:15:00 AM 6.87 44.366 0.036 6.62 2.87 12.05
1/12/2023 1:30:00 AM 6.86 44.348 0.036 6.57 2.95 12.06
1/12/2023 1:45:00 AM 6.85 44.33 0.036 6.64 2.89 12.06
1/12/2023 2:00:00 AM 6.84 44.312 0.036 6.59 3.03 12.07
1/12/2023 2:15:00 AM 6.84 44.312 0.036 6.6 3.02 12.06
1/12/2023 2:30:00 AM 6.84 44.312 0.036 6.63 2.95 12.07
1/12/2023 2:45:00 AM 6.83 44.294 0.036 6.6 2.94 12.06
1/12/2023 3:00:00 AM 6.83 44.294 0.036 6.62 2.75 12.06
1/12/2023 3:15:00 AM 6.82 44.276 0.036 6.59 3 12.07
1/12/2023 3:30:00 AM 6.82 44.276 0.036 6.57 2.92 12.07
1/12/2023 3:45:00 AM 6.81 44.258 0.036 6.6 2.88 12.07
1/12/2023 4:00:00 AM 6.81 44.258 0.036 6.61 3.01 12.07
1/12/2023 4:15:00 AM 6.81 44.258 0.036 6.59 2.9 12.07
1/12/2023 4:30:00 AM 6.8 44.24 0.036 6.6 2.86 12.06
1/12/2023 4:45:00 AM 6.79 44.222 0.036 6.6 2.78 12.07
1/12/2023 5:00:00 AM 6.78 44.204 0.036 6.56 2.85 12.07
1/12/2023 5:15:00 AM 6.77 44.186 0.036 6.6 2.9 12.06
1/12/2023 5:30:00 AM 6.73 44.114 0.036 6.64 2.86 12.07
1/12/2023 5:45:00 AM 6.71 44.078 0.036 6.62 2.95 12.06
1/12/2023 6:00:00 AM 6.68 44.024 0.036 6.58 2.95 12.07
1/12/2023 6:15:00 AM 6.64 43.952 0.036 6.59 2.99 12.07
1/12/2023 6:30:00 AM 6.6 43.88 0.036 6.6 2.92 12.09
1/12/2023 6:45:00 AM 6.68 44.024 0.036 6.62 2.97 12.06
1/12/2023 7:00:00 AM 6.61 43.898 0.036 6.61 2.92 12.1
1/12/2023 7:15:00 AM 6.72 44.096 0.036 6.58 3.04 12.06
1/12/2023 7:30:00 AM 6.75 44.15 0.036 6.59 2.85 12.04
1/12/2023 7:45:00 AM 6.76 44.168 0.036 6.59 2.97 12.05
1/12/2023 8:00:00 AM 6.76 44.168 0.036 6.57 3.02 12.06
1/12/2023 8:15:00 AM 6.68 44.024 0.036 6.62 2.85 12.11
1/12/2023 8:30:00 AM 6.77 44.186 0.036 6.6 2.98 12.09
1/12/2023 8:45:00 AM 6.79 44.222 0.036 6.61 2.92 12.11
1/12/2023 9:00:00 AM 6.76 44.168 0.036 6.65 2.93 12.16
1/12/2023 9:15:00 AM 6.71 44.078 0.036 6.6 2.81 12.2
1/12/2023 9:30:00 AM 6.8 44.24 0.036 6.6 2.86 12.17
1/12/2023 9:45:00 AM 6.76 44.168 0.036 6.64 2.93 12.21
1/12/2023 10:00:00 AM 6.73 44.114 0.036 6.63 2.88 12.25
1/12/2023 10:15:00 AM 6.85 44.33 0.036 6.65 2.9 12.21
1/12/2023 10:30:00 AM 6.79 44.222 0.036 6.69 2.82 12.26
1/12/2023 10:45:00 AM 6.79 44.222 0.036 6.65 2.81 12.29
1/12/2023 11:00:00 AM 6.8 44.24 0.036 6.68 2.8 12.29
1/12/2023 11:15:00 AM 6.82 44.276 0.036 6.67 2.89 12.3
1/12/2023 11:30:00 AM 6.84 44.312 0.036 6.69 2.83 12.3
1/12/2023 11:45:00 AM 6.86 44.348 0.036 6.64 2.75 12.3
1/12/2023 12:00:00 PM 6.88 44.384 0.036 6.66 3 12.28
1/12/2023 12:15:00 PM 6.9 44.42 0.036 6.65 2.71 12.27
1/12/2023 12:30:00 PM 6.92 44.456 0.036 6.69 2.83 12.25
1/12/2023 12:45:00 PM 6.94 44.492 0.036 6.66 2.86 12.24
1/12/2023 1:00:00 PM 6.96 44.528 0.036 6.69 2.86 12.24
1/12/2023 1:15:00 PM 6.99 44.582 0.036 6.69 2.84 12.22
1/12/2023 1:30:00 PM 7.01 44.618 0.036 6.69 2.8 12.2
1/12/2023 1:45:00 PM 7.03 44.654 0.036 6.66 2.84 12.18
1/12/2023 2:00:00 PM 7.05 44.69 0.036 6.7 2.79 12.16
1/12/2023 2:15:00 PM 7.07 44.726 0.036 6.7 2.9 12.15
1/12/2023 2:30:00 PM 7.09 44.762 0.036 6.64 2.98 12.13
1/12/2023 2:45:00 PM 7.12 44.816 0.036 6.68 2.9 12.1
1/12/2023 3:00:00 PM 7.14 44.852 0.036 6.73 2.98 12.11
1/12/2023 3:15:00 PM 7.16 44.888 0.036 6.7 2.71 12.1
1/12/2023 3:30:00 PM 7.52 45.536 0.036 6.69 2.94 11.92
1/12/2023 3:45:00 PM 7.47 45.446 0.036 6.73 2.83 11.91
1/12/2023 4:00:00 PM 7.33 45.194 0.036 6.69 2.9 11.95
1/12/2023 4:15:00 PM 7.28 45.104 0.036 6.66 2.98 11.96
1/12/2023 4:30:00 PM 7.28 45.104 0.036 6.64 2.88 11.94
1/12/2023 4:45:00 PM 7.27 45.086 0.037 6.65 3.58 11.93
1/12/2023 5:00:00 PM 7.28 45.104 0.037 6.68 3.17 11.89
1/12/2023 5:15:00 PM 7.28 45.104 0.036 6.7 3.08 11.88
1/12/2023 5:30:00 PM 7.29 45.122 0.037 6.65 3.35 11.87
1/12/2023 5:45:00 PM 7.29 45.122 0.037 6.67 3.73 11.86
1/12/2023 6:00:00 PM 7.3 45.14 0.037 6.65 4.66 11.86
1/12/2023 6:15:00 PM 7.3 45.14 0.038 6.67 4.43 11.86
1/12/2023 6:30:00 PM 7.31 45.158 0.039 6.64 4.6 11.85
1/12/2023 6:45:00 PM 7.66 45.788 0.04 6.67 9.02 11.69
1/12/2023 7:00:00 PM 7.66 45.788 0.044 6.65 26.79 11.68
1/12/2023 7:15:00 PM 7.67 45.806 0.046 6.7 25.36 11.67
1/12/2023 7:30:00 PM 7.71 45.878 0.046 6.67 26.34 11.67
1/12/2023 7:45:00 PM 7.81 46.058 0.046 6.72 20.47 11.62
1/12/2023 8:00:00 PM 7.84 46.112 0.046 6.75 18.52 11.59
1/12/2023 8:15:00 PM 7.85 46.13 0.046 6.76 14.63 11.59
1/12/2023 8:30:00 PM 7.86 46.148 0.046 6.73 13.39 11.59
1/12/2023 8:45:00 PM 7.84 46.112 0.045 6.73 15.06 11.6
1/12/2023 9:00:00 PM 7.82 46.076 0.045 6.74 14.88 11.61
1/12/2023 9:15:00 PM 7.82 46.076 0.044 6.7 19.47 11.62
1/12/2023 9:30:00 PM 7.82 46.076 0.044 6.69 18.13 11.61
1/12/2023 9:45:00 PM 7.83 46.094 0.043 6.71 35.97 11.61
1/12/2023 10:00:00 PM 7.85 46.13 0.043 6.74 17.28 11.6
1/12/2023 10:15:00 PM 7.95 46.31 0.042 6.65 15.27 11.56
1/12/2023 10:30:00 PM 7.98 46.364 0.042 6.69 13.24 11.54
1/12/2023 10:45:00 PM 7.99 46.382 0.042 6.73 14.13 11.53
1/12/2023 11:00:00 PM 8.02 46.436 0.042 6.73 12.99 11.52
1/12/2023 11:15:00 PM 8.03 46.454 0.043 6.74 12.43 11.52
1/12/2023 11:30:00 PM 8.06 46.508 0.043 6.72 11.35 11.51
1/12/2023 11:45:00 PM 8.09 46.562 0.042 6.66 11.92 11.49
1/13/2023 12:00:00 AM 8.14 46.652 0.042 6.71 11.28 11.47
1/13/2023 12:15:00 AM 8.16 46.688 0.042 6.7 10.18 11.46
1/13/2023 12:30:00 AM 8.13 46.634 0.041 6.7 9.73 11.48
1/13/2023 12:45:00 AM 8.14 46.652 0.041 6.7 9.28 11.47
1/13/2023 1:00:00 AM 8.16 46.688 0.04 6.66 8.76 11.45
1/13/2023 1:15:00 AM 8.21 46.778 0.04 6.68 8.34 11.44
1/13/2023 1:30:00 AM 8.23 46.814 0.04 6.68 9.23 11.43
1/13/2023 1:45:00 AM 8.29 46.922 0.04 6.7 9.79 11.41
1/13/2023 2:00:00 AM 8.34 47.012 0.04 6.69 9.6 11.39
1/13/2023 2:15:00 AM 8.35 47.03 0.04 6.71 10.23 11.39
1/13/2023 2:30:00 AM 8.37 47.066 0.04 6.71 10.94 11.39
1/13/2023 2:45:00 AM 8.39 47.102 0.04 6.69 11.87 11.38
1/13/2023 3:00:00 AM 8.4 47.12 0.041 6.7 11.98 11.38
1/13/2023 3:15:00 AM 8.41 47.138 0.041 6.73 12.06 11.39
1/13/2023 3:30:00 AM 8.43 47.174 0.041 6.71 11.77 11.38
1/13/2023 3:45:00 AM 8.45 47.21 0.041 6.73 12.88 11.37
1/13/2023 4:00:00 AM 8.47 47.246 0.041 6.68 13.01 11.36
1/13/2023 4:15:00 AM 8.49 47.282 0.04 6.66 12.45 11.36
1/13/2023 4:30:00 AM 8.51 47.318 0.04 6.67 12.16 11.35
1/13/2023 4:45:00 AM 8.56 47.408 0.039 6.71 12.22 11.34
1/13/2023 5:00:00 AM 8.6 47.48 0.039 6.68 11.78 11.33
1/13/2023 5:15:00 AM 8.64 47.552 0.038 6.71 13.02 11.32
1/13/2023 5:30:00 AM 8.65 47.57 0.037 6.69 12.06 11.31
1/13/2023 5:45:00 AM 8.67 47.606 0.037 6.66 10.82 11.32
1/13/2023 6:00:00 AM 8.69 47.642 0.036 6.67 10.84 11.31
1/13/2023 6:15:00 AM 8.71 47.678 0.036 6.66 10.35 11.3
1/13/2023 6:30:00 AM 8.73 47.714 0.036 6.66 10.31 11.29
1/13/2023 6:45:00 AM 8.75 47.75 0.035 6.68 9.7 11.29
1/13/2023 7:00:00 AM 8.77 47.786 0.035 6.63 10.15 11.28
1/13/2023 7:15:00 AM 8.8 47.84 0.035 6.62 9.47 11.27
1/13/2023 7:30:00 AM 8.82 47.876 0.034 6.66 9.4 11.26
1/13/2023 7:45:00 AM 8.85 47.93 0.034 6.65 9.35 11.26
1/13/2023 8:00:00 AM 8.87 47.966 0.034 6.61 9.27 11.25
1/13/2023 8:15:00 AM 8.89 48.002 0.033 6.62 8.77 11.25
1/13/2023 8:30:00 AM 8.88 47.984 0.033 6.61 9.04 11.25
1/13/2023 8:45:00 AM 8.87 47.966 0.033 6.6 8.67 11.27
1/13/2023 9:00:00 AM 8.87 47.966 0.033 6.61 8.44 11.28
1/13/2023 9:15:00 AM 8.85 47.93 0.033 6.6 8.59 11.3
1/13/2023 9:30:00 AM 8.83 47.894 0.033 6.61 8.03 11.32
1/13/2023 9:45:00 AM 8.82 47.876 0.032 6.61 8.03 11.34
1/13/2023 10:00:00 AM 8.79 47.822 0.032 6.61 7.83 11.38
1/13/2023 10:15:00 AM 8.78 47.804 0.032 6.64 7.49 11.39
1/13/2023 10:30:00 AM 8.75 47.75 0.032 6.6 7.7 11.42
1/13/2023 10:45:00 AM 8.73 47.714 0.032 6.62 7.16 11.43
1/13/2023 11:00:00 AM 8.71 47.678 0.032 6.63 7.45 11.43
1/13/2023 11:15:00 AM 8.73 47.714 0.032 6.58 7.2 11.44
1/13/2023 11:30:00 AM 8.71 47.678 0.032 6.63 6.98 11.47
1/13/2023 11:45:00 AM 8.72 47.696 0.032 6.64 6.77 11.47
1/13/2023 12:00:00 PM 8.72 47.696 0.032 6.63 7.32 11.49
1/13/2023 12:15:00 PM 8.73 47.714 0.032 6.61 6.71 11.51
1/13/2023 12:30:00 PM 8.72 47.696 0.032 6.65 6.62 11.49
1/13/2023 12:45:00 PM 8.69 47.642 0.032 6.59 6.26 11.49
1/13/2023 1:00:00 PM 8.68 47.624 0.032 6.62 6.85 11.49
1/13/2023 1:15:00 PM 8.66 47.588 0.032 6.61 6.2 11.49
1/13/2023 1:30:00 PM 8.63 47.534 0.031 6.62 6.17 11.5
1/13/2023 1:45:00 PM 8.6 47.48 0.031 6.64 6.33 11.49
1/13/2023 2:00:00 PM 8.57 47.426 0.031 6.61 5.84 11.5
1/13/2023 2:15:00 PM 8.53 47.354 0.031 6.59 5.81 11.5
1/13/2023 2:30:00 PM 8.5 47.3 0.031 6.6 6 11.51
1/13/2023 2:45:00 PM 8.48 47.264 0.031 6.58 5.65 11.51
1/13/2023 3:00:00 PM 8.46 47.228 0.031 6.59 5.68 11.51
1/13/2023 3:15:00 PM 8.43 47.174 0.031 6.57 5.6 11.5
1/13/2023 3:30:00 PM 8.4 47.12 0.031 6.54 5.71 11.49
1/13/2023 3:45:00 PM 8.36 47.048 0.031 6.59 5.57 11.49
1/13/2023 4:00:00 PM 8.34 47.012 0.031 6.53 5.52 11.49
1/13/2023 4:15:00 PM 8.32 46.976 0.031 6.56 5.54 11.49
1/13/2023 4:30:00 PM 8.28 46.904 0.031 6.55 5.44 11.49
1/13/2023 4:45:00 PM 8.24 46.832 0.031 6.52 5.52 11.5
1/13/2023 5:00:00 PM 8.2 46.76 0.031 6.53 5.34 11.51
1/13/2023 5:15:00 PM 8.16 46.688 0.031 6.5 5.36 11.52
1/13/2023 5:30:00 PM 8.13 46.634 0.031 6.5 5.28 11.52
1/13/2023 5:45:00 PM 8.09 46.562 0.031 6.51 5.16 11.53
1/13/2023 6:00:00 PM 8.07 46.526 0.03 6.48 5.34 11.54
1/13/2023 6:15:00 PM 8.02 46.436 0.03 6.47 5.05 11.55
1/13/2023 6:30:00 PM 7.97 46.346 0.03 6.45 5.01 11.56
1/13/2023 6:45:00 PM 7.94 46.292 0.03 6.45 4.95 11.57
1/13/2023 7:00:00 PM 7.9 46.22 0.03 6.44 5.07 11.58
1/13/2023 7:15:00 PM 7.86 46.148 0.03 6.39 4.81 11.58
1/13/2023 7:30:00 PM 7.82 46.076 0.03 6.44 5.17 11.59
1/13/2023 7:45:00 PM 7.78 46.004 0.03 6.47 4.88 11.61
1/13/2023 8:00:00 PM 7.75 45.95 0.03 6.48 4.84 11.61
1/13/2023 8:15:00 PM 7.7 45.86 0.03 6.42 4.68 11.63
1/13/2023 8:30:00 PM 7.67 45.806 0.03 6.44 4.52 11.64
1/13/2023 8:45:00 PM 7.62 45.716 0.03 6.47 4.79 11.66
1/13/2023 9:00:00 PM 7.57 45.626 0.03 6.45 4.71 11.68
1/13/2023 9:15:00 PM 7.53 45.554 0.03 6.43 4.61 11.69
1/13/2023 9:30:00 PM 7.5 45.5 0.03 6.42 4.75 11.7
1/13/2023 9:45:00 PM 7.48 45.464 0.03 6.43 4.49 11.71
1/13/2023 10:00:00 PM 7.44 45.392 0.03 6.45 4.69 11.73
1/13/2023 10:15:00 PM 7.43 45.374 0.03 6.43 4.43 11.73
1/13/2023 10:30:00 PM 7.38 45.284 0.029 6.41 4.59 11.74
1/13/2023 10:45:00 PM 7.36 45.248 0.03 6.45 4.69 11.75
1/13/2023 11:00:00 PM 7.33 45.194 0.029 6.41 4.36 11.75
1/13/2023 11:15:00 PM 7.3 45.14 0.029 6.43 4.48 11.75
1/13/2023 11:30:00 PM 7.26 45.068 0.029 6.45 4.33 11.77
1/13/2023 11:45:00 PM 7.23 45.014 0.029 6.46 4.49 11.77
1/14/2023 12:00:00 AM 7.2 44.96 0.029 6.43 4.37 11.77
1/14/2023 12:15:00 AM 7.17 44.906 0.029 6.45 4.27 11.78
1/14/2023 12:30:00 AM 7.15 44.87 0.029 6.42 4.12 11.79
1/14/2023 12:45:00 AM 7.12 44.816 0.029 6.42 4.38 11.8
1/14/2023 1:00:00 AM 7.1 44.78 0.029 6.43 4.31 11.8
1/14/2023 1:15:00 AM 7.08 44.744 0.029 6.44 4.24 11.81
1/14/2023 1:30:00 AM 7.06 44.708 0.029 6.43 4.11 11.81
1/14/2023 1:45:00 AM 7.04 44.672 0.029 6.42 4.24 11.82
1/14/2023 2:00:00 AM 7.01 44.618 0.029 6.43 4.2 11.83
1/14/2023 2:15:00 AM 6.98 44.564 0.029 6.44 4.26 11.84
1/14/2023 2:30:00 AM 6.95 44.51 0.029 6.44 4.27 11.85
1/14/2023 2:45:00 AM 6.91 44.438 0.029 6.41 4.03 11.86
1/14/2023 3:00:00 AM 6.87 44.366 0.029 6.4 4.29 11.88
1/14/2023 3:15:00 AM 6.84 44.312 0.029 6.43 3.94 11.9
1/14/2023 3:30:00 AM 6.8 44.24 0.029 6.44 4 11.9
1/14/2023 3:45:00 AM 6.76 44.168 0.029 6.42 3.9 11.92
1/14/2023 4:00:00 AM 6.73 44.114 0.029 6.45 3.94 11.93
1/14/2023 4:15:00 AM 6.7 44.06 0.029 6.41 3.85 11.94
1/14/2023 4:30:00 AM 6.68 44.024 0.029 6.41 3.98 11.95
1/14/2023 4:45:00 AM 6.65 43.97 0.029 6.43 3.78 11.96
1/14/2023 5:00:00 AM 6.62 43.916 0.029 6.4 3.94 11.96
1/14/2023 5:15:00 AM 6.58 43.844 0.029 6.44 3.77 11.97
1/14/2023 5:30:00 AM 6.55 43.79 0.029 6.4 3.75 11.98
1/14/2023 5:45:00 AM 6.51 43.718 0.029 6.41 3.93 11.99
1/14/2023 6:00:00 AM 6.48 43.664 0.029 6.42 3.73 12
1/14/2023 6:15:00 AM 6.46 43.628 0.029 6.38 3.56 12.01
1/14/2023 6:30:00 AM 6.43 43.574 0.029 6.39 3.68 12.02
1/14/2023 6:45:00 AM 6.4 43.52 0.029 6.44 3.75 12.03
1/14/2023 7:00:00 AM 6.38 43.484 0.029 6.43 3.8 12.04
1/14/2023 7:15:00 AM 6.35 43.43 0.029 6.44 3.77 12.06
1/14/2023 7:30:00 AM 6.33 43.394 0.029 6.4 3.75 12.06
1/14/2023 7:45:00 AM 6.3 43.34 0.029 6.45 3.71 12.07
1/14/2023 8:00:00 AM 6.27 43.286 0.029 6.42 4.04 12.09
1/14/2023 8:15:00 AM 6.23 43.214 0.029 6.42 3.67 12.11
1/14/2023 8:30:00 AM 6.22 43.196 0.029 6.43 3.65 12.13
1/14/2023 8:45:00 AM 6.18 43.124 0.029 6.44 3.58 12.16
1/14/2023 9:00:00 AM 6.16 43.088 0.029 6.4 3.63 12.19
1/14/2023 9:15:00 AM 6.14 43.052 0.029 6.42 3.62 12.22
1/14/2023 9:30:00 AM 6.12 43.016 0.029 6.42 3.45 12.24
1/14/2023 9:45:00 AM 6.13 43.034 0.029 6.45 3.57 12.26
1/14/2023 10:00:00 AM 6.12 43.016 0.029 6.44 3.7 12.29
1/14/2023 10:15:00 AM 6.12 43.016 0.029 6.48 3.63 12.3
1/14/2023 10:30:00 AM 6.11 42.998 0.029 6.45 3.61 12.32
1/14/2023 10:45:00 AM 6.12 43.016 0.029 6.49 3.56 12.33
1/14/2023 11:00:00 AM 6.12 43.016 0.029 6.5 3.47 12.34
1/14/2023 11:15:00 AM 6.12 43.016 0.029 6.5 3.5 12.35
1/14/2023 11:30:00 AM 6.14 43.052 0.029 6.48 3.37 12.36
1/14/2023 11:45:00 AM 6.15 43.07 0.029 6.51 3.51 12.35
1/14/2023 12:00:00 PM 6.14 43.052 0.029 6.55 3.58 12.36
1/14/2023 12:15:00 PM 6.15 43.07 0.029 6.53 3.41 12.36
1/14/2023 12:30:00 PM 6.16 43.088 0.029 6.52 3.39 12.36
1/14/2023 12:45:00 PM 6.17 43.106 0.029 6.53 3.46 12.36
1/14/2023 1:00:00 PM 6.17 43.106 0.029 6.54 3.39 12.36
1/14/2023 1:15:00 PM 6.17 43.106 0.029 6.54 3.5 12.35
1/14/2023 1:30:00 PM 6.18 43.124 0.029 6.57 3.48 12.35
1/14/2023 1:45:00 PM 6.18 43.124 0.029 6.55 3.25 12.35
1/14/2023 2:00:00 PM 6.18 43.124 0.029 6.53 3.59 12.35
1/14/2023 2:15:00 PM 6.2 43.16 0.029 6.54 3.41 12.34
1/14/2023 2:30:00 PM 6.21 43.178 0.029 6.53 3.55 12.33
1/14/2023 2:45:00 PM 6.22 43.196 0.029 6.54 3.44 12.33
1/14/2023 3:00:00 PM 6.21 43.178 0.029 6.54 3.46 12.32
1/14/2023 3:15:00 PM 6.2 43.16 0.029 6.53 3.37 12.31
1/14/2023 3:30:00 PM 6.19 43.142 0.029 6.52 3.54 12.31
1/14/2023 3:45:00 PM 6.16 43.088 0.029 6.54 3.5 12.3
1/14/2023 4:00:00 PM 6.14 43.052 0.029 6.55 3.33 12.29
1/14/2023 4:15:00 PM 6.12 43.016 0.029 6.51 3.41 12.27
1/14/2023 4:30:00 PM 6.09 42.962 0.029 6.53 3.38 12.26
1/14/2023 4:45:00 PM 6.05 42.89 0.029 6.51 3.37 12.24
1/14/2023 5:00:00 PM 6.02 42.836 0.029 6.51 3.48 12.23
1/14/2023 5:15:00 PM 5.99 42.782 0.029 6.49 3.43 12.22
1/14/2023 5:30:00 PM 5.96 42.728 0.029 6.49 3.51 12.22
1/14/2023 5:45:00 PM 5.92 42.656 0.029 6.48 3.43 12.22
1/14/2023 6:00:00 PM 5.89 42.602 0.029 6.42 3.48 12.23
1/14/2023 6:15:00 PM 5.86 42.548 0.029 6.43 3.39 12.24
1/14/2023 6:30:00 PM 5.82 42.476 0.029 6.4 3.52 12.26
1/14/2023 6:45:00 PM 5.79 42.422 0.029 6.5 3.31 12.26
1/14/2023 7:00:00 PM 5.75 42.35 0.029 6.43 3.41 12.28
1/14/2023 7:15:00 PM 5.72 42.296 0.029 6.42 3.37 12.29
1/14/2023 7:30:00 PM 5.69 42.242 0.029 6.48 3.4 12.31
1/14/2023 7:45:00 PM 5.64 42.152 0.03 6.45 3.38 12.32
1/14/2023 8:00:00 PM 5.6 42.08 0.029 6.43 3.27 12.34
1/14/2023 8:15:00 PM 5.57 42.026 0.029 6.47 3.43 12.35
1/14/2023 8:30:00 PM 5.53 41.954 0.029 6.45 3.3 12.36
1/14/2023 8:45:00 PM 5.5 41.9 0.03 6.42 3.33 12.37
1/14/2023 9:00:00 PM 5.46 41.828 0.03 6.45 3.3 12.39
1/14/2023 9:15:00 PM 5.44 41.792 0.03 6.39 3.36 12.39
1/14/2023 9:30:00 PM 5.41 41.738 0.029 6.44 3.44 12.4
1/14/2023 9:45:00 PM 5.38 41.684 0.03 6.41 3.44 12.4
1/14/2023 10:00:00 PM 5.36 41.648 0.03 6.44 3.25 12.41
1/14/2023 10:15:00 PM 5.32 41.576 0.03 6.42 3.4 12.42
1/14/2023 10:30:00 PM 5.3 41.54 0.029 6.45 3.31 12.42
1/14/2023 10:45:00 PM 5.28 41.504 0.03 6.43 3.2 12.43
1/14/2023 11:00:00 PM 5.25 41.45 0.03 6.42 3.21 12.43
1/14/2023 11:15:00 PM 5.22 41.396 0.03 6.47 3.26 12.45
1/14/2023 11:30:00 PM 5.2 41.36 0.03 6.42 3.28 12.46
1/14/2023 11:45:00 PM 5.19 41.342 0.03 6.43 3.43 12.47
1/15/2023 12:00:00 AM 5.17 41.306 0.03 6.48 3.36 12.48
1/15/2023 12:15:00 AM 5.15 41.27 0.03 6.43 3.39 12.49
1/15/2023 12:30:00 AM 5.14 41.252 0.03 6.44 3.47 12.5
1/15/2023 12:45:00 AM 5.14 41.252 0.03 6.46 3.34 12.51
1/15/2023 1:00:00 AM 5.13 41.234 0.03 6.43 3.38 12.52
1/15/2023 1:15:00 AM 5.11 41.198 0.03 6.48 3.6 12.53
1/15/2023 1:30:00 AM 5.1 41.18 0.03 6.42 3.23 12.53
1/15/2023 1:45:00 AM 5.07 41.126 0.03 6.45 3.28 12.54
1/15/2023 2:00:00 AM 5.07 41.126 0.03 6.45 3.3 12.54
1/15/2023 2:15:00 AM 5.07 41.126 0.03 6.49 3.18 12.54
1/15/2023 2:30:00 AM 5.05 41.09 0.03 6.44 3.31 12.55
1/15/2023 2:45:00 AM 5.05 41.09 0.03 6.47 3.26 12.54
1/15/2023 3:00:00 AM 5.04 41.072 0.03 6.48 3.24 12.56
1/15/2023 3:15:00 AM 5.04 41.072 0.03 6.45 3.47 12.55
1/15/2023 3:30:00 AM 5.03 41.054 0.03 6.45 3.27 12.56
1/15/2023 3:45:00 AM 5.01 41.018 0.03 6.46 3.25 12.56
1/15/2023 4:00:00 AM 4.99 40.982 0.03 6.46 3.27 12.57
1/15/2023 4:15:00 AM 4.98 40.964 0.03 6.45 3.29 12.56
1/15/2023 4:30:00 AM 4.96 40.928 0.03 6.44 3.17 12.58
1/15/2023 4:45:00 AM 4.94 40.892 0.03 6.45 3.14 12.58
1/15/2023 5:00:00 AM 4.93 40.874 0.03 6.41 3.39 12.59
1/15/2023 5:15:00 AM 4.92 40.856 0.03 6.43 3.26 12.6
1/15/2023 5:30:00 AM 4.89 40.802 0.03 6.45 3.25 12.6
1/15/2023 5:45:00 AM 4.88 40.784 0.03 6.48 3.29 12.6
1/15/2023 6:00:00 AM 4.86 40.748 0.03 6.45 3.28 12.6
1/15/2023 6:15:00 AM 4.84 40.712 0.03 6.43 3.32 12.61
1/15/2023 6:30:00 AM 4.82 40.676 0.03 6.42 3.17 12.61
1/15/2023 6:45:00 AM 4.82 40.676 0.03 6.44 3.21 12.61
1/15/2023 7:00:00 AM 4.8 40.64 0.03 6.38 3.11 12.61
1/15/2023 7:15:00 AM 4.79 40.622 0.03 6.44 3.2 12.63
1/15/2023 7:30:00 AM 4.77 40.586 0.03 6.48 3.27 12.63
1/15/2023 7:45:00 AM 4.77 40.586 0.03 6.47 3.3 12.64
1/15/2023 8:00:00 AM 4.76 40.568 0.03 6.45 3.22 12.67
1/15/2023 8:15:00 AM 4.75 40.55 0.03 6.46 3.19 12.7
1/15/2023 8:30:00 AM 4.74 40.532 0.03 6.45 3.25 12.73
1/15/2023 8:45:00 AM 4.74 40.532 0.03 6.47 3.19 12.76
1/15/2023 9:00:00 AM 4.73 40.514 0.03 6.46 3.32 12.78
1/15/2023 9:15:00 AM 4.73 40.514 0.03 6.49 3.41 12.81
1/15/2023 9:30:00 AM 4.73 40.514 0.03 6.5 3.14 12.82
1/15/2023 9:45:00 AM 4.75 40.55 0.03 6.48 3.11 12.83
1/15/2023 10:00:00 AM 4.74 40.532 0.03 6.5 3.14 12.84
1/15/2023 10:15:00 AM 4.76 40.568 0.03 6.5 3.15 12.84
1/15/2023 10:30:00 AM -99999.99 -179968 -99999.99 -99999.99 -99999.99 -99999.99
1/15/2023 10:45:00 AM 4.81 40.658 0.03 6.49 3.04 12.86
1/15/2023 11:00:00 AM 4.88 40.784 0.03 6.51 3.11 12.85
1/15/2023 11:15:00 AM 4.96 40.928 0.03 6.54 3.14 12.85
1/15/2023 11:30:00 AM 5.01 41.018 0.03 6.53 3.13 12.84
1/15/2023 11:45:00 AM 5.07 41.126 0.03 6.54 3.17 12.82
1/15/2023 12:00:00 PM 5.12 41.216 0.03 6.55 2.95 12.81
1/15/2023 12:15:00 PM 5.19 41.342 0.03 6.54 3.28 12.8
1/15/2023 12:30:00 PM 5.25 41.45 0.03 6.55 3.18 12.78
1/15/2023 12:45:00 PM 5.3 41.54 0.03 6.53 3.44 12.78
1/15/2023 1:00:00 PM 5.33 41.594 0.03 6.5 3.1 12.77
1/15/2023 1:15:00 PM 5.36 41.648 0.03 6.55 3.17 12.76
1/15/2023 1:30:00 PM 5.38 41.684 0.03 6.56 3.16 12.74
1/15/2023 1:45:00 PM 5.39 41.702 0.03 6.52 3.04 12.74
1/15/2023 2:00:00 PM 5.4 41.72 0.03 6.52 3.05 12.74
1/15/2023 2:15:00 PM 5.41 41.738 0.03 6.5 3.09 12.72
1/15/2023 2:30:00 PM 5.42 41.756 0.03 6.5 3.21 12.7
1/15/2023 2:45:00 PM 5.44 41.792 0.03 6.58 2.98 12.69
1/15/2023 3:00:00 PM 5.46 41.828 0.03 6.56 3.06 12.67
1/15/2023 3:15:00 PM 5.47 41.846 0.03 6.51 3.17 12.66
1/15/2023 3:30:00 PM 5.48 41.864 0.03 6.54 3.08 12.63
1/15/2023 3:45:00 PM 5.5 41.9 0.03 6.53 3.21 12.62
1/15/2023 4:00:00 PM 5.5 41.9 0.03 6.53 3.13 12.6
1/15/2023 4:15:00 PM 5.51 41.918 0.03 6.54 3.09 12.57
1/15/2023 4:30:00 PM 5.52 41.936 0.03 6.49 3.2 12.55
1/15/2023 4:45:00 PM 5.52 41.936 0.03 6.54 3.08 12.52
1/15/2023 5:00:00 PM 5.51 41.918 0.03 6.55 3.28 12.49
1/15/2023 5:15:00 PM 5.5 41.9 0.03 6.52 3.11 12.47
1/15/2023 5:30:00 PM 5.48 41.864 0.031 6.58 3.13 12.46
1/15/2023 5:45:00 PM 5.46 41.828 0.031 6.49 3.24 12.46
1/15/2023 6:00:00 PM 5.44 41.792 0.031 6.54 3.1 12.45
1/15/2023 6:15:00 PM 5.41 41.738 0.031 6.48 3.16 12.46
1/15/2023 6:30:00 PM 5.38 41.684 0.031 6.51 3.18 12.46
1/15/2023 6:45:00 PM 5.36 41.648 0.031 6.51 3.13 12.47
1/15/2023 7:00:00 PM 5.33 41.594 0.031 6.51 3.25 12.47
1/15/2023 7:15:00 PM 5.3 41.54 0.031 6.49 3.06 12.48
1/15/2023 7:30:00 PM 5.28 41.504 0.031 6.44 3.36 12.48
1/15/2023 7:45:00 PM 5.25 41.45 0.031 6.47 3.14 12.5
1/15/2023 8:00:00 PM 5.22 41.396 0.031 6.45 3.24 12.51
1/15/2023 8:15:00 PM 5.18 41.324 0.031 6.51 3.3 12.51
1/15/2023 8:30:00 PM 5.15 41.27 0.031 6.44 3.17 12.52
1/15/2023 8:45:00 PM 5.12 41.216 0.031 6.42 3.11 12.53
1/15/2023 9:00:00 PM 5.08 41.144 0.031 6.44 3.14 12.54
1/15/2023 9:15:00 PM 5.05 41.09 0.031 6.47 3.14 12.56
1/15/2023 9:30:00 PM 5.02 41.036 0.031 6.43 3.16 12.57
1/15/2023 9:45:00 PM 4.99 40.982 0.031 6.45 3.16 12.58
1/15/2023 10:00:00 PM 4.96 40.928 0.031 6.46 3.16 12.6
1/15/2023 10:15:00 PM 4.93 40.874 0.031 6.51 3.11 12.6
1/15/2023 10:30:00 PM 4.9 40.82 0.031 6.42 3.23 12.62
1/15/2023 10:45:00 PM 4.87 40.766 0.031 6.5 3.1 12.63
1/15/2023 11:00:00 PM 4.84 40.712 0.031 6.42 3.15 12.64
1/15/2023 11:15:00 PM 4.82 40.676 0.031 6.44 3.12 12.64
1/15/2023 11:30:00 PM 4.79 40.622 0.031 6.4 3.16 12.65
1/15/2023 11:45:00 PM 4.76 40.568 0.031 6.41 3.14 12.66
1/16/2023 12:00:00 AM 4.73 40.514 0.031 6.42 3.22 12.67
1/16/2023 12:15:00 AM 4.71 40.478 0.031 6.45 3.12 12.67
1/16/2023 12:30:00 AM 4.69 40.442 0.031 6.44 3.22 12.67
1/16/2023 12:45:00 AM 4.66 40.388 0.031 6.42 3.07 12.68
1/16/2023 1:00:00 AM 4.63 40.334 0.031 6.44 3.07 12.68
1/16/2023 1:15:00 AM 4.6 40.28 0.031 6.4 3.19 12.69
1/16/2023 1:30:00 AM 4.57 40.226 0.031 6.43 3.14 12.7
1/16/2023 1:45:00 AM 4.54 40.172 0.031 6.44 3.14 12.71
1/16/2023 2:00:00 AM 4.52 40.136 0.031 6.43 3.11 12.71
1/16/2023 2:15:00 AM 4.5 40.1 0.031 6.49 3.28 12.72
1/16/2023 2:30:00 AM 4.48 40.064 0.031 6.43 3.15 12.73
1/16/2023 2:45:00 AM 4.46 40.028 0.031 6.49 3.1 12.73
1/16/2023 3:00:00 AM 4.45 40.01 0.031 6.44 3.05 12.75
1/16/2023 3:15:00 AM 4.42 39.956 0.031 6.41 3.1 12.75
1/16/2023 3:30:00 AM 4.4 39.92 0.031 6.49 3.19 12.75
1/16/2023 3:45:00 AM 4.38 39.884 0.031 6.46 3.03 12.76
1/16/2023 4:00:00 AM 4.37 39.866 0.031 6.43 3.27 12.77
1/16/2023 4:15:00 AM 4.34 39.812 0.031 6.46 3.18 12.78
1/16/2023 4:30:00 AM 4.32 39.776 0.031 6.42 3.26 12.79
1/16/2023 4:45:00 AM 4.3 39.74 0.031 6.48 3.08 12.79
1/16/2023 5:00:00 AM 4.27 39.686 0.031 6.45 3.06 12.8
1/16/2023 5:15:00 AM 4.26 39.668 0.031 6.41 3.08 12.8
1/16/2023 5:30:00 AM 4.24 39.632 0.031 6.46 2.99 12.81
1/16/2023 5:45:00 AM 4.23 39.614 0.031 6.46 2.97 12.81
1/16/2023 6:00:00 AM 4.21 39.578 0.031 6.42 2.93 12.83
1/16/2023 6:15:00 AM 4.2 39.56 0.031 6.42 3.08 12.82
1/16/2023 6:30:00 AM 4.18 39.524 0.031 6.41 3.06 12.82
1/16/2023 6:45:00 AM 4.17 39.506 0.031 6.44 3.06 12.83
1/16/2023 7:00:00 AM 4.15 39.47 0.031 6.43 3.2 12.84
1/16/2023 7:15:00 AM 4.14 39.452 0.031 6.45 3.1 12.83
1/16/2023 7:30:00 AM 4.12 39.416 0.031 6.44 3.02 12.85
1/16/2023 7:45:00 AM 4.11 39.398 0.031 6.38 3.18 12.87
1/16/2023 8:00:00 AM 4.11 39.398 0.031 6.45 3.17 12.88
1/16/2023 8:15:00 AM 4.09 39.362 0.031 6.45 3.07 12.92
1/16/2023 8:30:00 AM 4.09 39.362 0.031 6.46 3.01 12.94
1/16/2023 8:45:00 AM 4.1 39.38 0.031 6.5 3.18 12.96
1/16/2023 9:00:00 AM 4.1 39.38 0.031 6.47 3.11 12.98
1/16/2023 9:15:00 AM